<?xml version="1.0" encoding="UTF-8" standalone="no" ?>
<gpx xmlns="http://www.topografix.com/GPX/1/1" xmlns:xsi="http://www.w3.org/2001/XMLSchema-instance" xsi:schemaLocation="http://www.topografix.com/GPX/1/1 http://www.topografix.com/GPX/1/1/gpx.xsd" version="1.1" creator="VisuGPX - https://www.visugpx.com">
  <metadata>
    <name>Houlgate-Gonneville 31/08/2022</name>
  </metadata>
  <trk>
    <name><![CDATA[31/08/2022 14:24:47]]></name>
    <trkseg>
      <trkpt lat="49.30481" lon="-0.07524">
        <ele>-29.799999237061</ele>
        <time>2022-08-31T12:24:47Z</time>
      </trkpt>
      <trkpt lat="49.3048" lon="-0.07523">
        <ele>-29.60000038147</ele>
        <time>2022-08-31T12:24:48Z</time>
      </trkpt>
      <trkpt lat="49.30459" lon="-0.07486">
        <ele>-28.39999961853</ele>
        <time>2022-08-31T12:25:04Z</time>
      </trkpt>
      <trkpt lat="49.30458" lon="-0.07483">
        <ele>-28.799999237061</ele>
        <time>2022-08-31T12:25:09Z</time>
      </trkpt>
      <trkpt lat="49.30452" lon="-0.07478">
        <ele>-28</ele>
        <time>2022-08-31T12:25:16Z</time>
      </trkpt>
      <trkpt lat="49.3044" lon="-0.07469">
        <ele>-25.799999237061</ele>
        <time>2022-08-31T12:25:31Z</time>
      </trkpt>
      <trkpt lat="49.30425" lon="-0.07456">
        <ele>-25</ele>
        <time>2022-08-31T12:25:46Z</time>
      </trkpt>
      <trkpt lat="49.30418" lon="-0.07457">
        <ele>-23.799999237061</ele>
        <time>2022-08-31T12:25:55Z</time>
      </trkpt>
      <trkpt lat="49.30409" lon="-0.07453">
        <ele>-22.39999961853</ele>
        <time>2022-08-31T12:26:06Z</time>
      </trkpt>
      <trkpt lat="49.30409" lon="-0.07453">
        <ele>-22.39999961853</ele>
        <time>2022-08-31T12:26:07Z</time>
      </trkpt>
      <trkpt lat="49.304" lon="-0.07448">
        <ele>-22</ele>
        <time>2022-08-31T12:26:18Z</time>
      </trkpt>
      <trkpt lat="49.30392" lon="-0.07438">
        <ele>-20.60000038147</ele>
        <time>2022-08-31T12:26:28Z</time>
      </trkpt>
      <trkpt lat="49.30387" lon="-0.07433">
        <ele>-20.200000762939</ele>
        <time>2022-08-31T12:26:31Z</time>
      </trkpt>
      <trkpt lat="49.30381" lon="-0.07421">
        <ele>-20.39999961853</ele>
        <time>2022-08-31T12:26:46Z</time>
      </trkpt>
      <trkpt lat="49.3038" lon="-0.0742">
        <ele>-20.39999961853</ele>
        <time>2022-08-31T12:26:48Z</time>
      </trkpt>
      <trkpt lat="49.30374" lon="-0.07417">
        <ele>-20.200000762939</ele>
        <time>2022-08-31T12:26:58Z</time>
      </trkpt>
      <trkpt lat="49.30363" lon="-0.07413">
        <ele>-19.799999237061</ele>
        <time>2022-08-31T12:27:08Z</time>
      </trkpt>
      <trkpt lat="49.30349" lon="-0.07412">
        <ele>-19.39999961853</ele>
        <time>2022-08-31T12:27:23Z</time>
      </trkpt>
      <trkpt lat="49.30348" lon="-0.07411">
        <ele>-19.39999961853</ele>
        <time>2022-08-31T12:27:25Z</time>
      </trkpt>
      <trkpt lat="49.3034" lon="-0.07406">
        <ele>-18.799999237061</ele>
        <time>2022-08-31T12:27:34Z</time>
      </trkpt>
      <trkpt lat="49.30333" lon="-0.07387">
        <ele>-18.799999237061</ele>
        <time>2022-08-31T12:27:55Z</time>
      </trkpt>
      <trkpt lat="49.30328" lon="-0.07386">
        <ele>-18.799999237061</ele>
        <time>2022-08-31T12:28:06Z</time>
      </trkpt>
      <trkpt lat="49.30323" lon="-0.07385">
        <ele>-18.799999237061</ele>
        <time>2022-08-31T12:28:11Z</time>
      </trkpt>
      <trkpt lat="49.30315" lon="-0.07382">
        <ele>-18.60000038147</ele>
        <time>2022-08-31T12:28:29Z</time>
      </trkpt>
      <trkpt lat="49.303" lon="-0.07366">
        <ele>-18.39999961853</ele>
        <time>2022-08-31T12:28:46Z</time>
      </trkpt>
      <trkpt lat="49.30294" lon="-0.07355">
        <ele>-18.200000762939</ele>
        <time>2022-08-31T12:28:51Z</time>
      </trkpt>
      <trkpt lat="49.30277" lon="-0.07337">
        <ele>-17.39999961853</ele>
        <time>2022-08-31T12:29:08Z</time>
      </trkpt>
      <trkpt lat="49.30276" lon="-0.07336">
        <ele>-17.39999961853</ele>
        <time>2022-08-31T12:29:09Z</time>
      </trkpt>
      <trkpt lat="49.30261" lon="-0.07323">
        <ele>-16.60000038147</ele>
        <time>2022-08-31T12:29:25Z</time>
      </trkpt>
      <trkpt lat="49.30245" lon="-0.0731">
        <ele>-16.200000762939</ele>
        <time>2022-08-31T12:29:40Z</time>
      </trkpt>
      <trkpt lat="49.30236" lon="-0.07292">
        <ele>-15</ele>
        <time>2022-08-31T12:29:56Z</time>
      </trkpt>
      <trkpt lat="49.30243" lon="-0.07292">
        <ele>-14.800000190735</ele>
        <time>2022-08-31T12:30:04Z</time>
      </trkpt>
      <trkpt lat="49.30256" lon="-0.073">
        <ele>-15.60000038147</ele>
        <time>2022-08-31T12:30:19Z</time>
      </trkpt>
      <trkpt lat="49.30262" lon="-0.07274">
        <ele>-14.800000190735</ele>
        <time>2022-08-31T12:30:36Z</time>
      </trkpt>
      <trkpt lat="49.30264" lon="-0.07266">
        <ele>-14.199999809265</ele>
        <time>2022-08-31T12:30:41Z</time>
      </trkpt>
      <trkpt lat="49.30269" lon="-0.0723">
        <ele>-11.199999809265</ele>
        <time>2022-08-31T12:31:02Z</time>
      </trkpt>
      <trkpt lat="49.30273" lon="-0.07199">
        <ele>-8.8000001907349</ele>
        <time>2022-08-31T12:31:22Z</time>
      </trkpt>
      <trkpt lat="49.30261" lon="-0.07191">
        <ele>-5.8000001907349</ele>
        <time>2022-08-31T12:31:38Z</time>
      </trkpt>
      <trkpt lat="49.30257" lon="-0.07189">
        <ele>-5.1999998092651</ele>
        <time>2022-08-31T12:31:42Z</time>
      </trkpt>
      <trkpt lat="49.30244" lon="-0.07175">
        <ele>-3.5999999046326</ele>
        <time>2022-08-31T12:31:58Z</time>
      </trkpt>
      <trkpt lat="49.30232" lon="-0.07168">
        <ele>-2</ele>
        <time>2022-08-31T12:32:10Z</time>
      </trkpt>
      <trkpt lat="49.3021" lon="-0.07145">
        <ele>0.80000001192093</ele>
        <time>2022-08-31T12:32:34Z</time>
      </trkpt>
      <trkpt lat="49.30197" lon="-0.07128">
        <ele>3</ele>
        <time>2022-08-31T12:32:49Z</time>
      </trkpt>
      <trkpt lat="49.3019" lon="-0.07118">
        <ele>3.4000000953674</ele>
        <time>2022-08-31T12:32:57Z</time>
      </trkpt>
      <trkpt lat="49.30184" lon="-0.07112">
        <ele>4</ele>
        <time>2022-08-31T12:33:03Z</time>
      </trkpt>
      <trkpt lat="49.30172" lon="-0.07098">
        <ele>5.4000000953674</ele>
        <time>2022-08-31T12:33:21Z</time>
      </trkpt>
      <trkpt lat="49.3016" lon="-0.07092">
        <ele>5.4000000953674</ele>
        <time>2022-08-31T12:33:34Z</time>
      </trkpt>
      <trkpt lat="49.3014" lon="-0.07064">
        <ele>4.5999999046326</ele>
        <time>2022-08-31T12:33:55Z</time>
      </trkpt>
      <trkpt lat="49.30139" lon="-0.0706">
        <ele>4.4000000953674</ele>
        <time>2022-08-31T12:33:57Z</time>
      </trkpt>
      <trkpt lat="49.30129" lon="-0.07048">
        <ele>3.5999999046326</ele>
        <time>2022-08-31T12:34:12Z</time>
      </trkpt>
      <trkpt lat="49.30139" lon="-0.07028">
        <ele>3.5999999046326</ele>
        <time>2022-08-31T12:34:31Z</time>
      </trkpt>
      <trkpt lat="49.30148" lon="-0.07016">
        <ele>5.1999998092651</ele>
        <time>2022-08-31T12:34:45Z</time>
      </trkpt>
      <trkpt lat="49.30165" lon="-0.0701">
        <ele>7</ele>
        <time>2022-08-31T12:35:01Z</time>
      </trkpt>
      <trkpt lat="49.30164" lon="-0.07001">
        <ele>7.4000000953674</ele>
        <time>2022-08-31T12:35:05Z</time>
      </trkpt>
      <trkpt lat="49.30161" lon="-0.06991">
        <ele>8</ele>
        <time>2022-08-31T12:35:38Z</time>
      </trkpt>
      <trkpt lat="49.30171" lon="-0.06992">
        <ele>8.1999998092651</ele>
        <time>2022-08-31T12:36:08Z</time>
      </trkpt>
      <trkpt lat="49.30187" lon="-0.06995">
        <ele>9.3999996185303</ele>
        <time>2022-08-31T12:36:27Z</time>
      </trkpt>
      <trkpt lat="49.30188" lon="-0.06994">
        <ele>9.6000003814697</ele>
        <time>2022-08-31T12:36:28Z</time>
      </trkpt>
      <trkpt lat="49.30192" lon="-0.06993">
        <ele>10</ele>
        <time>2022-08-31T12:36:32Z</time>
      </trkpt>
      <trkpt lat="49.30196" lon="-0.06992">
        <ele>10.60000038147</ele>
        <time>2022-08-31T12:36:35Z</time>
      </trkpt>
      <trkpt lat="49.30221" lon="-0.06999">
        <ele>13</ele>
        <time>2022-08-31T12:37:00Z</time>
      </trkpt>
      <trkpt lat="49.30234" lon="-0.07001">
        <ele>14.39999961853</ele>
        <time>2022-08-31T12:37:12Z</time>
      </trkpt>
      <trkpt lat="49.3027" lon="-0.07006">
        <ele>16</ele>
        <time>2022-08-31T12:37:38Z</time>
      </trkpt>
      <trkpt lat="49.30287" lon="-0.07001">
        <ele>16.39999961853</ele>
        <time>2022-08-31T12:37:55Z</time>
      </trkpt>
      <trkpt lat="49.30291" lon="-0.0699">
        <ele>16.39999961853</ele>
        <time>2022-08-31T12:38:02Z</time>
      </trkpt>
      <trkpt lat="49.30286" lon="-0.06973">
        <ele>17</ele>
        <time>2022-08-31T12:38:16Z</time>
      </trkpt>
      <trkpt lat="49.30269" lon="-0.06944">
        <ele>19.39999961853</ele>
        <time>2022-08-31T12:38:40Z</time>
      </trkpt>
      <trkpt lat="49.3026" lon="-0.06934">
        <ele>21.799999237061</ele>
        <time>2022-08-31T12:38:56Z</time>
      </trkpt>
      <trkpt lat="49.30246" lon="-0.06921">
        <ele>23.200000762939</ele>
        <time>2022-08-31T12:39:20Z</time>
      </trkpt>
      <trkpt lat="49.30231" lon="-0.06896">
        <ele>25.39999961853</ele>
        <time>2022-08-31T12:39:44Z</time>
      </trkpt>
      <trkpt lat="49.30222" lon="-0.06874">
        <ele>27.60000038147</ele>
        <time>2022-08-31T12:40:10Z</time>
      </trkpt>
      <trkpt lat="49.30227" lon="-0.06869">
        <ele>28.799999237061</ele>
        <time>2022-08-31T12:40:29Z</time>
      </trkpt>
      <trkpt lat="49.30232" lon="-0.06863">
        <ele>31.200000762939</ele>
        <time>2022-08-31T12:40:46Z</time>
      </trkpt>
      <trkpt lat="49.3024" lon="-0.06849">
        <ele>34.400001525879</ele>
        <time>2022-08-31T12:41:03Z</time>
      </trkpt>
      <trkpt lat="49.30246" lon="-0.06837">
        <ele>37.599998474121</ele>
        <time>2022-08-31T12:41:18Z</time>
      </trkpt>
      <trkpt lat="49.30247" lon="-0.06825">
        <ele>39.400001525879</ele>
        <time>2022-08-31T12:41:53Z</time>
      </trkpt>
      <trkpt lat="49.30256" lon="-0.06811">
        <ele>41.599998474121</ele>
        <time>2022-08-31T12:42:21Z</time>
      </trkpt>
      <trkpt lat="49.30267" lon="-0.06803">
        <ele>44.799999237061</ele>
        <time>2022-08-31T12:42:35Z</time>
      </trkpt>
      <trkpt lat="49.30257" lon="-0.06788">
        <ele>46.200000762939</ele>
        <time>2022-08-31T12:42:56Z</time>
      </trkpt>
      <trkpt lat="49.30259" lon="-0.06788">
        <ele>45</ele>
        <time>2022-08-31T12:43:13Z</time>
      </trkpt>
      <trkpt lat="49.30258" lon="-0.06776">
        <ele>46.799999237061</ele>
        <time>2022-08-31T12:43:28Z</time>
      </trkpt>
      <trkpt lat="49.30258" lon="-0.06775">
        <ele>47</ele>
        <time>2022-08-31T12:43:29Z</time>
      </trkpt>
      <trkpt lat="49.30247" lon="-0.06746">
        <ele>48</ele>
        <time>2022-08-31T12:43:50Z</time>
      </trkpt>
      <trkpt lat="49.30228" lon="-0.06706">
        <ele>49.599998474121</ele>
        <time>2022-08-31T12:44:16Z</time>
      </trkpt>
      <trkpt lat="49.30217" lon="-0.06683">
        <ele>50.599998474121</ele>
        <time>2022-08-31T12:44:31Z</time>
      </trkpt>
      <trkpt lat="49.30209" lon="-0.06657">
        <ele>51.599998474121</ele>
        <time>2022-08-31T12:44:45Z</time>
      </trkpt>
      <trkpt lat="49.302" lon="-0.06635">
        <ele>51.599998474121</ele>
        <time>2022-08-31T12:45:00Z</time>
      </trkpt>
      <trkpt lat="49.30193" lon="-0.06623">
        <ele>51.799999237061</ele>
        <time>2022-08-31T12:45:07Z</time>
      </trkpt>
      <trkpt lat="49.30183" lon="-0.06591">
        <ele>52.400001525879</ele>
        <time>2022-08-31T12:45:24Z</time>
      </trkpt>
      <trkpt lat="49.30178" lon="-0.0657">
        <ele>53.200000762939</ele>
        <time>2022-08-31T12:45:39Z</time>
      </trkpt>
      <trkpt lat="49.30164" lon="-0.06517">
        <ele>53.599998474121</ele>
        <time>2022-08-31T12:46:07Z</time>
      </trkpt>
      <trkpt lat="49.30161" lon="-0.06499">
        <ele>54</ele>
        <time>2022-08-31T12:46:20Z</time>
      </trkpt>
      <trkpt lat="49.30156" lon="-0.06471">
        <ele>54.799999237061</ele>
        <time>2022-08-31T12:46:37Z</time>
      </trkpt>
      <trkpt lat="49.30152" lon="-0.06458">
        <ele>55</ele>
        <time>2022-08-31T12:46:45Z</time>
      </trkpt>
      <trkpt lat="49.30151" lon="-0.06454">
        <ele>55</ele>
        <time>2022-08-31T12:46:48Z</time>
      </trkpt>
      <trkpt lat="49.30152" lon="-0.06448">
        <ele>55.200000762939</ele>
        <time>2022-08-31T12:46:51Z</time>
      </trkpt>
      <trkpt lat="49.30151" lon="-0.06409">
        <ele>56.799999237061</ele>
        <time>2022-08-31T12:47:12Z</time>
      </trkpt>
      <trkpt lat="49.30149" lon="-0.06402">
        <ele>57</ele>
        <time>2022-08-31T12:47:17Z</time>
      </trkpt>
      <trkpt lat="49.30147" lon="-0.06361">
        <ele>58.799999237061</ele>
        <time>2022-08-31T12:47:41Z</time>
      </trkpt>
      <trkpt lat="49.30145" lon="-0.06355">
        <ele>59</ele>
        <time>2022-08-31T12:47:43Z</time>
      </trkpt>
      <trkpt lat="49.30142" lon="-0.06308">
        <ele>61</ele>
        <time>2022-08-31T12:48:10Z</time>
      </trkpt>
      <trkpt lat="49.3014" lon="-0.06266">
        <ele>63</ele>
        <time>2022-08-31T12:48:33Z</time>
      </trkpt>
      <trkpt lat="49.30139" lon="-0.06224">
        <ele>64.400001525879</ele>
        <time>2022-08-31T12:48:56Z</time>
      </trkpt>
      <trkpt lat="49.30142" lon="-0.06197">
        <ele>65</ele>
        <time>2022-08-31T12:49:10Z</time>
      </trkpt>
      <trkpt lat="49.30144" lon="-0.06167">
        <ele>66.199996948242</ele>
        <time>2022-08-31T12:49:27Z</time>
      </trkpt>
      <trkpt lat="49.30146" lon="-0.06141">
        <ele>67</ele>
        <time>2022-08-31T12:49:42Z</time>
      </trkpt>
      <trkpt lat="49.30145" lon="-0.06115">
        <ele>68</ele>
        <time>2022-08-31T12:49:56Z</time>
      </trkpt>
      <trkpt lat="49.30147" lon="-0.06089">
        <ele>69.199996948242</ele>
        <time>2022-08-31T12:50:12Z</time>
      </trkpt>
      <trkpt lat="49.30144" lon="-0.06066">
        <ele>70.400001525879</ele>
        <time>2022-08-31T12:50:27Z</time>
      </trkpt>
      <trkpt lat="49.30147" lon="-0.06054">
        <ele>70.599998474121</ele>
        <time>2022-08-31T12:50:39Z</time>
      </trkpt>
      <trkpt lat="49.30147" lon="-0.06044">
        <ele>70.800003051758</ele>
        <time>2022-08-31T12:50:46Z</time>
      </trkpt>
      <trkpt lat="49.30148" lon="-0.05999">
        <ele>72</ele>
        <time>2022-08-31T12:51:12Z</time>
      </trkpt>
      <trkpt lat="49.30153" lon="-0.05953">
        <ele>73.400001525879</ele>
        <time>2022-08-31T12:51:36Z</time>
      </trkpt>
      <trkpt lat="49.30154" lon="-0.05917">
        <ele>74.800003051758</ele>
        <time>2022-08-31T12:51:57Z</time>
      </trkpt>
      <trkpt lat="49.30152" lon="-0.0588">
        <ele>76</ele>
        <time>2022-08-31T12:52:17Z</time>
      </trkpt>
      <trkpt lat="49.30155" lon="-0.0587">
        <ele>76</ele>
        <time>2022-08-31T12:52:22Z</time>
      </trkpt>
      <trkpt lat="49.30156" lon="-0.05863">
        <ele>76.199996948242</ele>
        <time>2022-08-31T12:52:26Z</time>
      </trkpt>
      <trkpt lat="49.30164" lon="-0.05836">
        <ele>76</ele>
        <time>2022-08-31T12:52:45Z</time>
      </trkpt>
      <trkpt lat="49.30167" lon="-0.05823">
        <ele>76.199996948242</ele>
        <time>2022-08-31T12:52:55Z</time>
      </trkpt>
      <trkpt lat="49.30172" lon="-0.05804">
        <ele>76</ele>
        <time>2022-08-31T12:53:04Z</time>
      </trkpt>
      <trkpt lat="49.30174" lon="-0.05797">
        <ele>75.800003051758</ele>
        <time>2022-08-31T12:53:10Z</time>
      </trkpt>
      <trkpt lat="49.30175" lon="-0.05795">
        <ele>75.800003051758</ele>
        <time>2022-08-31T12:53:11Z</time>
      </trkpt>
      <trkpt lat="49.30175" lon="-0.05794">
        <ele>75.599998474121</ele>
        <time>2022-08-31T12:53:12Z</time>
      </trkpt>
      <trkpt lat="49.30176" lon="-0.05792">
        <ele>75.599998474121</ele>
        <time>2022-08-31T12:53:13Z</time>
      </trkpt>
      <trkpt lat="49.30177" lon="-0.05791">
        <ele>75.599998474121</ele>
        <time>2022-08-31T12:53:14Z</time>
      </trkpt>
      <trkpt lat="49.30177" lon="-0.05789">
        <ele>75.599998474121</ele>
        <time>2022-08-31T12:53:15Z</time>
      </trkpt>
      <trkpt lat="49.30177" lon="-0.05788">
        <ele>75.599998474121</ele>
        <time>2022-08-31T12:53:16Z</time>
      </trkpt>
      <trkpt lat="49.30185" lon="-0.05774">
        <ele>75.199996948242</ele>
        <time>2022-08-31T12:53:28Z</time>
      </trkpt>
      <trkpt lat="49.30188" lon="-0.05769">
        <ele>74.800003051758</ele>
        <time>2022-08-31T12:53:33Z</time>
      </trkpt>
      <trkpt lat="49.30189" lon="-0.05766">
        <ele>74.800003051758</ele>
        <time>2022-08-31T12:53:34Z</time>
      </trkpt>
      <trkpt lat="49.3019" lon="-0.05763">
        <ele>74.800003051758</ele>
        <time>2022-08-31T12:53:35Z</time>
      </trkpt>
      <trkpt lat="49.30191" lon="-0.05761">
        <ele>74.800003051758</ele>
        <time>2022-08-31T12:53:36Z</time>
      </trkpt>
      <trkpt lat="49.30192" lon="-0.05759">
        <ele>74.599998474121</ele>
        <time>2022-08-31T12:53:37Z</time>
      </trkpt>
      <trkpt lat="49.30196" lon="-0.05752">
        <ele>74.400001525879</ele>
        <time>2022-08-31T12:53:45Z</time>
      </trkpt>
      <trkpt lat="49.30197" lon="-0.05751">
        <ele>74.400001525879</ele>
        <time>2022-08-31T12:53:46Z</time>
      </trkpt>
      <trkpt lat="49.302" lon="-0.05749">
        <ele>73.800003051758</ele>
        <time>2022-08-31T12:54:01Z</time>
      </trkpt>
      <trkpt lat="49.30185" lon="-0.05742">
        <ele>71.599998474121</ele>
        <time>2022-08-31T12:54:35Z</time>
      </trkpt>
      <trkpt lat="49.30165" lon="-0.05725">
        <ele>68.800003051758</ele>
        <time>2022-08-31T12:54:55Z</time>
      </trkpt>
      <trkpt lat="49.30144" lon="-0.05705">
        <ele>65.400001525879</ele>
        <time>2022-08-31T12:55:17Z</time>
      </trkpt>
      <trkpt lat="49.30127" lon="-0.05695">
        <ele>62.400001525879</ele>
        <time>2022-08-31T12:55:36Z</time>
      </trkpt>
      <trkpt lat="49.30106" lon="-0.057">
        <ele>59.400001525879</ele>
        <time>2022-08-31T12:55:56Z</time>
      </trkpt>
      <trkpt lat="49.30086" lon="-0.05724">
        <ele>56.200000762939</ele>
        <time>2022-08-31T12:56:16Z</time>
      </trkpt>
      <trkpt lat="49.30076" lon="-0.05736">
        <ele>53</ele>
        <time>2022-08-31T12:56:34Z</time>
      </trkpt>
      <trkpt lat="49.30075" lon="-0.05742">
        <ele>51.400001525879</ele>
        <time>2022-08-31T12:57:15Z</time>
      </trkpt>
      <trkpt lat="49.30066" lon="-0.05731">
        <ele>49.799999237061</ele>
        <time>2022-08-31T12:57:55Z</time>
      </trkpt>
      <trkpt lat="49.30049" lon="-0.05716">
        <ele>46.799999237061</ele>
        <time>2022-08-31T12:58:15Z</time>
      </trkpt>
      <trkpt lat="49.30035" lon="-0.05699">
        <ele>43.799999237061</ele>
        <time>2022-08-31T12:58:34Z</time>
      </trkpt>
      <trkpt lat="49.30014" lon="-0.05692">
        <ele>41.200000762939</ele>
        <time>2022-08-31T12:58:56Z</time>
      </trkpt>
      <trkpt lat="49.29998" lon="-0.05688">
        <ele>38.599998474121</ele>
        <time>2022-08-31T12:59:16Z</time>
      </trkpt>
      <trkpt lat="49.29992" lon="-0.05684">
        <ele>38</ele>
        <time>2022-08-31T12:59:19Z</time>
      </trkpt>
      <trkpt lat="49.2998" lon="-0.05676">
        <ele>35.400001525879</ele>
        <time>2022-08-31T12:59:31Z</time>
      </trkpt>
      <trkpt lat="49.29968" lon="-0.05669">
        <ele>33.599998474121</ele>
        <time>2022-08-31T12:59:41Z</time>
      </trkpt>
      <trkpt lat="49.29953" lon="-0.0566">
        <ele>30.39999961853</ele>
        <time>2022-08-31T12:59:58Z</time>
      </trkpt>
      <trkpt lat="49.29941" lon="-0.05664">
        <ele>28.200000762939</ele>
        <time>2022-08-31T13:00:10Z</time>
      </trkpt>
      <trkpt lat="49.2992" lon="-0.05676">
        <ele>25.39999961853</ele>
        <time>2022-08-31T13:00:28Z</time>
      </trkpt>
      <trkpt lat="49.29908" lon="-0.05673">
        <ele>23.200000762939</ele>
        <time>2022-08-31T13:00:44Z</time>
      </trkpt>
      <trkpt lat="49.29903" lon="-0.05661">
        <ele>21.799999237061</ele>
        <time>2022-08-31T13:00:58Z</time>
      </trkpt>
      <trkpt lat="49.29899" lon="-0.05642">
        <ele>19.60000038147</ele>
        <time>2022-08-31T13:01:22Z</time>
      </trkpt>
      <trkpt lat="49.29891" lon="-0.05622">
        <ele>18.60000038147</ele>
        <time>2022-08-31T13:01:38Z</time>
      </trkpt>
      <trkpt lat="49.2988" lon="-0.05591">
        <ele>16.39999961853</ele>
        <time>2022-08-31T13:01:58Z</time>
      </trkpt>
      <trkpt lat="49.29873" lon="-0.05578">
        <ele>15.39999961853</ele>
        <time>2022-08-31T13:02:09Z</time>
      </trkpt>
      <trkpt lat="49.29869" lon="-0.0557">
        <ele>15.39999961853</ele>
        <time>2022-08-31T13:02:14Z</time>
      </trkpt>
      <trkpt lat="49.29866" lon="-0.05561">
        <ele>13.800000190735</ele>
        <time>2022-08-31T13:02:22Z</time>
      </trkpt>
      <trkpt lat="49.29864" lon="-0.05558">
        <ele>13.39999961853</ele>
        <time>2022-08-31T13:02:25Z</time>
      </trkpt>
      <trkpt lat="49.29856" lon="-0.05539">
        <ele>12.39999961853</ele>
        <time>2022-08-31T13:02:38Z</time>
      </trkpt>
      <trkpt lat="49.29852" lon="-0.05528">
        <ele>11.199999809265</ele>
        <time>2022-08-31T13:02:51Z</time>
      </trkpt>
      <trkpt lat="49.29842" lon="-0.05504">
        <ele>9.3999996185303</ele>
        <time>2022-08-31T13:03:07Z</time>
      </trkpt>
      <trkpt lat="49.29833" lon="-0.0549">
        <ele>8.3999996185303</ele>
        <time>2022-08-31T13:03:20Z</time>
      </trkpt>
      <trkpt lat="49.29831" lon="-0.05476">
        <ele>7.8000001907349</ele>
        <time>2022-08-31T13:03:29Z</time>
      </trkpt>
      <trkpt lat="49.29823" lon="-0.05453">
        <ele>7</ele>
        <time>2022-08-31T13:03:46Z</time>
      </trkpt>
      <trkpt lat="49.29813" lon="-0.05447">
        <ele>7</ele>
        <time>2022-08-31T13:03:54Z</time>
      </trkpt>
      <trkpt lat="49.29809" lon="-0.05437">
        <ele>6.8000001907349</ele>
        <time>2022-08-31T13:04:01Z</time>
      </trkpt>
      <trkpt lat="49.29805" lon="-0.05412">
        <ele>7</ele>
        <time>2022-08-31T13:04:18Z</time>
      </trkpt>
      <trkpt lat="49.29802" lon="-0.05396">
        <ele>7</ele>
        <time>2022-08-31T13:04:31Z</time>
      </trkpt>
      <trkpt lat="49.29802" lon="-0.05392">
        <ele>7.1999998092651</ele>
        <time>2022-08-31T13:04:33Z</time>
      </trkpt>
      <trkpt lat="49.29793" lon="-0.05358">
        <ele>8.8000001907349</ele>
        <time>2022-08-31T13:04:57Z</time>
      </trkpt>
      <trkpt lat="49.29784" lon="-0.05327">
        <ele>9.8000001907349</ele>
        <time>2022-08-31T13:05:17Z</time>
      </trkpt>
      <trkpt lat="49.2978" lon="-0.05303">
        <ele>10.39999961853</ele>
        <time>2022-08-31T13:05:33Z</time>
      </trkpt>
      <trkpt lat="49.29775" lon="-0.05282">
        <ele>11</ele>
        <time>2022-08-31T13:05:47Z</time>
      </trkpt>
      <trkpt lat="49.29763" lon="-0.0527">
        <ele>11.39999961853</ele>
        <time>2022-08-31T13:06:01Z</time>
      </trkpt>
      <trkpt lat="49.29753" lon="-0.05275">
        <ele>10.800000190735</ele>
        <time>2022-08-31T13:06:09Z</time>
      </trkpt>
      <trkpt lat="49.29726" lon="-0.05291">
        <ele>9</ele>
        <time>2022-08-31T13:06:31Z</time>
      </trkpt>
      <trkpt lat="49.29717" lon="-0.05314">
        <ele>6.5999999046326</ele>
        <time>2022-08-31T13:06:48Z</time>
      </trkpt>
      <trkpt lat="49.29714" lon="-0.05326">
        <ele>6</ele>
        <time>2022-08-31T13:06:58Z</time>
      </trkpt>
      <trkpt lat="49.29701" lon="-0.05366">
        <ele>4.1999998092651</ele>
        <time>2022-08-31T13:07:24Z</time>
      </trkpt>
      <trkpt lat="49.29701" lon="-0.05373">
        <ele>3.5999999046326</ele>
        <time>2022-08-31T13:07:29Z</time>
      </trkpt>
      <trkpt lat="49.29694" lon="-0.05421">
        <ele>0.80000001192093</ele>
        <time>2022-08-31T13:07:55Z</time>
      </trkpt>
      <trkpt lat="49.29686" lon="-0.05463">
        <ele>-1</ele>
        <time>2022-08-31T13:08:16Z</time>
      </trkpt>
      <trkpt lat="49.29678" lon="-0.05502">
        <ele>-3.4000000953674</ele>
        <time>2022-08-31T13:08:37Z</time>
      </trkpt>
      <trkpt lat="49.29672" lon="-0.05533">
        <ele>-4.4000000953674</ele>
        <time>2022-08-31T13:08:55Z</time>
      </trkpt>
      <trkpt lat="49.29668" lon="-0.05562">
        <ele>-5.8000001907349</ele>
        <time>2022-08-31T13:09:17Z</time>
      </trkpt>
      <trkpt lat="49.29659" lon="-0.05585">
        <ele>-6</ele>
        <time>2022-08-31T13:09:31Z</time>
      </trkpt>
      <trkpt lat="49.29641" lon="-0.0562">
        <ele>-6.5999999046326</ele>
        <time>2022-08-31T13:09:52Z</time>
      </trkpt>
      <trkpt lat="49.29628" lon="-0.0564">
        <ele>-7</ele>
        <time>2022-08-31T13:10:09Z</time>
      </trkpt>
      <trkpt lat="49.29624" lon="-0.05644">
        <ele>-7.1999998092651</ele>
        <time>2022-08-31T13:10:13Z</time>
      </trkpt>
      <trkpt lat="49.29618" lon="-0.05651">
        <ele>-7.1999998092651</ele>
        <time>2022-08-31T13:10:17Z</time>
      </trkpt>
      <trkpt lat="49.29616" lon="-0.05654">
        <ele>-7.1999998092651</ele>
        <time>2022-08-31T13:10:18Z</time>
      </trkpt>
      <trkpt lat="49.29614" lon="-0.05655">
        <ele>-7.1999998092651</ele>
        <time>2022-08-31T13:10:19Z</time>
      </trkpt>
      <trkpt lat="49.29599" lon="-0.0567">
        <ele>-7.5999999046326</ele>
        <time>2022-08-31T13:10:34Z</time>
      </trkpt>
      <trkpt lat="49.29586" lon="-0.05679">
        <ele>-8</ele>
        <time>2022-08-31T13:10:47Z</time>
      </trkpt>
      <trkpt lat="49.29585" lon="-0.0568">
        <ele>-8</ele>
        <time>2022-08-31T13:10:48Z</time>
      </trkpt>
      <trkpt lat="49.29583" lon="-0.0568">
        <ele>-8</ele>
        <time>2022-08-31T13:10:49Z</time>
      </trkpt>
      <trkpt lat="49.29558" lon="-0.05701">
        <ele>-7.5999999046326</ele>
        <time>2022-08-31T13:11:12Z</time>
      </trkpt>
      <trkpt lat="49.29546" lon="-0.05696">
        <ele>-7.5999999046326</ele>
        <time>2022-08-31T13:11:27Z</time>
      </trkpt>
      <trkpt lat="49.29544" lon="-0.05694">
        <ele>-7.5999999046326</ele>
        <time>2022-08-31T13:11:29Z</time>
      </trkpt>
      <trkpt lat="49.29534" lon="-0.05665">
        <ele>-6.8000001907349</ele>
        <time>2022-08-31T13:11:50Z</time>
      </trkpt>
      <trkpt lat="49.29514" lon="-0.05661">
        <ele>-6.4000000953674</ele>
        <time>2022-08-31T13:12:11Z</time>
      </trkpt>
      <trkpt lat="49.29498" lon="-0.05674">
        <ele>-3.7999999523163</ele>
        <time>2022-08-31T13:12:32Z</time>
      </trkpt>
      <trkpt lat="49.29478" lon="-0.05683">
        <ele>-1.3999999761581</ele>
        <time>2022-08-31T13:12:53Z</time>
      </trkpt>
      <trkpt lat="49.2946" lon="-0.05693">
        <ele>1.6000000238419</ele>
        <time>2022-08-31T13:13:13Z</time>
      </trkpt>
      <trkpt lat="49.29441" lon="-0.05698">
        <ele>4.1999998092651</ele>
        <time>2022-08-31T13:13:33Z</time>
      </trkpt>
      <trkpt lat="49.29423" lon="-0.05698">
        <ele>5.1999998092651</ele>
        <time>2022-08-31T13:13:58Z</time>
      </trkpt>
      <trkpt lat="49.29405" lon="-0.05691">
        <ele>7.5999999046326</ele>
        <time>2022-08-31T13:14:20Z</time>
      </trkpt>
      <trkpt lat="49.29382" lon="-0.05687">
        <ele>10.39999961853</ele>
        <time>2022-08-31T13:14:42Z</time>
      </trkpt>
      <trkpt lat="49.29368" lon="-0.05683">
        <ele>13.39999961853</ele>
        <time>2022-08-31T13:14:57Z</time>
      </trkpt>
      <trkpt lat="49.29344" lon="-0.05687">
        <ele>15</ele>
        <time>2022-08-31T13:15:19Z</time>
      </trkpt>
      <trkpt lat="49.29337" lon="-0.0569">
        <ele>15.39999961853</ele>
        <time>2022-08-31T13:15:25Z</time>
      </trkpt>
      <trkpt lat="49.29317" lon="-0.05698">
        <ele>17.60000038147</ele>
        <time>2022-08-31T13:15:45Z</time>
      </trkpt>
      <trkpt lat="49.293" lon="-0.05703">
        <ele>20.60000038147</ele>
        <time>2022-08-31T13:16:09Z</time>
      </trkpt>
      <trkpt lat="49.29289" lon="-0.05706">
        <ele>22.200000762939</ele>
        <time>2022-08-31T13:16:24Z</time>
      </trkpt>
      <trkpt lat="49.29275" lon="-0.05709">
        <ele>25.39999961853</ele>
        <time>2022-08-31T13:16:41Z</time>
      </trkpt>
      <trkpt lat="49.29261" lon="-0.05717">
        <ele>27</ele>
        <time>2022-08-31T13:16:58Z</time>
      </trkpt>
      <trkpt lat="49.29252" lon="-0.0572">
        <ele>30</ele>
        <time>2022-08-31T13:17:12Z</time>
      </trkpt>
      <trkpt lat="49.29235" lon="-0.05726">
        <ele>33</ele>
        <time>2022-08-31T13:17:31Z</time>
      </trkpt>
      <trkpt lat="49.29221" lon="-0.05733">
        <ele>36</ele>
        <time>2022-08-31T13:17:48Z</time>
      </trkpt>
      <trkpt lat="49.29206" lon="-0.05738">
        <ele>37.799999237061</ele>
        <time>2022-08-31T13:18:01Z</time>
      </trkpt>
      <trkpt lat="49.29204" lon="-0.05738">
        <ele>37.799999237061</ele>
        <time>2022-08-31T13:18:02Z</time>
      </trkpt>
      <trkpt lat="49.29189" lon="-0.0574">
        <ele>40.799999237061</ele>
        <time>2022-08-31T13:18:21Z</time>
      </trkpt>
      <trkpt lat="49.29177" lon="-0.05743">
        <ele>43</ele>
        <time>2022-08-31T13:18:44Z</time>
      </trkpt>
      <trkpt lat="49.29167" lon="-0.05754">
        <ele>43</ele>
        <time>2022-08-31T13:19:07Z</time>
      </trkpt>
      <trkpt lat="49.29153" lon="-0.05765">
        <ele>44.799999237061</ele>
        <time>2022-08-31T13:19:24Z</time>
      </trkpt>
      <trkpt lat="49.29129" lon="-0.05777">
        <ele>46.400001525879</ele>
        <time>2022-08-31T13:19:50Z</time>
      </trkpt>
      <trkpt lat="49.29103" lon="-0.05788">
        <ele>49.400001525879</ele>
        <time>2022-08-31T13:20:17Z</time>
      </trkpt>
      <trkpt lat="49.29087" lon="-0.05796">
        <ele>51.599998474121</ele>
        <time>2022-08-31T13:20:37Z</time>
      </trkpt>
      <trkpt lat="49.29066" lon="-0.05805">
        <ele>54.799999237061</ele>
        <time>2022-08-31T13:20:59Z</time>
      </trkpt>
      <trkpt lat="49.29051" lon="-0.05818">
        <ele>57</ele>
        <time>2022-08-31T13:21:16Z</time>
      </trkpt>
      <trkpt lat="49.29041" lon="-0.0582">
        <ele>58</ele>
        <time>2022-08-31T13:21:28Z</time>
      </trkpt>
      <trkpt lat="49.29019" lon="-0.05824">
        <ele>60.200000762939</ele>
        <time>2022-08-31T13:21:54Z</time>
      </trkpt>
      <trkpt lat="49.29009" lon="-0.05825">
        <ele>61.799999237061</ele>
        <time>2022-08-31T13:22:11Z</time>
      </trkpt>
      <trkpt lat="49.29005" lon="-0.05824">
        <ele>62.599998474121</ele>
        <time>2022-08-31T13:22:17Z</time>
      </trkpt>
      <trkpt lat="49.28983" lon="-0.0582">
        <ele>64.599998474121</ele>
        <time>2022-08-31T13:22:37Z</time>
      </trkpt>
      <trkpt lat="49.28958" lon="-0.05823">
        <ele>67.599998474121</ele>
        <time>2022-08-31T13:23:00Z</time>
      </trkpt>
      <trkpt lat="49.28943" lon="-0.05824">
        <ele>69</ele>
        <time>2022-08-31T13:23:16Z</time>
      </trkpt>
      <trkpt lat="49.28937" lon="-0.05829">
        <ele>70</ele>
        <time>2022-08-31T13:23:23Z</time>
      </trkpt>
      <trkpt lat="49.28919" lon="-0.05828">
        <ele>71.599998474121</ele>
        <time>2022-08-31T13:23:40Z</time>
      </trkpt>
      <trkpt lat="49.28914" lon="-0.05827">
        <ele>71.800003051758</ele>
        <time>2022-08-31T13:23:44Z</time>
      </trkpt>
      <trkpt lat="49.28899" lon="-0.05823">
        <ele>72.199996948242</ele>
        <time>2022-08-31T13:23:58Z</time>
      </trkpt>
      <trkpt lat="49.28898" lon="-0.05823">
        <ele>72.599998474121</ele>
        <time>2022-08-31T13:23:59Z</time>
      </trkpt>
      <trkpt lat="49.28886" lon="-0.05837">
        <ele>73.199996948242</ele>
        <time>2022-08-31T13:24:13Z</time>
      </trkpt>
      <trkpt lat="49.28885" lon="-0.05838">
        <ele>73.199996948242</ele>
        <time>2022-08-31T13:24:14Z</time>
      </trkpt>
      <trkpt lat="49.28881" lon="-0.05845">
        <ele>73.400001525879</ele>
        <time>2022-08-31T13:24:20Z</time>
      </trkpt>
      <trkpt lat="49.2888" lon="-0.05846">
        <ele>73.400001525879</ele>
        <time>2022-08-31T13:24:21Z</time>
      </trkpt>
      <trkpt lat="49.28876" lon="-0.05848">
        <ele>73.599998474121</ele>
        <time>2022-08-31T13:24:25Z</time>
      </trkpt>
      <trkpt lat="49.28864" lon="-0.05861">
        <ele>74.800003051758</ele>
        <time>2022-08-31T13:24:40Z</time>
      </trkpt>
      <trkpt lat="49.28853" lon="-0.05879">
        <ele>75.400001525879</ele>
        <time>2022-08-31T13:24:53Z</time>
      </trkpt>
      <trkpt lat="49.28846" lon="-0.05894">
        <ele>75.800003051758</ele>
        <time>2022-08-31T13:25:04Z</time>
      </trkpt>
      <trkpt lat="49.28836" lon="-0.05911">
        <ele>76</ele>
        <time>2022-08-31T13:25:16Z</time>
      </trkpt>
      <trkpt lat="49.28835" lon="-0.05912">
        <ele>76</ele>
        <time>2022-08-31T13:25:17Z</time>
      </trkpt>
      <trkpt lat="49.28834" lon="-0.05915">
        <ele>76</ele>
        <time>2022-08-31T13:25:19Z</time>
      </trkpt>
      <trkpt lat="49.2881" lon="-0.0595">
        <ele>78</ele>
        <time>2022-08-31T13:25:47Z</time>
      </trkpt>
      <trkpt lat="49.28794" lon="-0.05978">
        <ele>78.599998474121</ele>
        <time>2022-08-31T13:26:08Z</time>
      </trkpt>
      <trkpt lat="49.28777" lon="-0.06012">
        <ele>79.599998474121</ele>
        <time>2022-08-31T13:26:35Z</time>
      </trkpt>
      <trkpt lat="49.28761" lon="-0.06041">
        <ele>80.199996948242</ele>
        <time>2022-08-31T13:27:03Z</time>
      </trkpt>
      <trkpt lat="49.28741" lon="-0.06074">
        <ele>80.800003051758</ele>
        <time>2022-08-31T13:27:26Z</time>
      </trkpt>
      <trkpt lat="49.28722" lon="-0.06107">
        <ele>82.199996948242</ele>
        <time>2022-08-31T13:27:54Z</time>
      </trkpt>
      <trkpt lat="49.28715" lon="-0.06117">
        <ele>83</ele>
        <time>2022-08-31T13:28:02Z</time>
      </trkpt>
      <trkpt lat="49.28709" lon="-0.06124">
        <ele>83.199996948242</ele>
        <time>2022-08-31T13:28:08Z</time>
      </trkpt>
      <trkpt lat="49.28687" lon="-0.06152">
        <ele>84.599998474121</ele>
        <time>2022-08-31T13:28:32Z</time>
      </trkpt>
      <trkpt lat="49.28663" lon="-0.06173">
        <ele>86.400001525879</ele>
        <time>2022-08-31T13:28:56Z</time>
      </trkpt>
      <trkpt lat="49.28647" lon="-0.06182">
        <ele>86.199996948242</ele>
        <time>2022-08-31T13:29:11Z</time>
      </trkpt>
      <trkpt lat="49.28633" lon="-0.06193">
        <ele>86.199996948242</ele>
        <time>2022-08-31T13:29:28Z</time>
      </trkpt>
      <trkpt lat="49.2862" lon="-0.06207">
        <ele>87</ele>
        <time>2022-08-31T13:29:44Z</time>
      </trkpt>
      <trkpt lat="49.28602" lon="-0.06219">
        <ele>87.599998474121</ele>
        <time>2022-08-31T13:30:03Z</time>
      </trkpt>
      <trkpt lat="49.28578" lon="-0.06233">
        <ele>88.599998474121</ele>
        <time>2022-08-31T13:30:28Z</time>
      </trkpt>
      <trkpt lat="49.28566" lon="-0.06237">
        <ele>89</ele>
        <time>2022-08-31T13:30:41Z</time>
      </trkpt>
      <trkpt lat="49.28559" lon="-0.06244">
        <ele>89.400001525879</ele>
        <time>2022-08-31T13:30:56Z</time>
      </trkpt>
      <trkpt lat="49.28558" lon="-0.06246">
        <ele>89.400001525879</ele>
        <time>2022-08-31T13:30:57Z</time>
      </trkpt>
      <trkpt lat="49.28541" lon="-0.06259">
        <ele>89.800003051758</ele>
        <time>2022-08-31T13:31:13Z</time>
      </trkpt>
      <trkpt lat="49.28515" lon="-0.06278">
        <ele>90.800003051758</ele>
        <time>2022-08-31T13:31:39Z</time>
      </trkpt>
      <trkpt lat="49.28503" lon="-0.06289">
        <ele>91.400001525879</ele>
        <time>2022-08-31T13:31:54Z</time>
      </trkpt>
      <trkpt lat="49.28477" lon="-0.06302">
        <ele>91.800003051758</ele>
        <time>2022-08-31T13:32:16Z</time>
      </trkpt>
      <trkpt lat="49.28452" lon="-0.06316">
        <ele>92</ele>
        <time>2022-08-31T13:32:36Z</time>
      </trkpt>
      <trkpt lat="49.28429" lon="-0.06329">
        <ele>92.800003051758</ele>
        <time>2022-08-31T13:32:59Z</time>
      </trkpt>
      <trkpt lat="49.28401" lon="-0.06353">
        <ele>93.400001525879</ele>
        <time>2022-08-31T13:33:25Z</time>
      </trkpt>
      <trkpt lat="49.28382" lon="-0.06361">
        <ele>93.400001525879</ele>
        <time>2022-08-31T13:33:42Z</time>
      </trkpt>
      <trkpt lat="49.28357" lon="-0.06378">
        <ele>93.800003051758</ele>
        <time>2022-08-31T13:34:07Z</time>
      </trkpt>
      <trkpt lat="49.28349" lon="-0.06383">
        <ele>94</ele>
        <time>2022-08-31T13:34:11Z</time>
      </trkpt>
      <trkpt lat="49.28347" lon="-0.06384">
        <ele>94</ele>
        <time>2022-08-31T13:34:12Z</time>
      </trkpt>
      <trkpt lat="49.28346" lon="-0.06384">
        <ele>94</ele>
        <time>2022-08-31T13:34:13Z</time>
      </trkpt>
      <trkpt lat="49.28316" lon="-0.06399">
        <ele>94.400001525879</ele>
        <time>2022-08-31T13:34:42Z</time>
      </trkpt>
      <trkpt lat="49.28301" lon="-0.06413">
        <ele>94.400001525879</ele>
        <time>2022-08-31T13:34:57Z</time>
      </trkpt>
      <trkpt lat="49.28284" lon="-0.0642">
        <ele>94.599998474121</ele>
        <time>2022-08-31T13:35:13Z</time>
      </trkpt>
      <trkpt lat="49.28265" lon="-0.06433">
        <ele>94.599998474121</ele>
        <time>2022-08-31T13:35:30Z</time>
      </trkpt>
      <trkpt lat="49.28224" lon="-0.06444">
        <ele>95</ele>
        <time>2022-08-31T13:35:57Z</time>
      </trkpt>
      <trkpt lat="49.28189" lon="-0.06462">
        <ele>95.400001525879</ele>
        <time>2022-08-31T13:36:23Z</time>
      </trkpt>
      <trkpt lat="49.2816" lon="-0.06487">
        <ele>96</ele>
        <time>2022-08-31T13:36:50Z</time>
      </trkpt>
      <trkpt lat="49.28138" lon="-0.06503">
        <ele>95.800003051758</ele>
        <time>2022-08-31T13:37:15Z</time>
      </trkpt>
      <trkpt lat="49.28133" lon="-0.06496">
        <ele>95.800003051758</ele>
        <time>2022-08-31T13:37:20Z</time>
      </trkpt>
      <trkpt lat="49.28131" lon="-0.06483">
        <ele>95.800003051758</ele>
        <time>2022-08-31T13:37:28Z</time>
      </trkpt>
      <trkpt lat="49.28129" lon="-0.06446">
        <ele>96</ele>
        <time>2022-08-31T13:37:46Z</time>
      </trkpt>
      <trkpt lat="49.28134" lon="-0.06426">
        <ele>96.199996948242</ele>
        <time>2022-08-31T13:37:59Z</time>
      </trkpt>
      <trkpt lat="49.28134" lon="-0.06419">
        <ele>96.199996948242</ele>
        <time>2022-08-31T13:38:02Z</time>
      </trkpt>
      <trkpt lat="49.28133" lon="-0.06417">
        <ele>96</ele>
        <time>2022-08-31T13:38:03Z</time>
      </trkpt>
      <trkpt lat="49.28133" lon="-0.06415">
        <ele>96</ele>
        <time>2022-08-31T13:38:04Z</time>
      </trkpt>
      <trkpt lat="49.28131" lon="-0.06393">
        <ele>96</ele>
        <time>2022-08-31T13:38:17Z</time>
      </trkpt>
      <trkpt lat="49.28129" lon="-0.06366">
        <ele>96</ele>
        <time>2022-08-31T13:38:30Z</time>
      </trkpt>
      <trkpt lat="49.28128" lon="-0.06363">
        <ele>95.800003051758</ele>
        <time>2022-08-31T13:38:31Z</time>
      </trkpt>
      <trkpt lat="49.28128" lon="-0.06358">
        <ele>95.800003051758</ele>
        <time>2022-08-31T13:38:34Z</time>
      </trkpt>
      <trkpt lat="49.28128" lon="-0.06345">
        <ele>95.800003051758</ele>
        <time>2022-08-31T13:38:40Z</time>
      </trkpt>
      <trkpt lat="49.28127" lon="-0.06327">
        <ele>95.599998474121</ele>
        <time>2022-08-31T13:38:49Z</time>
      </trkpt>
      <trkpt lat="49.28127" lon="-0.06325">
        <ele>95.599998474121</ele>
        <time>2022-08-31T13:38:50Z</time>
      </trkpt>
      <trkpt lat="49.28126" lon="-0.06323">
        <ele>95.599998474121</ele>
        <time>2022-08-31T13:38:51Z</time>
      </trkpt>
      <trkpt lat="49.28122" lon="-0.06295">
        <ele>95.199996948242</ele>
        <time>2022-08-31T13:39:05Z</time>
      </trkpt>
      <trkpt lat="49.28121" lon="-0.0627">
        <ele>94.800003051758</ele>
        <time>2022-08-31T13:39:19Z</time>
      </trkpt>
      <trkpt lat="49.28124" lon="-0.06229">
        <ele>94</ele>
        <time>2022-08-31T13:39:44Z</time>
      </trkpt>
      <trkpt lat="49.28122" lon="-0.06208">
        <ele>93.400001525879</ele>
        <time>2022-08-31T13:39:56Z</time>
      </trkpt>
      <trkpt lat="49.28121" lon="-0.06185">
        <ele>92.800003051758</ele>
        <time>2022-08-31T13:40:08Z</time>
      </trkpt>
      <trkpt lat="49.28119" lon="-0.06147">
        <ele>90.199996948242</ele>
        <time>2022-08-31T13:40:33Z</time>
      </trkpt>
      <trkpt lat="49.2812" lon="-0.06121">
        <ele>88.199996948242</ele>
        <time>2022-08-31T13:40:47Z</time>
      </trkpt>
      <trkpt lat="49.28121" lon="-0.06101">
        <ele>86.400001525879</ele>
        <time>2022-08-31T13:40:59Z</time>
      </trkpt>
      <trkpt lat="49.28122" lon="-0.06087">
        <ele>85.199996948242</ele>
        <time>2022-08-31T13:41:08Z</time>
      </trkpt>
      <trkpt lat="49.28124" lon="-0.06063">
        <ele>83.599998474121</ele>
        <time>2022-08-31T13:41:20Z</time>
      </trkpt>
      <trkpt lat="49.28126" lon="-0.06044">
        <ele>81.400001525879</ele>
        <time>2022-08-31T13:41:31Z</time>
      </trkpt>
      <trkpt lat="49.28123" lon="-0.06032">
        <ele>80.599998474121</ele>
        <time>2022-08-31T13:41:40Z</time>
      </trkpt>
      <trkpt lat="49.28121" lon="-0.06028">
        <ele>80.199996948242</ele>
        <time>2022-08-31T13:41:42Z</time>
      </trkpt>
      <trkpt lat="49.2812" lon="-0.06026">
        <ele>80.199996948242</ele>
        <time>2022-08-31T13:41:43Z</time>
      </trkpt>
      <trkpt lat="49.28114" lon="-0.06017">
        <ele>78.599998474121</ele>
        <time>2022-08-31T13:41:51Z</time>
      </trkpt>
      <trkpt lat="49.28103" lon="-0.06002">
        <ele>75.599998474121</ele>
        <time>2022-08-31T13:42:08Z</time>
      </trkpt>
      <trkpt lat="49.28094" lon="-0.05987">
        <ele>73.599998474121</ele>
        <time>2022-08-31T13:42:21Z</time>
      </trkpt>
      <trkpt lat="49.28088" lon="-0.05979">
        <ele>72.599998474121</ele>
        <time>2022-08-31T13:42:30Z</time>
      </trkpt>
      <trkpt lat="49.28085" lon="-0.05977">
        <ele>72.400001525879</ele>
        <time>2022-08-31T13:42:33Z</time>
      </trkpt>
      <trkpt lat="49.28082" lon="-0.05973">
        <ele>72</ele>
        <time>2022-08-31T13:42:39Z</time>
      </trkpt>
      <trkpt lat="49.28081" lon="-0.05969">
        <ele>71.199996948242</ele>
        <time>2022-08-31T13:42:42Z</time>
      </trkpt>
      <trkpt lat="49.28076" lon="-0.05963">
        <ele>70.599998474121</ele>
        <time>2022-08-31T13:42:53Z</time>
      </trkpt>
      <trkpt lat="49.28075" lon="-0.05962">
        <ele>70.400001525879</ele>
        <time>2022-08-31T13:42:54Z</time>
      </trkpt>
      <trkpt lat="49.28066" lon="-0.05949">
        <ele>70</ele>
        <time>2022-08-31T13:43:02Z</time>
      </trkpt>
      <trkpt lat="49.28057" lon="-0.05935">
        <ele>69.199996948242</ele>
        <time>2022-08-31T13:43:12Z</time>
      </trkpt>
      <trkpt lat="49.28049" lon="-0.05926">
        <ele>68.800003051758</ele>
        <time>2022-08-31T13:43:19Z</time>
      </trkpt>
      <trkpt lat="49.28045" lon="-0.05918">
        <ele>68.400001525879</ele>
        <time>2022-08-31T13:43:24Z</time>
      </trkpt>
      <trkpt lat="49.28037" lon="-0.05903">
        <ele>67.199996948242</ele>
        <time>2022-08-31T13:43:33Z</time>
      </trkpt>
      <trkpt lat="49.28037" lon="-0.05901">
        <ele>67</ele>
        <time>2022-08-31T13:43:34Z</time>
      </trkpt>
      <trkpt lat="49.28036" lon="-0.05899">
        <ele>66.599998474121</ele>
        <time>2022-08-31T13:43:35Z</time>
      </trkpt>
      <trkpt lat="49.28036" lon="-0.05898">
        <ele>66.400001525879</ele>
        <time>2022-08-31T13:43:36Z</time>
      </trkpt>
      <trkpt lat="49.28035" lon="-0.05896">
        <ele>66.400001525879</ele>
        <time>2022-08-31T13:43:37Z</time>
      </trkpt>
      <trkpt lat="49.28035" lon="-0.05894">
        <ele>66</ele>
        <time>2022-08-31T13:43:38Z</time>
      </trkpt>
      <trkpt lat="49.28026" lon="-0.05873">
        <ele>64.199996948242</ele>
        <time>2022-08-31T13:43:51Z</time>
      </trkpt>
      <trkpt lat="49.2802" lon="-0.05839">
        <ele>62.200000762939</ele>
        <time>2022-08-31T13:44:09Z</time>
      </trkpt>
      <trkpt lat="49.28019" lon="-0.05837">
        <ele>62.200000762939</ele>
        <time>2022-08-31T13:44:10Z</time>
      </trkpt>
      <trkpt lat="49.28018" lon="-0.05835">
        <ele>62.200000762939</ele>
        <time>2022-08-31T13:44:11Z</time>
      </trkpt>
      <trkpt lat="49.28019" lon="-0.05818">
        <ele>61.400001525879</ele>
        <time>2022-08-31T13:44:22Z</time>
      </trkpt>
      <trkpt lat="49.28017" lon="-0.05808">
        <ele>61</ele>
        <time>2022-08-31T13:44:27Z</time>
      </trkpt>
      <trkpt lat="49.28017" lon="-0.05806">
        <ele>61</ele>
        <time>2022-08-31T13:44:28Z</time>
      </trkpt>
      <trkpt lat="49.28017" lon="-0.05805">
        <ele>61</ele>
        <time>2022-08-31T13:44:29Z</time>
      </trkpt>
      <trkpt lat="49.28016" lon="-0.05781">
        <ele>59.400001525879</ele>
        <time>2022-08-31T13:44:46Z</time>
      </trkpt>
      <trkpt lat="49.28016" lon="-0.0576">
        <ele>59</ele>
        <time>2022-08-31T13:45:02Z</time>
      </trkpt>
      <trkpt lat="49.28014" lon="-0.05745">
        <ele>60</ele>
        <time>2022-08-31T13:45:25Z</time>
      </trkpt>
      <trkpt lat="49.28008" lon="-0.05726">
        <ele>60.799999237061</ele>
        <time>2022-08-31T13:45:39Z</time>
      </trkpt>
      <trkpt lat="49.28008" lon="-0.0572">
        <ele>61.400001525879</ele>
        <time>2022-08-31T13:45:44Z</time>
      </trkpt>
      <trkpt lat="49.28007" lon="-0.05716">
        <ele>61.599998474121</ele>
        <time>2022-08-31T13:45:46Z</time>
      </trkpt>
      <trkpt lat="49.28006" lon="-0.05712">
        <ele>61.799999237061</ele>
        <time>2022-08-31T13:45:48Z</time>
      </trkpt>
      <trkpt lat="49.28005" lon="-0.05709">
        <ele>62</ele>
        <time>2022-08-31T13:45:50Z</time>
      </trkpt>
      <trkpt lat="49.28005" lon="-0.05691">
        <ele>63.599998474121</ele>
        <time>2022-08-31T13:46:06Z</time>
      </trkpt>
      <trkpt lat="49.28003" lon="-0.05681">
        <ele>65.400001525879</ele>
        <time>2022-08-31T13:46:16Z</time>
      </trkpt>
      <trkpt lat="49.28003" lon="-0.05662">
        <ele>67.599998474121</ele>
        <time>2022-08-31T13:46:31Z</time>
      </trkpt>
      <trkpt lat="49.28003" lon="-0.05659">
        <ele>67.800003051758</ele>
        <time>2022-08-31T13:46:32Z</time>
      </trkpt>
      <trkpt lat="49.28005" lon="-0.05644">
        <ele>70</ele>
        <time>2022-08-31T13:46:47Z</time>
      </trkpt>
      <trkpt lat="49.27998" lon="-0.05636">
        <ele>70.599998474121</ele>
        <time>2022-08-31T13:47:01Z</time>
      </trkpt>
      <trkpt lat="49.27994" lon="-0.05618">
        <ele>72.599998474121</ele>
        <time>2022-08-31T13:47:17Z</time>
      </trkpt>
      <trkpt lat="49.27993" lon="-0.05613">
        <ele>73</ele>
        <time>2022-08-31T13:47:20Z</time>
      </trkpt>
      <trkpt lat="49.27987" lon="-0.05599">
        <ele>74</ele>
        <time>2022-08-31T13:47:28Z</time>
      </trkpt>
      <trkpt lat="49.27986" lon="-0.05597">
        <ele>74.199996948242</ele>
        <time>2022-08-31T13:47:29Z</time>
      </trkpt>
      <trkpt lat="49.27986" lon="-0.0558">
        <ele>75.400001525879</ele>
        <time>2022-08-31T13:47:43Z</time>
      </trkpt>
      <trkpt lat="49.2799" lon="-0.05567">
        <ele>76.400001525879</ele>
        <time>2022-08-31T13:47:54Z</time>
      </trkpt>
      <trkpt lat="49.27994" lon="-0.0555">
        <ele>76.800003051758</ele>
        <time>2022-08-31T13:48:02Z</time>
      </trkpt>
      <trkpt lat="49.27995" lon="-0.05543">
        <ele>77.199996948242</ele>
        <time>2022-08-31T13:48:06Z</time>
      </trkpt>
      <trkpt lat="49.27996" lon="-0.05527">
        <ele>77.800003051758</ele>
        <time>2022-08-31T13:48:18Z</time>
      </trkpt>
      <trkpt lat="49.27996" lon="-0.0552">
        <ele>78.400001525879</ele>
        <time>2022-08-31T13:48:23Z</time>
      </trkpt>
      <trkpt lat="49.27995" lon="-0.05514">
        <ele>78.800003051758</ele>
        <time>2022-08-31T13:48:26Z</time>
      </trkpt>
      <trkpt lat="49.27998" lon="-0.05502">
        <ele>79.800003051758</ele>
        <time>2022-08-31T13:48:36Z</time>
      </trkpt>
      <trkpt lat="49.28001" lon="-0.05488">
        <ele>80.599998474121</ele>
        <time>2022-08-31T13:48:48Z</time>
      </trkpt>
      <trkpt lat="49.28006" lon="-0.05471">
        <ele>81.199996948242</ele>
        <time>2022-08-31T13:49:03Z</time>
      </trkpt>
      <trkpt lat="49.28007" lon="-0.05469">
        <ele>81.199996948242</ele>
        <time>2022-08-31T13:49:04Z</time>
      </trkpt>
      <trkpt lat="49.28005" lon="-0.05461">
        <ele>81.400001525879</ele>
        <time>2022-08-31T13:49:08Z</time>
      </trkpt>
      <trkpt lat="49.28005" lon="-0.05447">
        <ele>82</ele>
        <time>2022-08-31T13:49:16Z</time>
      </trkpt>
      <trkpt lat="49.28003" lon="-0.05429">
        <ele>82.800003051758</ele>
        <time>2022-08-31T13:49:29Z</time>
      </trkpt>
      <trkpt lat="49.27991" lon="-0.05408">
        <ele>83.599998474121</ele>
        <time>2022-08-31T13:49:43Z</time>
      </trkpt>
      <trkpt lat="49.27985" lon="-0.05392">
        <ele>84.599998474121</ele>
        <time>2022-08-31T13:49:55Z</time>
      </trkpt>
      <trkpt lat="49.27982" lon="-0.05368">
        <ele>85.400001525879</ele>
        <time>2022-08-31T13:50:11Z</time>
      </trkpt>
      <trkpt lat="49.27981" lon="-0.0536">
        <ele>86.199996948242</ele>
        <time>2022-08-31T13:50:18Z</time>
      </trkpt>
      <trkpt lat="49.27985" lon="-0.05336">
        <ele>87</ele>
        <time>2022-08-31T13:50:34Z</time>
      </trkpt>
      <trkpt lat="49.27973" lon="-0.05317">
        <ele>87.400001525879</ele>
        <time>2022-08-31T13:50:51Z</time>
      </trkpt>
      <trkpt lat="49.27958" lon="-0.05296">
        <ele>88.199996948242</ele>
        <time>2022-08-31T13:51:09Z</time>
      </trkpt>
      <trkpt lat="49.27947" lon="-0.05273">
        <ele>89</ele>
        <time>2022-08-31T13:51:28Z</time>
      </trkpt>
      <trkpt lat="49.27935" lon="-0.05244">
        <ele>89.199996948242</ele>
        <time>2022-08-31T13:51:47Z</time>
      </trkpt>
      <trkpt lat="49.27926" lon="-0.05229">
        <ele>88.400001525879</ele>
        <time>2022-08-31T13:52:05Z</time>
      </trkpt>
      <trkpt lat="49.27913" lon="-0.05195">
        <ele>87.599998474121</ele>
        <time>2022-08-31T13:52:30Z</time>
      </trkpt>
      <trkpt lat="49.27913" lon="-0.05186">
        <ele>87.400001525879</ele>
        <time>2022-08-31T13:52:35Z</time>
      </trkpt>
      <trkpt lat="49.27916" lon="-0.0517">
        <ele>86.599998474121</ele>
        <time>2022-08-31T13:52:46Z</time>
      </trkpt>
      <trkpt lat="49.27919" lon="-0.05161">
        <ele>86.199996948242</ele>
        <time>2022-08-31T13:52:50Z</time>
      </trkpt>
      <trkpt lat="49.2792" lon="-0.05159">
        <ele>86</ele>
        <time>2022-08-31T13:52:51Z</time>
      </trkpt>
      <trkpt lat="49.27925" lon="-0.05147">
        <ele>84.400001525879</ele>
        <time>2022-08-31T13:53:04Z</time>
      </trkpt>
      <trkpt lat="49.27935" lon="-0.05132">
        <ele>83</ele>
        <time>2022-08-31T13:53:20Z</time>
      </trkpt>
      <trkpt lat="49.27939" lon="-0.05118">
        <ele>82.199996948242</ele>
        <time>2022-08-31T13:53:30Z</time>
      </trkpt>
      <trkpt lat="49.27943" lon="-0.05107">
        <ele>81.599998474121</ele>
        <time>2022-08-31T13:53:37Z</time>
      </trkpt>
      <trkpt lat="49.27943" lon="-0.05106">
        <ele>81.599998474121</ele>
        <time>2022-08-31T13:53:38Z</time>
      </trkpt>
      <trkpt lat="49.27945" lon="-0.05103">
        <ele>81.599998474121</ele>
        <time>2022-08-31T13:53:40Z</time>
      </trkpt>
      <trkpt lat="49.27946" lon="-0.05102">
        <ele>81.599998474121</ele>
        <time>2022-08-31T13:53:41Z</time>
      </trkpt>
      <trkpt lat="49.27946" lon="-0.051">
        <ele>81.400001525879</ele>
        <time>2022-08-31T13:53:42Z</time>
      </trkpt>
      <trkpt lat="49.27948" lon="-0.05097">
        <ele>81.400001525879</ele>
        <time>2022-08-31T13:53:44Z</time>
      </trkpt>
      <trkpt lat="49.27952" lon="-0.05094">
        <ele>81</ele>
        <time>2022-08-31T13:53:46Z</time>
      </trkpt>
      <trkpt lat="49.27952" lon="-0.05092">
        <ele>81</ele>
        <time>2022-08-31T13:53:47Z</time>
      </trkpt>
      <trkpt lat="49.27955" lon="-0.05088">
        <ele>80.800003051758</ele>
        <time>2022-08-31T13:53:50Z</time>
      </trkpt>
      <trkpt lat="49.27956" lon="-0.05087">
        <ele>80.800003051758</ele>
        <time>2022-08-31T13:53:51Z</time>
      </trkpt>
      <trkpt lat="49.27957" lon="-0.05085">
        <ele>80.800003051758</ele>
        <time>2022-08-31T13:53:52Z</time>
      </trkpt>
      <trkpt lat="49.27957" lon="-0.05083">
        <ele>80.599998474121</ele>
        <time>2022-08-31T13:53:53Z</time>
      </trkpt>
      <trkpt lat="49.27957" lon="-0.05082">
        <ele>80.599998474121</ele>
        <time>2022-08-31T13:53:54Z</time>
      </trkpt>
      <trkpt lat="49.27958" lon="-0.0508">
        <ele>80.400001525879</ele>
        <time>2022-08-31T13:53:55Z</time>
      </trkpt>
      <trkpt lat="49.27966" lon="-0.0506">
        <ele>79.400001525879</ele>
        <time>2022-08-31T13:54:09Z</time>
      </trkpt>
      <trkpt lat="49.27972" lon="-0.05052">
        <ele>78.400001525879</ele>
        <time>2022-08-31T13:54:19Z</time>
      </trkpt>
      <trkpt lat="49.27976" lon="-0.0504">
        <ele>77.400001525879</ele>
        <time>2022-08-31T13:54:28Z</time>
      </trkpt>
      <trkpt lat="49.27988" lon="-0.05021">
        <ele>76.199996948242</ele>
        <time>2022-08-31T13:54:42Z</time>
      </trkpt>
      <trkpt lat="49.27995" lon="-0.05009">
        <ele>75</ele>
        <time>2022-08-31T13:54:51Z</time>
      </trkpt>
      <trkpt lat="49.27996" lon="-0.05008">
        <ele>75</ele>
        <time>2022-08-31T13:54:52Z</time>
      </trkpt>
      <trkpt lat="49.27999" lon="-0.05005">
        <ele>74.800003051758</ele>
        <time>2022-08-31T13:54:54Z</time>
      </trkpt>
      <trkpt lat="49.28004" lon="-0.04997">
        <ele>74</ele>
        <time>2022-08-31T13:55:00Z</time>
      </trkpt>
      <trkpt lat="49.28009" lon="-0.04991">
        <ele>73.400001525879</ele>
        <time>2022-08-31T13:55:06Z</time>
      </trkpt>
      <trkpt lat="49.28012" lon="-0.04989">
        <ele>73</ele>
        <time>2022-08-31T13:55:08Z</time>
      </trkpt>
      <trkpt lat="49.28016" lon="-0.04987">
        <ele>72.800003051758</ele>
        <time>2022-08-31T13:55:11Z</time>
      </trkpt>
      <trkpt lat="49.28017" lon="-0.04987">
        <ele>72.800003051758</ele>
        <time>2022-08-31T13:55:12Z</time>
      </trkpt>
      <trkpt lat="49.2802" lon="-0.04985">
        <ele>72.400001525879</ele>
        <time>2022-08-31T13:55:15Z</time>
      </trkpt>
      <trkpt lat="49.2803" lon="-0.04974">
        <ele>70.800003051758</ele>
        <time>2022-08-31T13:55:27Z</time>
      </trkpt>
      <trkpt lat="49.28039" lon="-0.04958">
        <ele>68</ele>
        <time>2022-08-31T13:55:44Z</time>
      </trkpt>
      <trkpt lat="49.2804" lon="-0.04956">
        <ele>67.400001525879</ele>
        <time>2022-08-31T13:55:47Z</time>
      </trkpt>
      <trkpt lat="49.28044" lon="-0.04951">
        <ele>66.599998474121</ele>
        <time>2022-08-31T13:55:52Z</time>
      </trkpt>
      <trkpt lat="49.28049" lon="-0.04941">
        <ele>65.800003051758</ele>
        <time>2022-08-31T13:56:00Z</time>
      </trkpt>
      <trkpt lat="49.28053" lon="-0.04933">
        <ele>63.799999237061</ele>
        <time>2022-08-31T13:56:15Z</time>
      </trkpt>
      <trkpt lat="49.28053" lon="-0.04932">
        <ele>63.599998474121</ele>
        <time>2022-08-31T13:56:18Z</time>
      </trkpt>
      <trkpt lat="49.28068" lon="-0.04917">
        <ele>60.799999237061</ele>
        <time>2022-08-31T13:56:35Z</time>
      </trkpt>
      <trkpt lat="49.28076" lon="-0.04904">
        <ele>58</ele>
        <time>2022-08-31T13:56:49Z</time>
      </trkpt>
      <trkpt lat="49.28075" lon="-0.04891">
        <ele>56</ele>
        <time>2022-08-31T13:57:02Z</time>
      </trkpt>
      <trkpt lat="49.2807" lon="-0.04889">
        <ele>55.400001525879</ele>
        <time>2022-08-31T13:57:07Z</time>
      </trkpt>
      <trkpt lat="49.28066" lon="-0.04889">
        <ele>55.400001525879</ele>
        <time>2022-08-31T13:57:11Z</time>
      </trkpt>
      <trkpt lat="49.28072" lon="-0.0488">
        <ele>55.200000762939</ele>
        <time>2022-08-31T13:57:26Z</time>
      </trkpt>
      <trkpt lat="49.28082" lon="-0.04871">
        <ele>53.799999237061</ele>
        <time>2022-08-31T13:57:39Z</time>
      </trkpt>
      <trkpt lat="49.28086" lon="-0.04859">
        <ele>52.400001525879</ele>
        <time>2022-08-31T13:57:52Z</time>
      </trkpt>
      <trkpt lat="49.28085" lon="-0.04841">
        <ele>49.400001525879</ele>
        <time>2022-08-31T13:58:15Z</time>
      </trkpt>
      <trkpt lat="49.28079" lon="-0.04823">
        <ele>48.599998474121</ele>
        <time>2022-08-31T13:58:26Z</time>
      </trkpt>
      <trkpt lat="49.28076" lon="-0.04813">
        <ele>47.799999237061</ele>
        <time>2022-08-31T13:58:38Z</time>
      </trkpt>
      <trkpt lat="49.28082" lon="-0.04787">
        <ele>46.200000762939</ele>
        <time>2022-08-31T13:59:00Z</time>
      </trkpt>
      <trkpt lat="49.28083" lon="-0.04784">
        <ele>46.200000762939</ele>
        <time>2022-08-31T13:59:01Z</time>
      </trkpt>
      <trkpt lat="49.28087" lon="-0.04757">
        <ele>45</ele>
        <time>2022-08-31T13:59:19Z</time>
      </trkpt>
      <trkpt lat="49.28092" lon="-0.04744">
        <ele>44</ele>
        <time>2022-08-31T13:59:35Z</time>
      </trkpt>
      <trkpt lat="49.28095" lon="-0.04728">
        <ele>44</ele>
        <time>2022-08-31T13:59:46Z</time>
      </trkpt>
      <trkpt lat="49.28095" lon="-0.04712">
        <ele>44.400001525879</ele>
        <time>2022-08-31T13:59:57Z</time>
      </trkpt>
      <trkpt lat="49.28094" lon="-0.04698">
        <ele>44.799999237061</ele>
        <time>2022-08-31T14:00:03Z</time>
      </trkpt>
      <trkpt lat="49.28093" lon="-0.04693">
        <ele>44.799999237061</ele>
        <time>2022-08-31T14:00:06Z</time>
      </trkpt>
      <trkpt lat="49.28094" lon="-0.04679">
        <ele>45</ele>
        <time>2022-08-31T14:00:15Z</time>
      </trkpt>
      <trkpt lat="49.28091" lon="-0.04644">
        <ele>47.200000762939</ele>
        <time>2022-08-31T14:00:39Z</time>
      </trkpt>
      <trkpt lat="49.28086" lon="-0.04622">
        <ele>48.200000762939</ele>
        <time>2022-08-31T14:00:53Z</time>
      </trkpt>
      <trkpt lat="49.28084" lon="-0.0461">
        <ele>48.200000762939</ele>
        <time>2022-08-31T14:01:03Z</time>
      </trkpt>
      <trkpt lat="49.28081" lon="-0.04594">
        <ele>49.200000762939</ele>
        <time>2022-08-31T14:01:16Z</time>
      </trkpt>
      <trkpt lat="49.2808" lon="-0.04588">
        <ele>49.400001525879</ele>
        <time>2022-08-31T14:01:20Z</time>
      </trkpt>
      <trkpt lat="49.28078" lon="-0.04573">
        <ele>50</ele>
        <time>2022-08-31T14:01:27Z</time>
      </trkpt>
      <trkpt lat="49.28075" lon="-0.04552">
        <ele>50.599998474121</ele>
        <time>2022-08-31T14:01:39Z</time>
      </trkpt>
      <trkpt lat="49.28074" lon="-0.04547">
        <ele>50.799999237061</ele>
        <time>2022-08-31T14:01:42Z</time>
      </trkpt>
      <trkpt lat="49.28071" lon="-0.04527">
        <ele>51.400001525879</ele>
        <time>2022-08-31T14:01:54Z</time>
      </trkpt>
      <trkpt lat="49.28069" lon="-0.04504">
        <ele>52.799999237061</ele>
        <time>2022-08-31T14:02:07Z</time>
      </trkpt>
      <trkpt lat="49.28069" lon="-0.04479">
        <ele>54.200000762939</ele>
        <time>2022-08-31T14:02:23Z</time>
      </trkpt>
      <trkpt lat="49.28071" lon="-0.04472">
        <ele>54.200000762939</ele>
        <time>2022-08-31T14:02:29Z</time>
      </trkpt>
      <trkpt lat="49.28073" lon="-0.04458">
        <ele>53.400001525879</ele>
        <time>2022-08-31T14:02:44Z</time>
      </trkpt>
      <trkpt lat="49.28077" lon="-0.04434">
        <ele>52.599998474121</ele>
        <time>2022-08-31T14:03:03Z</time>
      </trkpt>
      <trkpt lat="49.28079" lon="-0.04406">
        <ele>51</ele>
        <time>2022-08-31T14:03:21Z</time>
      </trkpt>
      <trkpt lat="49.28078" lon="-0.04389">
        <ele>50</ele>
        <time>2022-08-31T14:03:30Z</time>
      </trkpt>
      <trkpt lat="49.28073" lon="-0.04354">
        <ele>47</ele>
        <time>2022-08-31T14:03:49Z</time>
      </trkpt>
      <trkpt lat="49.28074" lon="-0.04345">
        <ele>46.200000762939</ele>
        <time>2022-08-31T14:03:53Z</time>
      </trkpt>
      <trkpt lat="49.28074" lon="-0.04326">
        <ele>44</ele>
        <time>2022-08-31T14:04:08Z</time>
      </trkpt>
      <trkpt lat="49.28077" lon="-0.04313">
        <ele>43.200000762939</ele>
        <time>2022-08-31T14:04:18Z</time>
      </trkpt>
      <trkpt lat="49.28079" lon="-0.04304">
        <ele>42.400001525879</ele>
        <time>2022-08-31T14:04:23Z</time>
      </trkpt>
      <trkpt lat="49.28082" lon="-0.04276">
        <ele>40.599998474121</ele>
        <time>2022-08-31T14:04:37Z</time>
      </trkpt>
      <trkpt lat="49.28078" lon="-0.04234">
        <ele>37.799999237061</ele>
        <time>2022-08-31T14:04:57Z</time>
      </trkpt>
      <trkpt lat="49.28072" lon="-0.04216">
        <ele>36.799999237061</ele>
        <time>2022-08-31T14:05:07Z</time>
      </trkpt>
      <trkpt lat="49.28068" lon="-0.04204">
        <ele>36.799999237061</ele>
        <time>2022-08-31T14:05:12Z</time>
      </trkpt>
      <trkpt lat="49.28063" lon="-0.04192">
        <ele>36.799999237061</ele>
        <time>2022-08-31T14:05:22Z</time>
      </trkpt>
      <trkpt lat="49.28062" lon="-0.0419">
        <ele>37</ele>
        <time>2022-08-31T14:05:23Z</time>
      </trkpt>
      <trkpt lat="49.28062" lon="-0.04188">
        <ele>37.200000762939</ele>
        <time>2022-08-31T14:05:24Z</time>
      </trkpt>
      <trkpt lat="49.28053" lon="-0.04172">
        <ele>38.799999237061</ele>
        <time>2022-08-31T14:05:39Z</time>
      </trkpt>
      <trkpt lat="49.28052" lon="-0.04168">
        <ele>39</ele>
        <time>2022-08-31T14:05:42Z</time>
      </trkpt>
      <trkpt lat="49.28047" lon="-0.04158">
        <ele>40</ele>
        <time>2022-08-31T14:05:49Z</time>
      </trkpt>
      <trkpt lat="49.28043" lon="-0.04138">
        <ele>43</ele>
        <time>2022-08-31T14:06:06Z</time>
      </trkpt>
      <trkpt lat="49.28052" lon="-0.04115">
        <ele>45.200000762939</ele>
        <time>2022-08-31T14:06:24Z</time>
      </trkpt>
      <trkpt lat="49.28054" lon="-0.04108">
        <ele>45.599998474121</ele>
        <time>2022-08-31T14:06:34Z</time>
      </trkpt>
      <trkpt lat="49.28055" lon="-0.04107">
        <ele>45.599998474121</ele>
        <time>2022-08-31T14:06:35Z</time>
      </trkpt>
      <trkpt lat="49.28055" lon="-0.04105">
        <ele>45.400001525879</ele>
        <time>2022-08-31T14:06:36Z</time>
      </trkpt>
      <trkpt lat="49.28063" lon="-0.04086">
        <ele>45.200000762939</ele>
        <time>2022-08-31T14:06:52Z</time>
      </trkpt>
      <trkpt lat="49.28066" lon="-0.04082">
        <ele>45.200000762939</ele>
        <time>2022-08-31T14:06:56Z</time>
      </trkpt>
      <trkpt lat="49.2808" lon="-0.04078">
        <ele>44.799999237061</ele>
        <time>2022-08-31T14:07:09Z</time>
      </trkpt>
      <trkpt lat="49.28086" lon="-0.04074">
        <ele>44.400001525879</ele>
        <time>2022-08-31T14:07:18Z</time>
      </trkpt>
      <trkpt lat="49.28088" lon="-0.04073">
        <ele>44.400001525879</ele>
        <time>2022-08-31T14:07:19Z</time>
      </trkpt>
      <trkpt lat="49.28095" lon="-0.04066">
        <ele>43.599998474121</ele>
        <time>2022-08-31T14:07:28Z</time>
      </trkpt>
      <trkpt lat="49.28096" lon="-0.04065">
        <ele>43.400001525879</ele>
        <time>2022-08-31T14:07:29Z</time>
      </trkpt>
      <trkpt lat="49.28097" lon="-0.04062">
        <ele>43.200000762939</ele>
        <time>2022-08-31T14:07:30Z</time>
      </trkpt>
      <trkpt lat="49.28105" lon="-0.04048">
        <ele>42.599998474121</ele>
        <time>2022-08-31T14:07:41Z</time>
      </trkpt>
      <trkpt lat="49.28109" lon="-0.04045">
        <ele>42.400001525879</ele>
        <time>2022-08-31T14:07:45Z</time>
      </trkpt>
      <trkpt lat="49.2811" lon="-0.04044">
        <ele>42.400001525879</ele>
        <time>2022-08-31T14:07:46Z</time>
      </trkpt>
      <trkpt lat="49.28112" lon="-0.04042">
        <ele>42.400001525879</ele>
        <time>2022-08-31T14:07:47Z</time>
      </trkpt>
      <trkpt lat="49.28114" lon="-0.0404">
        <ele>42.400001525879</ele>
        <time>2022-08-31T14:07:48Z</time>
      </trkpt>
      <trkpt lat="49.28121" lon="-0.0403">
        <ele>42.200000762939</ele>
        <time>2022-08-31T14:07:57Z</time>
      </trkpt>
      <trkpt lat="49.28122" lon="-0.04029">
        <ele>42</ele>
        <time>2022-08-31T14:07:58Z</time>
      </trkpt>
      <trkpt lat="49.28123" lon="-0.04028">
        <ele>42</ele>
        <time>2022-08-31T14:07:59Z</time>
      </trkpt>
      <trkpt lat="49.28123" lon="-0.04027">
        <ele>42</ele>
        <time>2022-08-31T14:08:00Z</time>
      </trkpt>
      <trkpt lat="49.28124" lon="-0.04025">
        <ele>42</ele>
        <time>2022-08-31T14:08:01Z</time>
      </trkpt>
      <trkpt lat="49.2813" lon="-0.04016">
        <ele>42.200000762939</ele>
        <time>2022-08-31T14:08:07Z</time>
      </trkpt>
      <trkpt lat="49.28131" lon="-0.04015">
        <ele>42.200000762939</ele>
        <time>2022-08-31T14:08:08Z</time>
      </trkpt>
      <trkpt lat="49.28132" lon="-0.04013">
        <ele>42.200000762939</ele>
        <time>2022-08-31T14:08:09Z</time>
      </trkpt>
      <trkpt lat="49.28147" lon="-0.03993">
        <ele>43.200000762939</ele>
        <time>2022-08-31T14:08:30Z</time>
      </trkpt>
      <trkpt lat="49.28165" lon="-0.03978">
        <ele>45.599998474121</ele>
        <time>2022-08-31T14:08:51Z</time>
      </trkpt>
      <trkpt lat="49.28172" lon="-0.03976">
        <ele>46</ele>
        <time>2022-08-31T14:08:58Z</time>
      </trkpt>
      <trkpt lat="49.28192" lon="-0.03997">
        <ele>47.200000762939</ele>
        <time>2022-08-31T14:09:19Z</time>
      </trkpt>
      <trkpt lat="49.28193" lon="-0.03998">
        <ele>47.200000762939</ele>
        <time>2022-08-31T14:09:20Z</time>
      </trkpt>
      <trkpt lat="49.28194" lon="-0.03999">
        <ele>47.200000762939</ele>
        <time>2022-08-31T14:09:21Z</time>
      </trkpt>
      <trkpt lat="49.28195" lon="-0.04">
        <ele>47.200000762939</ele>
        <time>2022-08-31T14:09:22Z</time>
      </trkpt>
      <trkpt lat="49.28196" lon="-0.04001">
        <ele>47.200000762939</ele>
        <time>2022-08-31T14:09:23Z</time>
      </trkpt>
      <trkpt lat="49.28199" lon="-0.04005">
        <ele>47.200000762939</ele>
        <time>2022-08-31T14:09:28Z</time>
      </trkpt>
      <trkpt lat="49.282" lon="-0.04006">
        <ele>47.200000762939</ele>
        <time>2022-08-31T14:09:29Z</time>
      </trkpt>
      <trkpt lat="49.28201" lon="-0.04007">
        <ele>47.200000762939</ele>
        <time>2022-08-31T14:09:30Z</time>
      </trkpt>
      <trkpt lat="49.28202" lon="-0.04008">
        <ele>47.200000762939</ele>
        <time>2022-08-31T14:09:31Z</time>
      </trkpt>
      <trkpt lat="49.28208" lon="-0.0402">
        <ele>47</ele>
        <time>2022-08-31T14:09:42Z</time>
      </trkpt>
      <trkpt lat="49.2821" lon="-0.04024">
        <ele>47</ele>
        <time>2022-08-31T14:09:43Z</time>
      </trkpt>
      <trkpt lat="49.28218" lon="-0.04041">
        <ele>47</ele>
        <time>2022-08-31T14:09:54Z</time>
      </trkpt>
      <trkpt lat="49.28219" lon="-0.04042">
        <ele>47</ele>
        <time>2022-08-31T14:09:55Z</time>
      </trkpt>
      <trkpt lat="49.2822" lon="-0.04043">
        <ele>47</ele>
        <time>2022-08-31T14:09:56Z</time>
      </trkpt>
      <trkpt lat="49.28222" lon="-0.04044">
        <ele>47.200000762939</ele>
        <time>2022-08-31T14:09:57Z</time>
      </trkpt>
      <trkpt lat="49.28233" lon="-0.04053">
        <ele>47.400001525879</ele>
        <time>2022-08-31T14:10:07Z</time>
      </trkpt>
      <trkpt lat="49.28236" lon="-0.04054">
        <ele>47.599998474121</ele>
        <time>2022-08-31T14:10:12Z</time>
      </trkpt>
      <trkpt lat="49.28239" lon="-0.04057">
        <ele>47.599998474121</ele>
        <time>2022-08-31T14:10:14Z</time>
      </trkpt>
      <trkpt lat="49.28241" lon="-0.04058">
        <ele>47.599998474121</ele>
        <time>2022-08-31T14:10:15Z</time>
      </trkpt>
      <trkpt lat="49.28246" lon="-0.04063">
        <ele>47.799999237061</ele>
        <time>2022-08-31T14:10:21Z</time>
      </trkpt>
      <trkpt lat="49.28247" lon="-0.04064">
        <ele>47.799999237061</ele>
        <time>2022-08-31T14:10:22Z</time>
      </trkpt>
      <trkpt lat="49.28261" lon="-0.04082">
        <ele>48.200000762939</ele>
        <time>2022-08-31T14:10:37Z</time>
      </trkpt>
      <trkpt lat="49.28276" lon="-0.0408">
        <ele>48</ele>
        <time>2022-08-31T14:10:51Z</time>
      </trkpt>
      <trkpt lat="49.28278" lon="-0.04078">
        <ele>48</ele>
        <time>2022-08-31T14:10:52Z</time>
      </trkpt>
      <trkpt lat="49.28279" lon="-0.04077">
        <ele>48</ele>
        <time>2022-08-31T14:10:53Z</time>
      </trkpt>
      <trkpt lat="49.28283" lon="-0.04071">
        <ele>48.200000762939</ele>
        <time>2022-08-31T14:10:58Z</time>
      </trkpt>
      <trkpt lat="49.28283" lon="-0.04069">
        <ele>48.400001525879</ele>
        <time>2022-08-31T14:10:59Z</time>
      </trkpt>
      <trkpt lat="49.28283" lon="-0.04067">
        <ele>48.400001525879</ele>
        <time>2022-08-31T14:11:00Z</time>
      </trkpt>
      <trkpt lat="49.28283" lon="-0.04066">
        <ele>48.599998474121</ele>
        <time>2022-08-31T14:11:01Z</time>
      </trkpt>
      <trkpt lat="49.28289" lon="-0.04044">
        <ele>50.200000762939</ele>
        <time>2022-08-31T14:11:17Z</time>
      </trkpt>
      <trkpt lat="49.28303" lon="-0.04044">
        <ele>51.400001525879</ele>
        <time>2022-08-31T14:11:38Z</time>
      </trkpt>
      <trkpt lat="49.28314" lon="-0.04057">
        <ele>52.200000762939</ele>
        <time>2022-08-31T14:11:55Z</time>
      </trkpt>
      <trkpt lat="49.2832" lon="-0.04064">
        <ele>52</ele>
        <time>2022-08-31T14:11:58Z</time>
      </trkpt>
      <trkpt lat="49.28332" lon="-0.04076">
        <ele>51.599998474121</ele>
        <time>2022-08-31T14:12:10Z</time>
      </trkpt>
      <trkpt lat="49.28347" lon="-0.04092">
        <ele>51</ele>
        <time>2022-08-31T14:12:24Z</time>
      </trkpt>
      <trkpt lat="49.28361" lon="-0.04108">
        <ele>50.799999237061</ele>
        <time>2022-08-31T14:12:37Z</time>
      </trkpt>
      <trkpt lat="49.28378" lon="-0.0412">
        <ele>50.200000762939</ele>
        <time>2022-08-31T14:12:56Z</time>
      </trkpt>
      <trkpt lat="49.28379" lon="-0.0412">
        <ele>50.200000762939</ele>
        <time>2022-08-31T14:12:57Z</time>
      </trkpt>
      <trkpt lat="49.2838" lon="-0.04121">
        <ele>50.200000762939</ele>
        <time>2022-08-31T14:12:58Z</time>
      </trkpt>
      <trkpt lat="49.284" lon="-0.04138">
        <ele>50.200000762939</ele>
        <time>2022-08-31T14:13:17Z</time>
      </trkpt>
      <trkpt lat="49.28402" lon="-0.04139">
        <ele>50.200000762939</ele>
        <time>2022-08-31T14:13:18Z</time>
      </trkpt>
      <trkpt lat="49.28413" lon="-0.04144">
        <ele>50.400001525879</ele>
        <time>2022-08-31T14:13:28Z</time>
      </trkpt>
      <trkpt lat="49.28436" lon="-0.04158">
        <ele>50.200000762939</ele>
        <time>2022-08-31T14:13:52Z</time>
      </trkpt>
      <trkpt lat="49.28462" lon="-0.04173">
        <ele>49.400001525879</ele>
        <time>2022-08-31T14:14:16Z</time>
      </trkpt>
      <trkpt lat="49.28493" lon="-0.042">
        <ele>48.799999237061</ele>
        <time>2022-08-31T14:14:43Z</time>
      </trkpt>
      <trkpt lat="49.28508" lon="-0.0421">
        <ele>48.400001525879</ele>
        <time>2022-08-31T14:14:58Z</time>
      </trkpt>
      <trkpt lat="49.28531" lon="-0.04226">
        <ele>48</ele>
        <time>2022-08-31T14:15:16Z</time>
      </trkpt>
      <trkpt lat="49.28537" lon="-0.04228">
        <ele>48</ele>
        <time>2022-08-31T14:15:21Z</time>
      </trkpt>
      <trkpt lat="49.28556" lon="-0.04233">
        <ele>48</ele>
        <time>2022-08-31T14:15:37Z</time>
      </trkpt>
      <trkpt lat="49.28557" lon="-0.04232">
        <ele>48</ele>
        <time>2022-08-31T14:15:38Z</time>
      </trkpt>
      <trkpt lat="49.28558" lon="-0.04231">
        <ele>48</ele>
        <time>2022-08-31T14:15:39Z</time>
      </trkpt>
      <trkpt lat="49.28571" lon="-0.04208">
        <ele>48.599998474121</ele>
        <time>2022-08-31T14:15:52Z</time>
      </trkpt>
      <trkpt lat="49.2858" lon="-0.04192">
        <ele>49.799999237061</ele>
        <time>2022-08-31T14:16:04Z</time>
      </trkpt>
      <trkpt lat="49.28583" lon="-0.04183">
        <ele>50.799999237061</ele>
        <time>2022-08-31T14:16:12Z</time>
      </trkpt>
      <trkpt lat="49.28584" lon="-0.04181">
        <ele>50.799999237061</ele>
        <time>2022-08-31T14:16:13Z</time>
      </trkpt>
      <trkpt lat="49.28585" lon="-0.04166">
        <ele>51.400001525879</ele>
        <time>2022-08-31T14:16:24Z</time>
      </trkpt>
      <trkpt lat="49.28589" lon="-0.04159">
        <ele>51.400001525879</ele>
        <time>2022-08-31T14:16:30Z</time>
      </trkpt>
      <trkpt lat="49.2859" lon="-0.04157">
        <ele>51.599998474121</ele>
        <time>2022-08-31T14:16:31Z</time>
      </trkpt>
      <trkpt lat="49.286" lon="-0.04137">
        <ele>52.200000762939</ele>
        <time>2022-08-31T14:16:43Z</time>
      </trkpt>
      <trkpt lat="49.28601" lon="-0.04135">
        <ele>52.400001525879</ele>
        <time>2022-08-31T14:16:44Z</time>
      </trkpt>
      <trkpt lat="49.28603" lon="-0.04133">
        <ele>52.400001525879</ele>
        <time>2022-08-31T14:16:45Z</time>
      </trkpt>
      <trkpt lat="49.28605" lon="-0.04131">
        <ele>52.400001525879</ele>
        <time>2022-08-31T14:16:46Z</time>
      </trkpt>
      <trkpt lat="49.28606" lon="-0.04129">
        <ele>52.400001525879</ele>
        <time>2022-08-31T14:16:47Z</time>
      </trkpt>
      <trkpt lat="49.28611" lon="-0.04129">
        <ele>53</ele>
        <time>2022-08-31T14:16:57Z</time>
      </trkpt>
      <trkpt lat="49.28614" lon="-0.04132">
        <ele>53.200000762939</ele>
        <time>2022-08-31T14:17:01Z</time>
      </trkpt>
      <trkpt lat="49.28615" lon="-0.04133">
        <ele>53.200000762939</ele>
        <time>2022-08-31T14:17:02Z</time>
      </trkpt>
      <trkpt lat="49.28622" lon="-0.04137">
        <ele>53.200000762939</ele>
        <time>2022-08-31T14:17:10Z</time>
      </trkpt>
      <trkpt lat="49.28624" lon="-0.04138">
        <ele>53</ele>
        <time>2022-08-31T14:17:11Z</time>
      </trkpt>
      <trkpt lat="49.28625" lon="-0.0414">
        <ele>53</ele>
        <time>2022-08-31T14:17:12Z</time>
      </trkpt>
      <trkpt lat="49.28627" lon="-0.04141">
        <ele>53</ele>
        <time>2022-08-31T14:17:13Z</time>
      </trkpt>
      <trkpt lat="49.28629" lon="-0.04141">
        <ele>53</ele>
        <time>2022-08-31T14:17:14Z</time>
      </trkpt>
      <trkpt lat="49.2863" lon="-0.04142">
        <ele>52.799999237061</ele>
        <time>2022-08-31T14:17:15Z</time>
      </trkpt>
      <trkpt lat="49.28632" lon="-0.04143">
        <ele>52.799999237061</ele>
        <time>2022-08-31T14:17:16Z</time>
      </trkpt>
      <trkpt lat="49.28633" lon="-0.04144">
        <ele>52.799999237061</ele>
        <time>2022-08-31T14:17:17Z</time>
      </trkpt>
      <trkpt lat="49.28636" lon="-0.04146">
        <ele>52.799999237061</ele>
        <time>2022-08-31T14:17:18Z</time>
      </trkpt>
      <trkpt lat="49.28638" lon="-0.04148">
        <ele>52.599998474121</ele>
        <time>2022-08-31T14:17:19Z</time>
      </trkpt>
      <trkpt lat="49.28639" lon="-0.04149">
        <ele>52.599998474121</ele>
        <time>2022-08-31T14:17:20Z</time>
      </trkpt>
      <trkpt lat="49.28648" lon="-0.04155">
        <ele>51.799999237061</ele>
        <time>2022-08-31T14:17:29Z</time>
      </trkpt>
      <trkpt lat="49.28649" lon="-0.04156">
        <ele>51.799999237061</ele>
        <time>2022-08-31T14:17:30Z</time>
      </trkpt>
      <trkpt lat="49.2865" lon="-0.04156">
        <ele>51.799999237061</ele>
        <time>2022-08-31T14:17:31Z</time>
      </trkpt>
      <trkpt lat="49.28651" lon="-0.04159">
        <ele>51.599998474121</ele>
        <time>2022-08-31T14:17:34Z</time>
      </trkpt>
      <trkpt lat="49.2865" lon="-0.04162">
        <ele>51.599998474121</ele>
        <time>2022-08-31T14:17:35Z</time>
      </trkpt>
      <trkpt lat="49.28653" lon="-0.04165">
        <ele>51.400001525879</ele>
        <time>2022-08-31T14:17:38Z</time>
      </trkpt>
      <trkpt lat="49.28655" lon="-0.04166">
        <ele>51.400001525879</ele>
        <time>2022-08-31T14:17:39Z</time>
      </trkpt>
      <trkpt lat="49.28656" lon="-0.04167">
        <ele>51.400001525879</ele>
        <time>2022-08-31T14:17:40Z</time>
      </trkpt>
      <trkpt lat="49.2866" lon="-0.04167">
        <ele>51.200000762939</ele>
        <time>2022-08-31T14:17:44Z</time>
      </trkpt>
      <trkpt lat="49.28661" lon="-0.04166">
        <ele>51.200000762939</ele>
        <time>2022-08-31T14:17:45Z</time>
      </trkpt>
      <trkpt lat="49.28662" lon="-0.04167">
        <ele>51</ele>
        <time>2022-08-31T14:17:46Z</time>
      </trkpt>
      <trkpt lat="49.28663" lon="-0.04169">
        <ele>50.799999237061</ele>
        <time>2022-08-31T14:17:47Z</time>
      </trkpt>
      <trkpt lat="49.28664" lon="-0.0417">
        <ele>50.799999237061</ele>
        <time>2022-08-31T14:17:48Z</time>
      </trkpt>
      <trkpt lat="49.28665" lon="-0.04172">
        <ele>50.599998474121</ele>
        <time>2022-08-31T14:17:49Z</time>
      </trkpt>
      <trkpt lat="49.28666" lon="-0.04173">
        <ele>50.599998474121</ele>
        <time>2022-08-31T14:17:50Z</time>
      </trkpt>
      <trkpt lat="49.28667" lon="-0.04174">
        <ele>50.599998474121</ele>
        <time>2022-08-31T14:17:51Z</time>
      </trkpt>
      <trkpt lat="49.28668" lon="-0.04175">
        <ele>50.400001525879</ele>
        <time>2022-08-31T14:17:52Z</time>
      </trkpt>
      <trkpt lat="49.28669" lon="-0.04176">
        <ele>50.400001525879</ele>
        <time>2022-08-31T14:17:53Z</time>
      </trkpt>
      <trkpt lat="49.28671" lon="-0.04181">
        <ele>50</ele>
        <time>2022-08-31T14:17:57Z</time>
      </trkpt>
      <trkpt lat="49.28674" lon="-0.04186">
        <ele>49.799999237061</ele>
        <time>2022-08-31T14:18:01Z</time>
      </trkpt>
      <trkpt lat="49.28681" lon="-0.04196">
        <ele>49.200000762939</ele>
        <time>2022-08-31T14:18:09Z</time>
      </trkpt>
      <trkpt lat="49.28682" lon="-0.04197">
        <ele>49.200000762939</ele>
        <time>2022-08-31T14:18:10Z</time>
      </trkpt>
      <trkpt lat="49.28683" lon="-0.04198">
        <ele>49.200000762939</ele>
        <time>2022-08-31T14:18:11Z</time>
      </trkpt>
      <trkpt lat="49.28684" lon="-0.04199">
        <ele>49.200000762939</ele>
        <time>2022-08-31T14:18:12Z</time>
      </trkpt>
      <trkpt lat="49.28686" lon="-0.042">
        <ele>49</ele>
        <time>2022-08-31T14:18:13Z</time>
      </trkpt>
      <trkpt lat="49.28687" lon="-0.04202">
        <ele>49</ele>
        <time>2022-08-31T14:18:14Z</time>
      </trkpt>
      <trkpt lat="49.28688" lon="-0.04204">
        <ele>49</ele>
        <time>2022-08-31T14:18:15Z</time>
      </trkpt>
      <trkpt lat="49.28688" lon="-0.04207">
        <ele>49</ele>
        <time>2022-08-31T14:18:16Z</time>
      </trkpt>
      <trkpt lat="49.28688" lon="-0.04209">
        <ele>48.799999237061</ele>
        <time>2022-08-31T14:18:17Z</time>
      </trkpt>
      <trkpt lat="49.28689" lon="-0.04211">
        <ele>48.799999237061</ele>
        <time>2022-08-31T14:18:18Z</time>
      </trkpt>
      <trkpt lat="49.28691" lon="-0.04211">
        <ele>48.799999237061</ele>
        <time>2022-08-31T14:18:19Z</time>
      </trkpt>
      <trkpt lat="49.28693" lon="-0.04212">
        <ele>48.599998474121</ele>
        <time>2022-08-31T14:18:20Z</time>
      </trkpt>
      <trkpt lat="49.28695" lon="-0.04212">
        <ele>48.599998474121</ele>
        <time>2022-08-31T14:18:21Z</time>
      </trkpt>
      <trkpt lat="49.28698" lon="-0.04214">
        <ele>48.400001525879</ele>
        <time>2022-08-31T14:18:24Z</time>
      </trkpt>
      <trkpt lat="49.28707" lon="-0.0422">
        <ele>47.799999237061</ele>
        <time>2022-08-31T14:18:33Z</time>
      </trkpt>
      <trkpt lat="49.28707" lon="-0.04222">
        <ele>47.599998474121</ele>
        <time>2022-08-31T14:18:34Z</time>
      </trkpt>
      <trkpt lat="49.28708" lon="-0.04223">
        <ele>47.599998474121</ele>
        <time>2022-08-31T14:18:35Z</time>
      </trkpt>
      <trkpt lat="49.28714" lon="-0.04228">
        <ele>47</ele>
        <time>2022-08-31T14:18:41Z</time>
      </trkpt>
      <trkpt lat="49.28716" lon="-0.04229">
        <ele>46.799999237061</ele>
        <time>2022-08-31T14:18:43Z</time>
      </trkpt>
      <trkpt lat="49.28716" lon="-0.04231">
        <ele>46.599998474121</ele>
        <time>2022-08-31T14:18:44Z</time>
      </trkpt>
      <trkpt lat="49.28737" lon="-0.0425">
        <ele>46</ele>
        <time>2022-08-31T14:19:06Z</time>
      </trkpt>
      <trkpt lat="49.28739" lon="-0.0425">
        <ele>46</ele>
        <time>2022-08-31T14:19:07Z</time>
      </trkpt>
      <trkpt lat="49.2874" lon="-0.04249">
        <ele>45.799999237061</ele>
        <time>2022-08-31T14:19:08Z</time>
      </trkpt>
      <trkpt lat="49.28758" lon="-0.04239">
        <ele>44</ele>
        <time>2022-08-31T14:19:25Z</time>
      </trkpt>
      <trkpt lat="49.28783" lon="-0.04216">
        <ele>42.200000762939</ele>
        <time>2022-08-31T14:19:48Z</time>
      </trkpt>
      <trkpt lat="49.28793" lon="-0.04208">
        <ele>41.599998474121</ele>
        <time>2022-08-31T14:19:58Z</time>
      </trkpt>
      <trkpt lat="49.28794" lon="-0.04206">
        <ele>41.400001525879</ele>
        <time>2022-08-31T14:19:59Z</time>
      </trkpt>
      <trkpt lat="49.28809" lon="-0.04185">
        <ele>40</ele>
        <time>2022-08-31T14:20:15Z</time>
      </trkpt>
      <trkpt lat="49.28818" lon="-0.04175">
        <ele>39.200000762939</ele>
        <time>2022-08-31T14:20:25Z</time>
      </trkpt>
      <trkpt lat="49.28823" lon="-0.04166">
        <ele>38.200000762939</ele>
        <time>2022-08-31T14:20:34Z</time>
      </trkpt>
      <trkpt lat="49.28824" lon="-0.04165">
        <ele>38</ele>
        <time>2022-08-31T14:20:35Z</time>
      </trkpt>
      <trkpt lat="49.28825" lon="-0.04164">
        <ele>38</ele>
        <time>2022-08-31T14:20:36Z</time>
      </trkpt>
      <trkpt lat="49.28836" lon="-0.04147">
        <ele>36.400001525879</ele>
        <time>2022-08-31T14:20:51Z</time>
      </trkpt>
      <trkpt lat="49.28845" lon="-0.04136">
        <ele>35.200000762939</ele>
        <time>2022-08-31T14:21:00Z</time>
      </trkpt>
      <trkpt lat="49.28858" lon="-0.04128">
        <ele>32.200000762939</ele>
        <time>2022-08-31T14:21:19Z</time>
      </trkpt>
      <trkpt lat="49.28871" lon="-0.04113">
        <ele>29.200000762939</ele>
        <time>2022-08-31T14:21:39Z</time>
      </trkpt>
      <trkpt lat="49.28885" lon="-0.04095">
        <ele>26.200000762939</ele>
        <time>2022-08-31T14:22:01Z</time>
      </trkpt>
      <trkpt lat="49.28904" lon="-0.04069">
        <ele>23.200000762939</ele>
        <time>2022-08-31T14:22:23Z</time>
      </trkpt>
      <trkpt lat="49.28915" lon="-0.04053">
        <ele>21.60000038147</ele>
        <time>2022-08-31T14:22:41Z</time>
      </trkpt>
      <trkpt lat="49.28934" lon="-0.04051">
        <ele>18.799999237061</ele>
        <time>2022-08-31T14:23:07Z</time>
      </trkpt>
      <trkpt lat="49.28939" lon="-0.04061">
        <ele>18.200000762939</ele>
        <time>2022-08-31T14:23:16Z</time>
      </trkpt>
      <trkpt lat="49.28957" lon="-0.04075">
        <ele>18.799999237061</ele>
        <time>2022-08-31T14:23:39Z</time>
      </trkpt>
      <trkpt lat="49.28972" lon="-0.04085">
        <ele>20.799999237061</ele>
        <time>2022-08-31T14:24:01Z</time>
      </trkpt>
      <trkpt lat="49.28974" lon="-0.04085">
        <ele>21</ele>
        <time>2022-08-31T14:24:03Z</time>
      </trkpt>
      <trkpt lat="49.28996" lon="-0.04101">
        <ele>22.200000762939</ele>
        <time>2022-08-31T14:24:25Z</time>
      </trkpt>
      <trkpt lat="49.29021" lon="-0.04119">
        <ele>23.39999961853</ele>
        <time>2022-08-31T14:24:52Z</time>
      </trkpt>
      <trkpt lat="49.29042" lon="-0.04121">
        <ele>25.60000038147</ele>
        <time>2022-08-31T14:25:13Z</time>
      </trkpt>
      <trkpt lat="49.29061" lon="-0.04122">
        <ele>28.60000038147</ele>
        <time>2022-08-31T14:25:35Z</time>
      </trkpt>
      <trkpt lat="49.29077" lon="-0.04124">
        <ele>31.60000038147</ele>
        <time>2022-08-31T14:25:55Z</time>
      </trkpt>
      <trkpt lat="49.29093" lon="-0.04121">
        <ele>34.799999237061</ele>
        <time>2022-08-31T14:26:14Z</time>
      </trkpt>
      <trkpt lat="49.29113" lon="-0.04112">
        <ele>37.799999237061</ele>
        <time>2022-08-31T14:26:36Z</time>
      </trkpt>
      <trkpt lat="49.29129" lon="-0.04103">
        <ele>40.400001525879</ele>
        <time>2022-08-31T14:26:56Z</time>
      </trkpt>
      <trkpt lat="49.29145" lon="-0.04091">
        <ele>43.400001525879</ele>
        <time>2022-08-31T14:27:15Z</time>
      </trkpt>
      <trkpt lat="49.29157" lon="-0.04085">
        <ele>46.400001525879</ele>
        <time>2022-08-31T14:27:39Z</time>
      </trkpt>
      <trkpt lat="49.29159" lon="-0.04082">
        <ele>47</ele>
        <time>2022-08-31T14:27:49Z</time>
      </trkpt>
      <trkpt lat="49.29175" lon="-0.04062">
        <ele>48.799999237061</ele>
        <time>2022-08-31T14:28:15Z</time>
      </trkpt>
      <trkpt lat="49.29181" lon="-0.04055">
        <ele>49.799999237061</ele>
        <time>2022-08-31T14:28:25Z</time>
      </trkpt>
      <trkpt lat="49.29194" lon="-0.0404">
        <ele>50.599998474121</ele>
        <time>2022-08-31T14:28:38Z</time>
      </trkpt>
      <trkpt lat="49.29219" lon="-0.04033">
        <ele>50.799999237061</ele>
        <time>2022-08-31T14:28:59Z</time>
      </trkpt>
      <trkpt lat="49.2923" lon="-0.04027">
        <ele>50.799999237061</ele>
        <time>2022-08-31T14:29:09Z</time>
      </trkpt>
      <trkpt lat="49.29231" lon="-0.04026">
        <ele>50.799999237061</ele>
        <time>2022-08-31T14:29:10Z</time>
      </trkpt>
      <trkpt lat="49.2925" lon="-0.04021">
        <ele>50.599998474121</ele>
        <time>2022-08-31T14:29:29Z</time>
      </trkpt>
      <trkpt lat="49.29273" lon="-0.04012">
        <ele>49.400001525879</ele>
        <time>2022-08-31T14:29:50Z</time>
      </trkpt>
      <trkpt lat="49.29275" lon="-0.04012">
        <ele>49.400001525879</ele>
        <time>2022-08-31T14:29:52Z</time>
      </trkpt>
      <trkpt lat="49.29282" lon="-0.04009">
        <ele>49</ele>
        <time>2022-08-31T14:29:56Z</time>
      </trkpt>
      <trkpt lat="49.29302" lon="-0.04004">
        <ele>47</ele>
        <time>2022-08-31T14:30:17Z</time>
      </trkpt>
      <trkpt lat="49.29322" lon="-0.03996">
        <ele>45.200000762939</ele>
        <time>2022-08-31T14:30:40Z</time>
      </trkpt>
      <trkpt lat="49.29357" lon="-0.03988">
        <ele>42.599998474121</ele>
        <time>2022-08-31T14:31:08Z</time>
      </trkpt>
      <trkpt lat="49.29372" lon="-0.03984">
        <ele>40.799999237061</ele>
        <time>2022-08-31T14:31:25Z</time>
      </trkpt>
      <trkpt lat="49.294" lon="-0.03977">
        <ele>37.599998474121</ele>
        <time>2022-08-31T14:31:41Z</time>
      </trkpt>
      <trkpt lat="49.29416" lon="-0.03972">
        <ele>36.400001525879</ele>
        <time>2022-08-31T14:31:54Z</time>
      </trkpt>
      <trkpt lat="49.29436" lon="-0.03967">
        <ele>34.599998474121</ele>
        <time>2022-08-31T14:32:15Z</time>
      </trkpt>
      <trkpt lat="49.29444" lon="-0.03967">
        <ele>34</ele>
        <time>2022-08-31T14:32:21Z</time>
      </trkpt>
      <trkpt lat="49.29456" lon="-0.03968">
        <ele>33.200000762939</ele>
        <time>2022-08-31T14:32:31Z</time>
      </trkpt>
      <trkpt lat="49.29465" lon="-0.03971">
        <ele>32</ele>
        <time>2022-08-31T14:32:42Z</time>
      </trkpt>
      <trkpt lat="49.29476" lon="-0.03976">
        <ele>29.60000038147</ele>
        <time>2022-08-31T14:32:59Z</time>
      </trkpt>
      <trkpt lat="49.29481" lon="-0.03978">
        <ele>28.799999237061</ele>
        <time>2022-08-31T14:33:06Z</time>
      </trkpt>
      <trkpt lat="49.2949" lon="-0.03984">
        <ele>27.60000038147</ele>
        <time>2022-08-31T14:33:15Z</time>
      </trkpt>
      <trkpt lat="49.29513" lon="-0.03982">
        <ele>25</ele>
        <time>2022-08-31T14:33:37Z</time>
      </trkpt>
      <trkpt lat="49.29538" lon="-0.03976">
        <ele>22</ele>
        <time>2022-08-31T14:34:01Z</time>
      </trkpt>
      <trkpt lat="49.29566" lon="-0.0397">
        <ele>19.200000762939</ele>
        <time>2022-08-31T14:34:27Z</time>
      </trkpt>
      <trkpt lat="49.29581" lon="-0.03967">
        <ele>18.200000762939</ele>
        <time>2022-08-31T14:34:48Z</time>
      </trkpt>
      <trkpt lat="49.29601" lon="-0.03973">
        <ele>17.799999237061</ele>
        <time>2022-08-31T14:35:09Z</time>
      </trkpt>
      <trkpt lat="49.29616" lon="-0.03982">
        <ele>18</ele>
        <time>2022-08-31T14:35:28Z</time>
      </trkpt>
      <trkpt lat="49.2964" lon="-0.03984">
        <ele>19.39999961853</ele>
        <time>2022-08-31T14:35:54Z</time>
      </trkpt>
      <trkpt lat="49.29648" lon="-0.03983">
        <ele>19.799999237061</ele>
        <time>2022-08-31T14:36:01Z</time>
      </trkpt>
      <trkpt lat="49.29674" lon="-0.0398">
        <ele>23</ele>
        <time>2022-08-31T14:36:27Z</time>
      </trkpt>
      <trkpt lat="49.29688" lon="-0.03982">
        <ele>26.200000762939</ele>
        <time>2022-08-31T14:36:45Z</time>
      </trkpt>
      <trkpt lat="49.29707" lon="-0.03984">
        <ele>29.200000762939</ele>
        <time>2022-08-31T14:37:05Z</time>
      </trkpt>
      <trkpt lat="49.29726" lon="-0.03988">
        <ele>32.200000762939</ele>
        <time>2022-08-31T14:37:25Z</time>
      </trkpt>
      <trkpt lat="49.29745" lon="-0.03993">
        <ele>34.799999237061</ele>
        <time>2022-08-31T14:37:43Z</time>
      </trkpt>
      <trkpt lat="49.29765" lon="-0.04001">
        <ele>37.799999237061</ele>
        <time>2022-08-31T14:38:06Z</time>
      </trkpt>
      <trkpt lat="49.2978" lon="-0.04014">
        <ele>39</ele>
        <time>2022-08-31T14:38:21Z</time>
      </trkpt>
      <trkpt lat="49.29795" lon="-0.04033">
        <ele>42.200000762939</ele>
        <time>2022-08-31T14:38:40Z</time>
      </trkpt>
      <trkpt lat="49.29799" lon="-0.04047">
        <ele>43.599998474121</ele>
        <time>2022-08-31T14:38:52Z</time>
      </trkpt>
      <trkpt lat="49.29808" lon="-0.04071">
        <ele>45.400001525879</ele>
        <time>2022-08-31T14:39:10Z</time>
      </trkpt>
      <trkpt lat="49.29809" lon="-0.04072">
        <ele>45.400001525879</ele>
        <time>2022-08-31T14:39:11Z</time>
      </trkpt>
      <trkpt lat="49.29815" lon="-0.0408">
        <ele>45.799999237061</ele>
        <time>2022-08-31T14:39:17Z</time>
      </trkpt>
      <trkpt lat="49.2982" lon="-0.04087">
        <ele>46.400001525879</ele>
        <time>2022-08-31T14:39:23Z</time>
      </trkpt>
      <trkpt lat="49.29824" lon="-0.04093">
        <ele>46.799999237061</ele>
        <time>2022-08-31T14:39:27Z</time>
      </trkpt>
      <trkpt lat="49.29833" lon="-0.04103">
        <ele>47.400001525879</ele>
        <time>2022-08-31T14:39:37Z</time>
      </trkpt>
      <trkpt lat="49.29856" lon="-0.04122">
        <ele>50.200000762939</ele>
        <time>2022-08-31T14:39:59Z</time>
      </trkpt>
      <trkpt lat="49.29864" lon="-0.04129">
        <ele>51.400001525879</ele>
        <time>2022-08-31T14:40:10Z</time>
      </trkpt>
      <trkpt lat="49.2989" lon="-0.04138">
        <ele>53.400001525879</ele>
        <time>2022-08-31T14:40:36Z</time>
      </trkpt>
      <trkpt lat="49.29914" lon="-0.04143">
        <ele>56.599998474121</ele>
        <time>2022-08-31T14:40:58Z</time>
      </trkpt>
      <trkpt lat="49.29936" lon="-0.04144">
        <ele>59.599998474121</ele>
        <time>2022-08-31T14:41:19Z</time>
      </trkpt>
      <trkpt lat="49.29953" lon="-0.04144">
        <ele>62.799999237061</ele>
        <time>2022-08-31T14:41:43Z</time>
      </trkpt>
      <trkpt lat="49.29952" lon="-0.04143">
        <ele>63</ele>
        <time>2022-08-31T14:41:45Z</time>
      </trkpt>
      <trkpt lat="49.29965" lon="-0.04138">
        <ele>64.199996948242</ele>
        <time>2022-08-31T14:42:24Z</time>
      </trkpt>
      <trkpt lat="49.29965" lon="-0.04138">
        <ele>64.199996948242</ele>
        <time>2022-08-31T14:42:25Z</time>
      </trkpt>
      <trkpt lat="49.29985" lon="-0.04127">
        <ele>67.400001525879</ele>
        <time>2022-08-31T14:42:53Z</time>
      </trkpt>
      <trkpt lat="49.29993" lon="-0.04119">
        <ele>68.599998474121</ele>
        <time>2022-08-31T14:43:02Z</time>
      </trkpt>
      <trkpt lat="49.30005" lon="-0.04107">
        <ele>70.199996948242</ele>
        <time>2022-08-31T14:43:15Z</time>
      </trkpt>
      <trkpt lat="49.30005" lon="-0.04106">
        <ele>70.400001525879</ele>
        <time>2022-08-31T14:43:16Z</time>
      </trkpt>
      <trkpt lat="49.30011" lon="-0.04098">
        <ele>70.800003051758</ele>
        <time>2022-08-31T14:43:21Z</time>
      </trkpt>
      <trkpt lat="49.30014" lon="-0.04092">
        <ele>71.400001525879</ele>
        <time>2022-08-31T14:43:25Z</time>
      </trkpt>
      <trkpt lat="49.3002" lon="-0.04075">
        <ele>73</ele>
        <time>2022-08-31T14:43:37Z</time>
      </trkpt>
      <trkpt lat="49.30029" lon="-0.04048">
        <ele>75.400001525879</ele>
        <time>2022-08-31T14:43:59Z</time>
      </trkpt>
      <trkpt lat="49.30035" lon="-0.04044">
        <ele>77.599998474121</ele>
        <time>2022-08-31T14:44:18Z</time>
      </trkpt>
      <trkpt lat="49.30048" lon="-0.04049">
        <ele>79</ele>
        <time>2022-08-31T14:44:36Z</time>
      </trkpt>
      <trkpt lat="49.30074" lon="-0.04041">
        <ele>81.599998474121</ele>
        <time>2022-08-31T14:45:00Z</time>
      </trkpt>
      <trkpt lat="49.30075" lon="-0.0404">
        <ele>81.800003051758</ele>
        <time>2022-08-31T14:45:01Z</time>
      </trkpt>
      <trkpt lat="49.30102" lon="-0.04016">
        <ele>83.400001525879</ele>
        <time>2022-08-31T14:45:23Z</time>
      </trkpt>
      <trkpt lat="49.30112" lon="-0.04008">
        <ele>84</ele>
        <time>2022-08-31T14:45:35Z</time>
      </trkpt>
      <trkpt lat="49.30121" lon="-0.04002">
        <ele>85</ele>
        <time>2022-08-31T14:45:49Z</time>
      </trkpt>
      <trkpt lat="49.30136" lon="-0.03997">
        <ele>86.599998474121</ele>
        <time>2022-08-31T14:46:02Z</time>
      </trkpt>
      <trkpt lat="49.3014" lon="-0.03995">
        <ele>86.599998474121</ele>
        <time>2022-08-31T14:46:07Z</time>
      </trkpt>
      <trkpt lat="49.30146" lon="-0.03994">
        <ele>86.800003051758</ele>
        <time>2022-08-31T14:46:13Z</time>
      </trkpt>
      <trkpt lat="49.30153" lon="-0.03992">
        <ele>87</ele>
        <time>2022-08-31T14:46:17Z</time>
      </trkpt>
      <trkpt lat="49.30155" lon="-0.03992">
        <ele>87.199996948242</ele>
        <time>2022-08-31T14:46:19Z</time>
      </trkpt>
      <trkpt lat="49.30167" lon="-0.03986">
        <ele>88.599998474121</ele>
        <time>2022-08-31T14:46:33Z</time>
      </trkpt>
      <trkpt lat="49.3017" lon="-0.03986">
        <ele>88.599998474121</ele>
        <time>2022-08-31T14:46:35Z</time>
      </trkpt>
      <trkpt lat="49.3018" lon="-0.03983">
        <ele>89.199996948242</ele>
        <time>2022-08-31T14:46:39Z</time>
      </trkpt>
      <trkpt lat="49.30181" lon="-0.03982">
        <ele>89.400001525879</ele>
        <time>2022-08-31T14:46:40Z</time>
      </trkpt>
      <trkpt lat="49.30183" lon="-0.03981">
        <ele>89.400001525879</ele>
        <time>2022-08-31T14:46:41Z</time>
      </trkpt>
      <trkpt lat="49.30187" lon="-0.03978">
        <ele>89.199996948242</ele>
        <time>2022-08-31T14:46:56Z</time>
      </trkpt>
      <trkpt lat="49.3019" lon="-0.03979">
        <ele>89</ele>
        <time>2022-08-31T14:46:59Z</time>
      </trkpt>
      <trkpt lat="49.30191" lon="-0.0398">
        <ele>89</ele>
        <time>2022-08-31T14:47:00Z</time>
      </trkpt>
      <trkpt lat="49.30199" lon="-0.03977">
        <ele>89.400001525879</ele>
        <time>2022-08-31T14:47:12Z</time>
      </trkpt>
      <trkpt lat="49.30206" lon="-0.03976">
        <ele>89.800003051758</ele>
        <time>2022-08-31T14:47:20Z</time>
      </trkpt>
      <trkpt lat="49.30207" lon="-0.03975">
        <ele>89.800003051758</ele>
        <time>2022-08-31T14:47:21Z</time>
      </trkpt>
      <trkpt lat="49.30208" lon="-0.03974">
        <ele>89.800003051758</ele>
        <time>2022-08-31T14:47:22Z</time>
      </trkpt>
      <trkpt lat="49.3021" lon="-0.03974">
        <ele>89.800003051758</ele>
        <time>2022-08-31T14:47:23Z</time>
      </trkpt>
      <trkpt lat="49.30212" lon="-0.03974">
        <ele>89.800003051758</ele>
        <time>2022-08-31T14:47:24Z</time>
      </trkpt>
      <trkpt lat="49.30214" lon="-0.03974">
        <ele>89.800003051758</ele>
        <time>2022-08-31T14:47:25Z</time>
      </trkpt>
      <trkpt lat="49.30224" lon="-0.03969">
        <ele>90</ele>
        <time>2022-08-31T14:47:33Z</time>
      </trkpt>
      <trkpt lat="49.30226" lon="-0.03968">
        <ele>90</ele>
        <time>2022-08-31T14:47:34Z</time>
      </trkpt>
      <trkpt lat="49.30228" lon="-0.03966">
        <ele>90</ele>
        <time>2022-08-31T14:47:35Z</time>
      </trkpt>
      <trkpt lat="49.30229" lon="-0.03971">
        <ele>90.199996948242</ele>
        <time>2022-08-31T14:47:42Z</time>
      </trkpt>
      <trkpt lat="49.3023" lon="-0.03974">
        <ele>90.199996948242</ele>
        <time>2022-08-31T14:47:43Z</time>
      </trkpt>
      <trkpt lat="49.30229" lon="-0.03977">
        <ele>90.199996948242</ele>
        <time>2022-08-31T14:47:44Z</time>
      </trkpt>
      <trkpt lat="49.30228" lon="-0.0398">
        <ele>90.199996948242</ele>
        <time>2022-08-31T14:47:45Z</time>
      </trkpt>
      <trkpt lat="49.30228" lon="-0.03982">
        <ele>90.199996948242</ele>
        <time>2022-08-31T14:47:46Z</time>
      </trkpt>
      <trkpt lat="49.3022" lon="-0.03996">
        <ele>90.199996948242</ele>
        <time>2022-08-31T14:47:58Z</time>
      </trkpt>
      <trkpt lat="49.30219" lon="-0.03997">
        <ele>90.199996948242</ele>
        <time>2022-08-31T14:47:59Z</time>
      </trkpt>
      <trkpt lat="49.30209" lon="-0.04023">
        <ele>89.800003051758</ele>
        <time>2022-08-31T14:48:15Z</time>
      </trkpt>
      <trkpt lat="49.30208" lon="-0.04025">
        <ele>89.800003051758</ele>
        <time>2022-08-31T14:48:16Z</time>
      </trkpt>
      <trkpt lat="49.30207" lon="-0.04027">
        <ele>89.800003051758</ele>
        <time>2022-08-31T14:48:17Z</time>
      </trkpt>
      <trkpt lat="49.30206" lon="-0.0403">
        <ele>89.800003051758</ele>
        <time>2022-08-31T14:48:18Z</time>
      </trkpt>
      <trkpt lat="49.30204" lon="-0.04032">
        <ele>89.800003051758</ele>
        <time>2022-08-31T14:48:19Z</time>
      </trkpt>
      <trkpt lat="49.30203" lon="-0.04035">
        <ele>89.800003051758</ele>
        <time>2022-08-31T14:48:20Z</time>
      </trkpt>
      <trkpt lat="49.30201" lon="-0.04037">
        <ele>89.599998474121</ele>
        <time>2022-08-31T14:48:21Z</time>
      </trkpt>
      <trkpt lat="49.302" lon="-0.0404">
        <ele>89.599998474121</ele>
        <time>2022-08-31T14:48:22Z</time>
      </trkpt>
      <trkpt lat="49.30199" lon="-0.04042">
        <ele>89.599998474121</ele>
        <time>2022-08-31T14:48:23Z</time>
      </trkpt>
      <trkpt lat="49.30197" lon="-0.04051">
        <ele>89.599998474121</ele>
        <time>2022-08-31T14:48:27Z</time>
      </trkpt>
      <trkpt lat="49.30196" lon="-0.04054">
        <ele>89.599998474121</ele>
        <time>2022-08-31T14:48:30Z</time>
      </trkpt>
      <trkpt lat="49.30194" lon="-0.04059">
        <ele>89.599998474121</ele>
        <time>2022-08-31T14:48:34Z</time>
      </trkpt>
      <trkpt lat="49.30192" lon="-0.04062">
        <ele>89.599998474121</ele>
        <time>2022-08-31T14:48:36Z</time>
      </trkpt>
      <trkpt lat="49.30192" lon="-0.04064">
        <ele>89.599998474121</ele>
        <time>2022-08-31T14:48:37Z</time>
      </trkpt>
      <trkpt lat="49.30191" lon="-0.04065">
        <ele>89.599998474121</ele>
        <time>2022-08-31T14:48:38Z</time>
      </trkpt>
      <trkpt lat="49.30191" lon="-0.04066">
        <ele>89.599998474121</ele>
        <time>2022-08-31T14:48:39Z</time>
      </trkpt>
      <trkpt lat="49.3019" lon="-0.04068">
        <ele>89.599998474121</ele>
        <time>2022-08-31T14:48:40Z</time>
      </trkpt>
      <trkpt lat="49.30189" lon="-0.04069">
        <ele>89.599998474121</ele>
        <time>2022-08-31T14:48:41Z</time>
      </trkpt>
      <trkpt lat="49.30185" lon="-0.04083">
        <ele>89</ele>
        <time>2022-08-31T14:48:51Z</time>
      </trkpt>
      <trkpt lat="49.30184" lon="-0.04087">
        <ele>89</ele>
        <time>2022-08-31T14:48:53Z</time>
      </trkpt>
      <trkpt lat="49.30173" lon="-0.04109">
        <ele>88.199996948242</ele>
        <time>2022-08-31T14:49:09Z</time>
      </trkpt>
      <trkpt lat="49.30164" lon="-0.04135">
        <ele>87.800003051758</ele>
        <time>2022-08-31T14:49:25Z</time>
      </trkpt>
      <trkpt lat="49.30161" lon="-0.04143">
        <ele>87.800003051758</ele>
        <time>2022-08-31T14:49:29Z</time>
      </trkpt>
      <trkpt lat="49.30159" lon="-0.04147">
        <ele>87.800003051758</ele>
        <time>2022-08-31T14:49:31Z</time>
      </trkpt>
      <trkpt lat="49.30159" lon="-0.04149">
        <ele>87.800003051758</ele>
        <time>2022-08-31T14:49:32Z</time>
      </trkpt>
      <trkpt lat="49.30154" lon="-0.0416">
        <ele>87.599998474121</ele>
        <time>2022-08-31T14:49:40Z</time>
      </trkpt>
      <trkpt lat="49.30153" lon="-0.04163">
        <ele>87.599998474121</ele>
        <time>2022-08-31T14:49:41Z</time>
      </trkpt>
      <trkpt lat="49.30143" lon="-0.04191">
        <ele>87.599998474121</ele>
        <time>2022-08-31T14:49:57Z</time>
      </trkpt>
      <trkpt lat="49.30137" lon="-0.04212">
        <ele>87.400001525879</ele>
        <time>2022-08-31T14:50:12Z</time>
      </trkpt>
      <trkpt lat="49.30122" lon="-0.04248">
        <ele>86.599998474121</ele>
        <time>2022-08-31T14:50:32Z</time>
      </trkpt>
      <trkpt lat="49.30115" lon="-0.04281">
        <ele>86.199996948242</ele>
        <time>2022-08-31T14:50:44Z</time>
      </trkpt>
      <trkpt lat="49.30108" lon="-0.04301">
        <ele>86</ele>
        <time>2022-08-31T14:50:58Z</time>
      </trkpt>
      <trkpt lat="49.30101" lon="-0.04323">
        <ele>85.800003051758</ele>
        <time>2022-08-31T14:51:12Z</time>
      </trkpt>
      <trkpt lat="49.30091" lon="-0.04351">
        <ele>85.400001525879</ele>
        <time>2022-08-31T14:51:25Z</time>
      </trkpt>
      <trkpt lat="49.30085" lon="-0.04369">
        <ele>85.199996948242</ele>
        <time>2022-08-31T14:51:33Z</time>
      </trkpt>
      <trkpt lat="49.30085" lon="-0.04371">
        <ele>85</ele>
        <time>2022-08-31T14:51:34Z</time>
      </trkpt>
      <trkpt lat="49.30085" lon="-0.04374">
        <ele>85</ele>
        <time>2022-08-31T14:51:35Z</time>
      </trkpt>
      <trkpt lat="49.30084" lon="-0.04376">
        <ele>85</ele>
        <time>2022-08-31T14:51:36Z</time>
      </trkpt>
      <trkpt lat="49.30083" lon="-0.04378">
        <ele>85</ele>
        <time>2022-08-31T14:51:37Z</time>
      </trkpt>
      <trkpt lat="49.30083" lon="-0.04384">
        <ele>84.800003051758</ele>
        <time>2022-08-31T14:51:40Z</time>
      </trkpt>
      <trkpt lat="49.30082" lon="-0.04387">
        <ele>84.800003051758</ele>
        <time>2022-08-31T14:51:41Z</time>
      </trkpt>
      <trkpt lat="49.3008" lon="-0.0439">
        <ele>84.599998474121</ele>
        <time>2022-08-31T14:51:42Z</time>
      </trkpt>
      <trkpt lat="49.30079" lon="-0.04392">
        <ele>84.599998474121</ele>
        <time>2022-08-31T14:51:43Z</time>
      </trkpt>
      <trkpt lat="49.30078" lon="-0.04394">
        <ele>84.599998474121</ele>
        <time>2022-08-31T14:51:44Z</time>
      </trkpt>
      <trkpt lat="49.30077" lon="-0.04396">
        <ele>84.599998474121</ele>
        <time>2022-08-31T14:51:45Z</time>
      </trkpt>
      <trkpt lat="49.30074" lon="-0.04401">
        <ele>84.599998474121</ele>
        <time>2022-08-31T14:51:50Z</time>
      </trkpt>
      <trkpt lat="49.30073" lon="-0.04403">
        <ele>84.599998474121</ele>
        <time>2022-08-31T14:51:51Z</time>
      </trkpt>
      <trkpt lat="49.30072" lon="-0.04406">
        <ele>84.400001525879</ele>
        <time>2022-08-31T14:51:52Z</time>
      </trkpt>
      <trkpt lat="49.3007" lon="-0.04409">
        <ele>84.400001525879</ele>
        <time>2022-08-31T14:51:53Z</time>
      </trkpt>
      <trkpt lat="49.30071" lon="-0.04411">
        <ele>84.400001525879</ele>
        <time>2022-08-31T14:51:54Z</time>
      </trkpt>
      <trkpt lat="49.30071" lon="-0.0444">
        <ele>84.199996948242</ele>
        <time>2022-08-31T14:52:14Z</time>
      </trkpt>
      <trkpt lat="49.30067" lon="-0.04471">
        <ele>83.400001525879</ele>
        <time>2022-08-31T14:52:31Z</time>
      </trkpt>
      <trkpt lat="49.30057" lon="-0.04501">
        <ele>82.599998474121</ele>
        <time>2022-08-31T14:52:47Z</time>
      </trkpt>
      <trkpt lat="49.30046" lon="-0.04527">
        <ele>82</ele>
        <time>2022-08-31T14:53:07Z</time>
      </trkpt>
      <trkpt lat="49.30033" lon="-0.04568">
        <ele>81.199996948242</ele>
        <time>2022-08-31T14:53:28Z</time>
      </trkpt>
      <trkpt lat="49.30012" lon="-0.04618">
        <ele>80.199996948242</ele>
        <time>2022-08-31T14:54:00Z</time>
      </trkpt>
      <trkpt lat="49.29993" lon="-0.04667">
        <ele>78.800003051758</ele>
        <time>2022-08-31T14:54:32Z</time>
      </trkpt>
      <trkpt lat="49.29973" lon="-0.04703">
        <ele>77</ele>
        <time>2022-08-31T14:55:03Z</time>
      </trkpt>
      <trkpt lat="49.29958" lon="-0.0473">
        <ele>73.800003051758</ele>
        <time>2022-08-31T14:55:25Z</time>
      </trkpt>
      <trkpt lat="49.29945" lon="-0.0475">
        <ele>71.400001525879</ele>
        <time>2022-08-31T14:55:42Z</time>
      </trkpt>
      <trkpt lat="49.29935" lon="-0.04787">
        <ele>69</ele>
        <time>2022-08-31T14:56:06Z</time>
      </trkpt>
      <trkpt lat="49.29933" lon="-0.04802">
        <ele>67.800003051758</ele>
        <time>2022-08-31T14:56:16Z</time>
      </trkpt>
      <trkpt lat="49.29932" lon="-0.04809">
        <ele>67.400001525879</ele>
        <time>2022-08-31T14:56:20Z</time>
      </trkpt>
      <trkpt lat="49.29931" lon="-0.04827">
        <ele>65.599998474121</ele>
        <time>2022-08-31T14:56:32Z</time>
      </trkpt>
      <trkpt lat="49.29926" lon="-0.04844">
        <ele>63.599998474121</ele>
        <time>2022-08-31T14:56:44Z</time>
      </trkpt>
      <trkpt lat="49.29926" lon="-0.04866">
        <ele>61</ele>
        <time>2022-08-31T14:57:01Z</time>
      </trkpt>
      <trkpt lat="49.29925" lon="-0.04885">
        <ele>59</ele>
        <time>2022-08-31T14:57:14Z</time>
      </trkpt>
      <trkpt lat="49.29921" lon="-0.04899">
        <ele>57.599998474121</ele>
        <time>2022-08-31T14:57:27Z</time>
      </trkpt>
      <trkpt lat="49.29911" lon="-0.04924">
        <ele>55</ele>
        <time>2022-08-31T14:57:41Z</time>
      </trkpt>
      <trkpt lat="49.29904" lon="-0.0494">
        <ele>52.799999237061</ele>
        <time>2022-08-31T14:57:55Z</time>
      </trkpt>
      <trkpt lat="49.29899" lon="-0.04963">
        <ele>50.200000762939</ele>
        <time>2022-08-31T14:58:12Z</time>
      </trkpt>
      <trkpt lat="49.29897" lon="-0.04985">
        <ele>48.400001525879</ele>
        <time>2022-08-31T14:58:26Z</time>
      </trkpt>
      <trkpt lat="49.29891" lon="-0.05023">
        <ele>45.799999237061</ele>
        <time>2022-08-31T14:58:47Z</time>
      </trkpt>
      <trkpt lat="49.29892" lon="-0.05048">
        <ele>44</ele>
        <time>2022-08-31T14:59:07Z</time>
      </trkpt>
      <trkpt lat="49.29892" lon="-0.05049">
        <ele>44</ele>
        <time>2022-08-31T14:59:09Z</time>
      </trkpt>
      <trkpt lat="49.29904" lon="-0.05063">
        <ele>43</ele>
        <time>2022-08-31T14:59:32Z</time>
      </trkpt>
      <trkpt lat="49.29908" lon="-0.0508">
        <ele>42.599998474121</ele>
        <time>2022-08-31T14:59:43Z</time>
      </trkpt>
      <trkpt lat="49.29915" lon="-0.05087">
        <ele>42.599998474121</ele>
        <time>2022-08-31T14:59:47Z</time>
      </trkpt>
      <trkpt lat="49.2992" lon="-0.05089">
        <ele>43</ele>
        <time>2022-08-31T14:59:55Z</time>
      </trkpt>
      <trkpt lat="49.29921" lon="-0.05089">
        <ele>43</ele>
        <time>2022-08-31T14:59:56Z</time>
      </trkpt>
      <trkpt lat="49.29923" lon="-0.0509">
        <ele>43.200000762939</ele>
        <time>2022-08-31T14:59:57Z</time>
      </trkpt>
      <trkpt lat="49.29925" lon="-0.05091">
        <ele>43.200000762939</ele>
        <time>2022-08-31T14:59:58Z</time>
      </trkpt>
      <trkpt lat="49.29927" lon="-0.05091">
        <ele>43.200000762939</ele>
        <time>2022-08-31T14:59:59Z</time>
      </trkpt>
      <trkpt lat="49.29928" lon="-0.05091">
        <ele>43.200000762939</ele>
        <time>2022-08-31T15:00:00Z</time>
      </trkpt>
      <trkpt lat="49.29935" lon="-0.05095">
        <ele>42.799999237061</ele>
        <time>2022-08-31T15:00:10Z</time>
      </trkpt>
      <trkpt lat="49.29937" lon="-0.05096">
        <ele>42.799999237061</ele>
        <time>2022-08-31T15:00:11Z</time>
      </trkpt>
      <trkpt lat="49.29938" lon="-0.05096">
        <ele>42.799999237061</ele>
        <time>2022-08-31T15:00:12Z</time>
      </trkpt>
      <trkpt lat="49.29945" lon="-0.05097">
        <ele>42.400001525879</ele>
        <time>2022-08-31T15:00:21Z</time>
      </trkpt>
      <trkpt lat="49.29947" lon="-0.05097">
        <ele>42.200000762939</ele>
        <time>2022-08-31T15:00:22Z</time>
      </trkpt>
      <trkpt lat="49.29949" lon="-0.05097">
        <ele>42.200000762939</ele>
        <time>2022-08-31T15:00:23Z</time>
      </trkpt>
      <trkpt lat="49.29954" lon="-0.05096">
        <ele>42</ele>
        <time>2022-08-31T15:00:30Z</time>
      </trkpt>
      <trkpt lat="49.29965" lon="-0.05091">
        <ele>42</ele>
        <time>2022-08-31T15:00:41Z</time>
      </trkpt>
      <trkpt lat="49.29976" lon="-0.05086">
        <ele>41.799999237061</ele>
        <time>2022-08-31T15:00:53Z</time>
      </trkpt>
      <trkpt lat="49.29978" lon="-0.05086">
        <ele>41.799999237061</ele>
        <time>2022-08-31T15:00:54Z</time>
      </trkpt>
      <trkpt lat="49.2998" lon="-0.05084">
        <ele>41.599998474121</ele>
        <time>2022-08-31T15:00:55Z</time>
      </trkpt>
      <trkpt lat="49.29981" lon="-0.05084">
        <ele>41.599998474121</ele>
        <time>2022-08-31T15:00:56Z</time>
      </trkpt>
      <trkpt lat="49.29982" lon="-0.05082">
        <ele>41.599998474121</ele>
        <time>2022-08-31T15:00:57Z</time>
      </trkpt>
      <trkpt lat="49.29983" lon="-0.05081">
        <ele>41.599998474121</ele>
        <time>2022-08-31T15:00:58Z</time>
      </trkpt>
      <trkpt lat="49.29984" lon="-0.05079">
        <ele>41.599998474121</ele>
        <time>2022-08-31T15:00:59Z</time>
      </trkpt>
      <trkpt lat="49.29985" lon="-0.05078">
        <ele>41.599998474121</ele>
        <time>2022-08-31T15:01:00Z</time>
      </trkpt>
      <trkpt lat="49.29991" lon="-0.05077">
        <ele>41.400001525879</ele>
        <time>2022-08-31T15:01:06Z</time>
      </trkpt>
      <trkpt lat="49.29992" lon="-0.05077">
        <ele>41.400001525879</ele>
        <time>2022-08-31T15:01:07Z</time>
      </trkpt>
      <trkpt lat="49.29994" lon="-0.05076">
        <ele>41.400001525879</ele>
        <time>2022-08-31T15:01:08Z</time>
      </trkpt>
      <trkpt lat="49.30005" lon="-0.0507">
        <ele>42.200000762939</ele>
        <time>2022-08-31T15:01:17Z</time>
      </trkpt>
      <trkpt lat="49.30026" lon="-0.05063">
        <ele>43</ele>
        <time>2022-08-31T15:01:39Z</time>
      </trkpt>
      <trkpt lat="49.30051" lon="-0.05061">
        <ele>42.599998474121</ele>
        <time>2022-08-31T15:01:58Z</time>
      </trkpt>
      <trkpt lat="49.30066" lon="-0.05061">
        <ele>42.799999237061</ele>
        <time>2022-08-31T15:02:14Z</time>
      </trkpt>
      <trkpt lat="49.30082" lon="-0.05059">
        <ele>43</ele>
        <time>2022-08-31T15:02:36Z</time>
      </trkpt>
      <trkpt lat="49.30109" lon="-0.05052">
        <ele>43.799999237061</ele>
        <time>2022-08-31T15:02:59Z</time>
      </trkpt>
      <trkpt lat="49.30139" lon="-0.05043">
        <ele>44.799999237061</ele>
        <time>2022-08-31T15:03:20Z</time>
      </trkpt>
      <trkpt lat="49.30169" lon="-0.05032">
        <ele>45.799999237061</ele>
        <time>2022-08-31T15:03:38Z</time>
      </trkpt>
      <trkpt lat="49.30184" lon="-0.05021">
        <ele>47.400001525879</ele>
        <time>2022-08-31T15:03:57Z</time>
      </trkpt>
      <trkpt lat="49.30217" lon="-0.05006">
        <ele>49.599998474121</ele>
        <time>2022-08-31T15:04:25Z</time>
      </trkpt>
      <trkpt lat="49.30222" lon="-0.05007">
        <ele>49.799999237061</ele>
        <time>2022-08-31T15:04:30Z</time>
      </trkpt>
      <trkpt lat="49.30232" lon="-0.05012">
        <ele>50</ele>
        <time>2022-08-31T15:04:41Z</time>
      </trkpt>
      <trkpt lat="49.30234" lon="-0.05011">
        <ele>50</ele>
        <time>2022-08-31T15:04:42Z</time>
      </trkpt>
      <trkpt lat="49.30236" lon="-0.05011">
        <ele>50.200000762939</ele>
        <time>2022-08-31T15:04:43Z</time>
      </trkpt>
      <trkpt lat="49.30238" lon="-0.05011">
        <ele>50.200000762939</ele>
        <time>2022-08-31T15:04:45Z</time>
      </trkpt>
      <trkpt lat="49.30239" lon="-0.05004">
        <ele>50.599998474121</ele>
        <time>2022-08-31T15:05:00Z</time>
      </trkpt>
      <trkpt lat="49.30236" lon="-0.04999">
        <ele>50.799999237061</ele>
        <time>2022-08-31T15:06:04Z</time>
      </trkpt>
      <trkpt lat="49.30244" lon="-0.04996">
        <ele>51.599998474121</ele>
        <time>2022-08-31T15:06:39Z</time>
      </trkpt>
      <trkpt lat="49.30258" lon="-0.04966">
        <ele>54</ele>
        <time>2022-08-31T15:07:06Z</time>
      </trkpt>
      <trkpt lat="49.30275" lon="-0.04926">
        <ele>55.799999237061</ele>
        <time>2022-08-31T15:07:35Z</time>
      </trkpt>
      <trkpt lat="49.3029" lon="-0.0489">
        <ele>58.400001525879</ele>
        <time>2022-08-31T15:08:01Z</time>
      </trkpt>
      <trkpt lat="49.30303" lon="-0.04861">
        <ele>60.400001525879</ele>
        <time>2022-08-31T15:08:24Z</time>
      </trkpt>
      <trkpt lat="49.30314" lon="-0.04831">
        <ele>63.400001525879</ele>
        <time>2022-08-31T15:08:48Z</time>
      </trkpt>
      <trkpt lat="49.30326" lon="-0.04816">
        <ele>65.599998474121</ele>
        <time>2022-08-31T15:09:07Z</time>
      </trkpt>
      <trkpt lat="49.30342" lon="-0.04815">
        <ele>68.599998474121</ele>
        <time>2022-08-31T15:09:27Z</time>
      </trkpt>
      <trkpt lat="49.3036" lon="-0.04817">
        <ele>71.800003051758</ele>
        <time>2022-08-31T15:09:45Z</time>
      </trkpt>
      <trkpt lat="49.30363" lon="-0.04817">
        <ele>72.400001525879</ele>
        <time>2022-08-31T15:09:49Z</time>
      </trkpt>
      <trkpt lat="49.30365" lon="-0.04818">
        <ele>72.599998474121</ele>
        <time>2022-08-31T15:09:51Z</time>
      </trkpt>
      <trkpt lat="49.30375" lon="-0.0482">
        <ele>74.800003051758</ele>
        <time>2022-08-31T15:10:04Z</time>
      </trkpt>
      <trkpt lat="49.30387" lon="-0.04809">
        <ele>77.800003051758</ele>
        <time>2022-08-31T15:10:21Z</time>
      </trkpt>
      <trkpt lat="49.30388" lon="-0.04808">
        <ele>78</ele>
        <time>2022-08-31T15:10:22Z</time>
      </trkpt>
      <trkpt lat="49.30398" lon="-0.04799">
        <ele>79.199996948242</ele>
        <time>2022-08-31T15:10:32Z</time>
      </trkpt>
      <trkpt lat="49.30411" lon="-0.04788">
        <ele>80.800003051758</ele>
        <time>2022-08-31T15:10:45Z</time>
      </trkpt>
      <trkpt lat="49.30414" lon="-0.04786">
        <ele>81.199996948242</ele>
        <time>2022-08-31T15:10:48Z</time>
      </trkpt>
      <trkpt lat="49.30419" lon="-0.04781">
        <ele>81.599998474121</ele>
        <time>2022-08-31T15:10:54Z</time>
      </trkpt>
      <trkpt lat="49.30428" lon="-0.04777">
        <ele>82.599998474121</ele>
        <time>2022-08-31T15:11:08Z</time>
      </trkpt>
      <trkpt lat="49.30429" lon="-0.04776">
        <ele>82.599998474121</ele>
        <time>2022-08-31T15:11:09Z</time>
      </trkpt>
      <trkpt lat="49.30434" lon="-0.04775">
        <ele>82.599998474121</ele>
        <time>2022-08-31T15:11:15Z</time>
      </trkpt>
      <trkpt lat="49.30441" lon="-0.04775">
        <ele>82.800003051758</ele>
        <time>2022-08-31T15:11:19Z</time>
      </trkpt>
      <trkpt lat="49.30445" lon="-0.04776">
        <ele>83</ele>
        <time>2022-08-31T15:11:25Z</time>
      </trkpt>
      <trkpt lat="49.30452" lon="-0.04781">
        <ele>83.199996948242</ele>
        <time>2022-08-31T15:11:32Z</time>
      </trkpt>
      <trkpt lat="49.30454" lon="-0.04782">
        <ele>83.400001525879</ele>
        <time>2022-08-31T15:11:33Z</time>
      </trkpt>
      <trkpt lat="49.30455" lon="-0.0478">
        <ele>83.400001525879</ele>
        <time>2022-08-31T15:11:34Z</time>
      </trkpt>
      <trkpt lat="49.30456" lon="-0.04779">
        <ele>83.400001525879</ele>
        <time>2022-08-31T15:11:35Z</time>
      </trkpt>
      <trkpt lat="49.30458" lon="-0.04777">
        <ele>83.400001525879</ele>
        <time>2022-08-31T15:11:36Z</time>
      </trkpt>
      <trkpt lat="49.30459" lon="-0.04777">
        <ele>83.400001525879</ele>
        <time>2022-08-31T15:11:37Z</time>
      </trkpt>
      <trkpt lat="49.30467" lon="-0.04777">
        <ele>83.599998474121</ele>
        <time>2022-08-31T15:11:46Z</time>
      </trkpt>
      <trkpt lat="49.30468" lon="-0.04778">
        <ele>83.599998474121</ele>
        <time>2022-08-31T15:11:47Z</time>
      </trkpt>
      <trkpt lat="49.30474" lon="-0.04781">
        <ele>84</ele>
        <time>2022-08-31T15:11:54Z</time>
      </trkpt>
      <trkpt lat="49.30477" lon="-0.04783">
        <ele>84.199996948242</ele>
        <time>2022-08-31T15:11:56Z</time>
      </trkpt>
      <trkpt lat="49.30479" lon="-0.04784">
        <ele>84.199996948242</ele>
        <time>2022-08-31T15:11:57Z</time>
      </trkpt>
      <trkpt lat="49.30481" lon="-0.04785">
        <ele>84.199996948242</ele>
        <time>2022-08-31T15:11:58Z</time>
      </trkpt>
      <trkpt lat="49.30482" lon="-0.04786">
        <ele>84.199996948242</ele>
        <time>2022-08-31T15:11:59Z</time>
      </trkpt>
      <trkpt lat="49.30489" lon="-0.04789">
        <ele>84.199996948242</ele>
        <time>2022-08-31T15:12:08Z</time>
      </trkpt>
      <trkpt lat="49.3049" lon="-0.04789">
        <ele>84.199996948242</ele>
        <time>2022-08-31T15:12:09Z</time>
      </trkpt>
      <trkpt lat="49.30508" lon="-0.04801">
        <ele>84.199996948242</ele>
        <time>2022-08-31T15:12:25Z</time>
      </trkpt>
      <trkpt lat="49.30524" lon="-0.0481">
        <ele>84.400001525879</ele>
        <time>2022-08-31T15:12:37Z</time>
      </trkpt>
      <trkpt lat="49.30529" lon="-0.04815">
        <ele>84.400001525879</ele>
        <time>2022-08-31T15:12:44Z</time>
      </trkpt>
      <trkpt lat="49.30531" lon="-0.04815">
        <ele>84.400001525879</ele>
        <time>2022-08-31T15:12:45Z</time>
      </trkpt>
      <trkpt lat="49.30532" lon="-0.04816">
        <ele>84.400001525879</ele>
        <time>2022-08-31T15:12:46Z</time>
      </trkpt>
      <trkpt lat="49.30533" lon="-0.04817">
        <ele>84.400001525879</ele>
        <time>2022-08-31T15:12:47Z</time>
      </trkpt>
      <trkpt lat="49.30535" lon="-0.04818">
        <ele>84.400001525879</ele>
        <time>2022-08-31T15:12:48Z</time>
      </trkpt>
      <trkpt lat="49.3055" lon="-0.04823">
        <ele>84.400001525879</ele>
        <time>2022-08-31T15:13:03Z</time>
      </trkpt>
      <trkpt lat="49.30557" lon="-0.04828">
        <ele>84.400001525879</ele>
        <time>2022-08-31T15:13:10Z</time>
      </trkpt>
      <trkpt lat="49.30559" lon="-0.04828">
        <ele>84.400001525879</ele>
        <time>2022-08-31T15:13:11Z</time>
      </trkpt>
      <trkpt lat="49.3056" lon="-0.04828">
        <ele>84.400001525879</ele>
        <time>2022-08-31T15:13:12Z</time>
      </trkpt>
      <trkpt lat="49.30564" lon="-0.0483">
        <ele>84.400001525879</ele>
        <time>2022-08-31T15:13:17Z</time>
      </trkpt>
      <trkpt lat="49.30565" lon="-0.04831">
        <ele>84.400001525879</ele>
        <time>2022-08-31T15:13:18Z</time>
      </trkpt>
      <trkpt lat="49.30568" lon="-0.04831">
        <ele>84</ele>
        <time>2022-08-31T15:13:33Z</time>
      </trkpt>
      <trkpt lat="49.30585" lon="-0.04834">
        <ele>84</ele>
        <time>2022-08-31T15:14:12Z</time>
      </trkpt>
      <trkpt lat="49.306" lon="-0.04839">
        <ele>83.599998474121</ele>
        <time>2022-08-31T15:14:25Z</time>
      </trkpt>
      <trkpt lat="49.30607" lon="-0.04841">
        <ele>83.599998474121</ele>
        <time>2022-08-31T15:14:32Z</time>
      </trkpt>
      <trkpt lat="49.30608" lon="-0.04841">
        <ele>83.599998474121</ele>
        <time>2022-08-31T15:14:33Z</time>
      </trkpt>
      <trkpt lat="49.3061" lon="-0.04841">
        <ele>83.599998474121</ele>
        <time>2022-08-31T15:14:34Z</time>
      </trkpt>
      <trkpt lat="49.30611" lon="-0.04841">
        <ele>83.599998474121</ele>
        <time>2022-08-31T15:14:35Z</time>
      </trkpt>
      <trkpt lat="49.30614" lon="-0.04842">
        <ele>83.599998474121</ele>
        <time>2022-08-31T15:14:36Z</time>
      </trkpt>
      <trkpt lat="49.30616" lon="-0.04843">
        <ele>83.599998474121</ele>
        <time>2022-08-31T15:14:37Z</time>
      </trkpt>
      <trkpt lat="49.30627" lon="-0.04847">
        <ele>83.599998474121</ele>
        <time>2022-08-31T15:14:47Z</time>
      </trkpt>
      <trkpt lat="49.30627" lon="-0.04848">
        <ele>83.599998474121</ele>
        <time>2022-08-31T15:14:48Z</time>
      </trkpt>
      <trkpt lat="49.30628" lon="-0.04851">
        <ele>83.400001525879</ele>
        <time>2022-08-31T15:14:49Z</time>
      </trkpt>
      <trkpt lat="49.30628" lon="-0.04853">
        <ele>83.400001525879</ele>
        <time>2022-08-31T15:14:50Z</time>
      </trkpt>
      <trkpt lat="49.30628" lon="-0.04855">
        <ele>83.400001525879</ele>
        <time>2022-08-31T15:14:51Z</time>
      </trkpt>
      <trkpt lat="49.30628" lon="-0.04856">
        <ele>83.400001525879</ele>
        <time>2022-08-31T15:14:52Z</time>
      </trkpt>
      <trkpt lat="49.30626" lon="-0.04864">
        <ele>82.800003051758</ele>
        <time>2022-08-31T15:15:00Z</time>
      </trkpt>
      <trkpt lat="49.30626" lon="-0.04866">
        <ele>82.800003051758</ele>
        <time>2022-08-31T15:15:01Z</time>
      </trkpt>
      <trkpt lat="49.30626" lon="-0.04868">
        <ele>82.800003051758</ele>
        <time>2022-08-31T15:15:02Z</time>
      </trkpt>
      <trkpt lat="49.30626" lon="-0.0487">
        <ele>82.800003051758</ele>
        <time>2022-08-31T15:15:03Z</time>
      </trkpt>
      <trkpt lat="49.30626" lon="-0.04873">
        <ele>82.800003051758</ele>
        <time>2022-08-31T15:15:04Z</time>
      </trkpt>
      <trkpt lat="49.30621" lon="-0.04897">
        <ele>82.400001525879</ele>
        <time>2022-08-31T15:15:16Z</time>
      </trkpt>
      <trkpt lat="49.3062" lon="-0.04908">
        <ele>82.400001525879</ele>
        <time>2022-08-31T15:15:25Z</time>
      </trkpt>
      <trkpt lat="49.3062" lon="-0.04911">
        <ele>82.400001525879</ele>
        <time>2022-08-31T15:15:26Z</time>
      </trkpt>
      <trkpt lat="49.3062" lon="-0.04923">
        <ele>82.400001525879</ele>
        <time>2022-08-31T15:15:32Z</time>
      </trkpt>
      <trkpt lat="49.3062" lon="-0.04925">
        <ele>82.400001525879</ele>
        <time>2022-08-31T15:15:33Z</time>
      </trkpt>
      <trkpt lat="49.3062" lon="-0.04928">
        <ele>82.400001525879</ele>
        <time>2022-08-31T15:15:34Z</time>
      </trkpt>
      <trkpt lat="49.3062" lon="-0.0493">
        <ele>82.400001525879</ele>
        <time>2022-08-31T15:15:35Z</time>
      </trkpt>
      <trkpt lat="49.30619" lon="-0.04933">
        <ele>82.400001525879</ele>
        <time>2022-08-31T15:15:36Z</time>
      </trkpt>
      <trkpt lat="49.30618" lon="-0.04936">
        <ele>82.400001525879</ele>
        <time>2022-08-31T15:15:37Z</time>
      </trkpt>
      <trkpt lat="49.30617" lon="-0.04939">
        <ele>82.400001525879</ele>
        <time>2022-08-31T15:15:38Z</time>
      </trkpt>
      <trkpt lat="49.30617" lon="-0.04943">
        <ele>82.400001525879</ele>
        <time>2022-08-31T15:15:39Z</time>
      </trkpt>
      <trkpt lat="49.30617" lon="-0.04946">
        <ele>82.400001525879</ele>
        <time>2022-08-31T15:15:40Z</time>
      </trkpt>
      <trkpt lat="49.30616" lon="-0.04949">
        <ele>82.400001525879</ele>
        <time>2022-08-31T15:15:41Z</time>
      </trkpt>
      <trkpt lat="49.30617" lon="-0.04955">
        <ele>82.199996948242</ele>
        <time>2022-08-31T15:15:50Z</time>
      </trkpt>
      <trkpt lat="49.30617" lon="-0.0497">
        <ele>82</ele>
        <time>2022-08-31T15:16:01Z</time>
      </trkpt>
      <trkpt lat="49.30617" lon="-0.04974">
        <ele>82</ele>
        <time>2022-08-31T15:16:02Z</time>
      </trkpt>
      <trkpt lat="49.30616" lon="-0.04977">
        <ele>82</ele>
        <time>2022-08-31T15:16:03Z</time>
      </trkpt>
      <trkpt lat="49.30616" lon="-0.04979">
        <ele>82</ele>
        <time>2022-08-31T15:16:04Z</time>
      </trkpt>
      <trkpt lat="49.30616" lon="-0.04991">
        <ele>82.199996948242</ele>
        <time>2022-08-31T15:16:12Z</time>
      </trkpt>
      <trkpt lat="49.30616" lon="-0.04993">
        <ele>82.400001525879</ele>
        <time>2022-08-31T15:16:13Z</time>
      </trkpt>
      <trkpt lat="49.30616" lon="-0.04995">
        <ele>82.400001525879</ele>
        <time>2022-08-31T15:16:14Z</time>
      </trkpt>
      <trkpt lat="49.30616" lon="-0.04997">
        <ele>82.400001525879</ele>
        <time>2022-08-31T15:16:15Z</time>
      </trkpt>
      <trkpt lat="49.30616" lon="-0.04999">
        <ele>82.400001525879</ele>
        <time>2022-08-31T15:16:16Z</time>
      </trkpt>
      <trkpt lat="49.30615" lon="-0.05029">
        <ele>82.400001525879</ele>
        <time>2022-08-31T15:16:33Z</time>
      </trkpt>
      <trkpt lat="49.3061" lon="-0.05068">
        <ele>82.800003051758</ele>
        <time>2022-08-31T15:16:47Z</time>
      </trkpt>
      <trkpt lat="49.30607" lon="-0.05092">
        <ele>82.800003051758</ele>
        <time>2022-08-31T15:16:59Z</time>
      </trkpt>
      <trkpt lat="49.30606" lon="-0.05107">
        <ele>83</ele>
        <time>2022-08-31T15:17:13Z</time>
      </trkpt>
      <trkpt lat="49.30604" lon="-0.05129">
        <ele>83.199996948242</ele>
        <time>2022-08-31T15:17:25Z</time>
      </trkpt>
      <trkpt lat="49.30604" lon="-0.05135">
        <ele>83.199996948242</ele>
        <time>2022-08-31T15:17:27Z</time>
      </trkpt>
      <trkpt lat="49.30603" lon="-0.05159">
        <ele>83.199996948242</ele>
        <time>2022-08-31T15:17:38Z</time>
      </trkpt>
      <trkpt lat="49.30603" lon="-0.05178">
        <ele>83.400001525879</ele>
        <time>2022-08-31T15:17:48Z</time>
      </trkpt>
      <trkpt lat="49.30602" lon="-0.0518">
        <ele>83.400001525879</ele>
        <time>2022-08-31T15:17:49Z</time>
      </trkpt>
      <trkpt lat="49.30602" lon="-0.05183">
        <ele>83.400001525879</ele>
        <time>2022-08-31T15:17:50Z</time>
      </trkpt>
      <trkpt lat="49.30602" lon="-0.05185">
        <ele>83.400001525879</ele>
        <time>2022-08-31T15:17:51Z</time>
      </trkpt>
      <trkpt lat="49.30602" lon="-0.05188">
        <ele>83.400001525879</ele>
        <time>2022-08-31T15:17:52Z</time>
      </trkpt>
      <trkpt lat="49.30602" lon="-0.0519">
        <ele>83.400001525879</ele>
        <time>2022-08-31T15:17:53Z</time>
      </trkpt>
      <trkpt lat="49.30602" lon="-0.05193">
        <ele>83.400001525879</ele>
        <time>2022-08-31T15:17:54Z</time>
      </trkpt>
      <trkpt lat="49.30596" lon="-0.05227">
        <ele>83.599998474121</ele>
        <time>2022-08-31T15:18:06Z</time>
      </trkpt>
      <trkpt lat="49.30594" lon="-0.05239">
        <ele>83.599998474121</ele>
        <time>2022-08-31T15:18:17Z</time>
      </trkpt>
      <trkpt lat="49.30592" lon="-0.05259">
        <ele>83.800003051758</ele>
        <time>2022-08-31T15:18:31Z</time>
      </trkpt>
      <trkpt lat="49.30592" lon="-0.05263">
        <ele>83.800003051758</ele>
        <time>2022-08-31T15:18:33Z</time>
      </trkpt>
      <trkpt lat="49.30591" lon="-0.05268">
        <ele>83.599998474121</ele>
        <time>2022-08-31T15:18:34Z</time>
      </trkpt>
      <trkpt lat="49.3059" lon="-0.0527">
        <ele>83.599998474121</ele>
        <time>2022-08-31T15:18:35Z</time>
      </trkpt>
      <trkpt lat="49.30589" lon="-0.05272">
        <ele>83.599998474121</ele>
        <time>2022-08-31T15:18:36Z</time>
      </trkpt>
      <trkpt lat="49.30589" lon="-0.05276">
        <ele>83.599998474121</ele>
        <time>2022-08-31T15:18:37Z</time>
      </trkpt>
      <trkpt lat="49.30589" lon="-0.05279">
        <ele>83.599998474121</ele>
        <time>2022-08-31T15:18:38Z</time>
      </trkpt>
      <trkpt lat="49.30589" lon="-0.05282">
        <ele>83.599998474121</ele>
        <time>2022-08-31T15:18:39Z</time>
      </trkpt>
      <trkpt lat="49.3059" lon="-0.0529">
        <ele>83.400001525879</ele>
        <time>2022-08-31T15:18:44Z</time>
      </trkpt>
      <trkpt lat="49.30589" lon="-0.05299">
        <ele>83.400001525879</ele>
        <time>2022-08-31T15:18:47Z</time>
      </trkpt>
      <trkpt lat="49.30589" lon="-0.05302">
        <ele>83.400001525879</ele>
        <time>2022-08-31T15:18:48Z</time>
      </trkpt>
      <trkpt lat="49.30588" lon="-0.05306">
        <ele>83.400001525879</ele>
        <time>2022-08-31T15:18:49Z</time>
      </trkpt>
      <trkpt lat="49.30586" lon="-0.05335">
        <ele>83.199996948242</ele>
        <time>2022-08-31T15:19:01Z</time>
      </trkpt>
      <trkpt lat="49.30585" lon="-0.05339">
        <ele>83.199996948242</ele>
        <time>2022-08-31T15:19:07Z</time>
      </trkpt>
      <trkpt lat="49.30584" lon="-0.05341">
        <ele>83.199996948242</ele>
        <time>2022-08-31T15:19:08Z</time>
      </trkpt>
      <trkpt lat="49.30584" lon="-0.05345">
        <ele>83.199996948242</ele>
        <time>2022-08-31T15:19:10Z</time>
      </trkpt>
      <trkpt lat="49.30584" lon="-0.05347">
        <ele>83.199996948242</ele>
        <time>2022-08-31T15:19:11Z</time>
      </trkpt>
      <trkpt lat="49.30583" lon="-0.05353">
        <ele>83.199996948242</ele>
        <time>2022-08-31T15:19:15Z</time>
      </trkpt>
      <trkpt lat="49.30581" lon="-0.05349">
        <ele>82.599998474121</ele>
        <time>2022-08-31T15:19:20Z</time>
      </trkpt>
      <trkpt lat="49.30581" lon="-0.05352">
        <ele>82.599998474121</ele>
        <time>2022-08-31T15:19:21Z</time>
      </trkpt>
      <trkpt lat="49.3058" lon="-0.05356">
        <ele>82.599998474121</ele>
        <time>2022-08-31T15:19:22Z</time>
      </trkpt>
      <trkpt lat="49.3058" lon="-0.05358">
        <ele>82.400001525879</ele>
        <time>2022-08-31T15:19:23Z</time>
      </trkpt>
      <trkpt lat="49.3058" lon="-0.0536">
        <ele>82.400001525879</ele>
        <time>2022-08-31T15:19:24Z</time>
      </trkpt>
      <trkpt lat="49.3058" lon="-0.05363">
        <ele>82.400001525879</ele>
        <time>2022-08-31T15:19:25Z</time>
      </trkpt>
      <trkpt lat="49.3058" lon="-0.05376">
        <ele>82.199996948242</ele>
        <time>2022-08-31T15:19:34Z</time>
      </trkpt>
      <trkpt lat="49.30578" lon="-0.05387">
        <ele>82</ele>
        <time>2022-08-31T15:19:41Z</time>
      </trkpt>
      <trkpt lat="49.30578" lon="-0.05394">
        <ele>82</ele>
        <time>2022-08-31T15:19:45Z</time>
      </trkpt>
      <trkpt lat="49.30578" lon="-0.05397">
        <ele>81.800003051758</ele>
        <time>2022-08-31T15:19:46Z</time>
      </trkpt>
      <trkpt lat="49.30578" lon="-0.054">
        <ele>81.800003051758</ele>
        <time>2022-08-31T15:19:47Z</time>
      </trkpt>
      <trkpt lat="49.30577" lon="-0.05403">
        <ele>81.599998474121</ele>
        <time>2022-08-31T15:19:48Z</time>
      </trkpt>
      <trkpt lat="49.30576" lon="-0.05405">
        <ele>81.599998474121</ele>
        <time>2022-08-31T15:19:49Z</time>
      </trkpt>
      <trkpt lat="49.30575" lon="-0.05407">
        <ele>81.599998474121</ele>
        <time>2022-08-31T15:19:50Z</time>
      </trkpt>
      <trkpt lat="49.30574" lon="-0.05409">
        <ele>81.599998474121</ele>
        <time>2022-08-31T15:19:51Z</time>
      </trkpt>
      <trkpt lat="49.30573" lon="-0.05412">
        <ele>81.599998474121</ele>
        <time>2022-08-31T15:19:52Z</time>
      </trkpt>
      <trkpt lat="49.30572" lon="-0.05424">
        <ele>81.400001525879</ele>
        <time>2022-08-31T15:20:01Z</time>
      </trkpt>
      <trkpt lat="49.30572" lon="-0.05426">
        <ele>81.400001525879</ele>
        <time>2022-08-31T15:20:02Z</time>
      </trkpt>
      <trkpt lat="49.30571" lon="-0.05431">
        <ele>81.400001525879</ele>
        <time>2022-08-31T15:20:05Z</time>
      </trkpt>
      <trkpt lat="49.30571" lon="-0.05434">
        <ele>81.400001525879</ele>
        <time>2022-08-31T15:20:06Z</time>
      </trkpt>
      <trkpt lat="49.30571" lon="-0.05437">
        <ele>81.400001525879</ele>
        <time>2022-08-31T15:20:07Z</time>
      </trkpt>
      <trkpt lat="49.3057" lon="-0.05441">
        <ele>81.400001525879</ele>
        <time>2022-08-31T15:20:08Z</time>
      </trkpt>
      <trkpt lat="49.3057" lon="-0.05448">
        <ele>81.400001525879</ele>
        <time>2022-08-31T15:20:12Z</time>
      </trkpt>
      <trkpt lat="49.3057" lon="-0.05451">
        <ele>81.400001525879</ele>
        <time>2022-08-31T15:20:13Z</time>
      </trkpt>
      <trkpt lat="49.30569" lon="-0.05458">
        <ele>81</ele>
        <time>2022-08-31T15:20:16Z</time>
      </trkpt>
      <trkpt lat="49.30567" lon="-0.0546">
        <ele>81</ele>
        <time>2022-08-31T15:20:17Z</time>
      </trkpt>
      <trkpt lat="49.30566" lon="-0.05461">
        <ele>81</ele>
        <time>2022-08-31T15:20:18Z</time>
      </trkpt>
      <trkpt lat="49.30564" lon="-0.05463">
        <ele>80.800003051758</ele>
        <time>2022-08-31T15:20:19Z</time>
      </trkpt>
      <trkpt lat="49.30563" lon="-0.05465">
        <ele>80.800003051758</ele>
        <time>2022-08-31T15:20:20Z</time>
      </trkpt>
      <trkpt lat="49.30561" lon="-0.05467">
        <ele>80.800003051758</ele>
        <time>2022-08-31T15:20:21Z</time>
      </trkpt>
      <trkpt lat="49.30559" lon="-0.0548">
        <ele>80.800003051758</ele>
        <time>2022-08-31T15:20:32Z</time>
      </trkpt>
      <trkpt lat="49.30558" lon="-0.05488">
        <ele>80.800003051758</ele>
        <time>2022-08-31T15:20:37Z</time>
      </trkpt>
      <trkpt lat="49.30559" lon="-0.05492">
        <ele>80.800003051758</ele>
        <time>2022-08-31T15:20:38Z</time>
      </trkpt>
      <trkpt lat="49.30559" lon="-0.05496">
        <ele>80.800003051758</ele>
        <time>2022-08-31T15:20:39Z</time>
      </trkpt>
      <trkpt lat="49.30558" lon="-0.05498">
        <ele>80.800003051758</ele>
        <time>2022-08-31T15:20:40Z</time>
      </trkpt>
      <trkpt lat="49.30557" lon="-0.05501">
        <ele>80.800003051758</ele>
        <time>2022-08-31T15:20:41Z</time>
      </trkpt>
      <trkpt lat="49.30557" lon="-0.05504">
        <ele>80.800003051758</ele>
        <time>2022-08-31T15:20:42Z</time>
      </trkpt>
      <trkpt lat="49.30554" lon="-0.05515">
        <ele>80.400001525879</ele>
        <time>2022-08-31T15:20:51Z</time>
      </trkpt>
      <trkpt lat="49.3055" lon="-0.05529">
        <ele>80.400001525879</ele>
        <time>2022-08-31T15:20:58Z</time>
      </trkpt>
      <trkpt lat="49.30547" lon="-0.05539">
        <ele>80</ele>
        <time>2022-08-31T15:21:07Z</time>
      </trkpt>
      <trkpt lat="49.30546" lon="-0.05542">
        <ele>80</ele>
        <time>2022-08-31T15:21:08Z</time>
      </trkpt>
      <trkpt lat="49.30544" lon="-0.05545">
        <ele>80</ele>
        <time>2022-08-31T15:21:09Z</time>
      </trkpt>
      <trkpt lat="49.30543" lon="-0.05548">
        <ele>80</ele>
        <time>2022-08-31T15:21:10Z</time>
      </trkpt>
      <trkpt lat="49.30542" lon="-0.05551">
        <ele>79.800003051758</ele>
        <time>2022-08-31T15:21:11Z</time>
      </trkpt>
      <trkpt lat="49.30541" lon="-0.05553">
        <ele>79.800003051758</ele>
        <time>2022-08-31T15:21:12Z</time>
      </trkpt>
      <trkpt lat="49.30538" lon="-0.05562">
        <ele>79.599998474121</ele>
        <time>2022-08-31T15:21:20Z</time>
      </trkpt>
      <trkpt lat="49.30533" lon="-0.05574">
        <ele>79.599998474121</ele>
        <time>2022-08-31T15:21:26Z</time>
      </trkpt>
      <trkpt lat="49.30532" lon="-0.05576">
        <ele>79.599998474121</ele>
        <time>2022-08-31T15:21:27Z</time>
      </trkpt>
      <trkpt lat="49.3053" lon="-0.05579">
        <ele>79.599998474121</ele>
        <time>2022-08-31T15:21:28Z</time>
      </trkpt>
      <trkpt lat="49.30529" lon="-0.05581">
        <ele>79.599998474121</ele>
        <time>2022-08-31T15:21:29Z</time>
      </trkpt>
      <trkpt lat="49.30529" lon="-0.05583">
        <ele>79.599998474121</ele>
        <time>2022-08-31T15:21:30Z</time>
      </trkpt>
      <trkpt lat="49.30527" lon="-0.0559">
        <ele>79.400001525879</ele>
        <time>2022-08-31T15:21:36Z</time>
      </trkpt>
      <trkpt lat="49.30527" lon="-0.05592">
        <ele>79.400001525879</ele>
        <time>2022-08-31T15:21:37Z</time>
      </trkpt>
      <trkpt lat="49.30526" lon="-0.05595">
        <ele>79.400001525879</ele>
        <time>2022-08-31T15:21:38Z</time>
      </trkpt>
      <trkpt lat="49.30526" lon="-0.05598">
        <ele>79.400001525879</ele>
        <time>2022-08-31T15:21:39Z</time>
      </trkpt>
      <trkpt lat="49.30526" lon="-0.05601">
        <ele>79.400001525879</ele>
        <time>2022-08-31T15:21:40Z</time>
      </trkpt>
      <trkpt lat="49.30525" lon="-0.05603">
        <ele>79.199996948242</ele>
        <time>2022-08-31T15:21:41Z</time>
      </trkpt>
      <trkpt lat="49.30522" lon="-0.05615">
        <ele>79</ele>
        <time>2022-08-31T15:21:52Z</time>
      </trkpt>
      <trkpt lat="49.3052" lon="-0.0562">
        <ele>79</ele>
        <time>2022-08-31T15:21:55Z</time>
      </trkpt>
      <trkpt lat="49.3052" lon="-0.05622">
        <ele>79</ele>
        <time>2022-08-31T15:21:56Z</time>
      </trkpt>
      <trkpt lat="49.30519" lon="-0.05625">
        <ele>79</ele>
        <time>2022-08-31T15:21:57Z</time>
      </trkpt>
      <trkpt lat="49.30518" lon="-0.05628">
        <ele>79</ele>
        <time>2022-08-31T15:21:58Z</time>
      </trkpt>
      <trkpt lat="49.30517" lon="-0.05631">
        <ele>79</ele>
        <time>2022-08-31T15:21:59Z</time>
      </trkpt>
      <trkpt lat="49.30516" lon="-0.05634">
        <ele>79</ele>
        <time>2022-08-31T15:22:00Z</time>
      </trkpt>
      <trkpt lat="49.30511" lon="-0.05652">
        <ele>78.599998474121</ele>
        <time>2022-08-31T15:22:12Z</time>
      </trkpt>
      <trkpt lat="49.30504" lon="-0.05671">
        <ele>78.599998474121</ele>
        <time>2022-08-31T15:22:22Z</time>
      </trkpt>
      <trkpt lat="49.30501" lon="-0.05679">
        <ele>78.400001525879</ele>
        <time>2022-08-31T15:22:28Z</time>
      </trkpt>
      <trkpt lat="49.30499" lon="-0.05687">
        <ele>78.400001525879</ele>
        <time>2022-08-31T15:22:31Z</time>
      </trkpt>
      <trkpt lat="49.30498" lon="-0.05689">
        <ele>78.400001525879</ele>
        <time>2022-08-31T15:22:32Z</time>
      </trkpt>
      <trkpt lat="49.30496" lon="-0.05694">
        <ele>78.400001525879</ele>
        <time>2022-08-31T15:22:37Z</time>
      </trkpt>
      <trkpt lat="49.30495" lon="-0.05699">
        <ele>78.199996948242</ele>
        <time>2022-08-31T15:22:40Z</time>
      </trkpt>
      <trkpt lat="49.30494" lon="-0.05701">
        <ele>78.199996948242</ele>
        <time>2022-08-31T15:22:41Z</time>
      </trkpt>
      <trkpt lat="49.30489" lon="-0.05708">
        <ele>78</ele>
        <time>2022-08-31T15:22:47Z</time>
      </trkpt>
      <trkpt lat="49.30487" lon="-0.05714">
        <ele>77.800003051758</ele>
        <time>2022-08-31T15:22:51Z</time>
      </trkpt>
      <trkpt lat="49.30487" lon="-0.05725">
        <ele>77.599998474121</ele>
        <time>2022-08-31T15:22:58Z</time>
      </trkpt>
      <trkpt lat="49.30486" lon="-0.05728">
        <ele>77.599998474121</ele>
        <time>2022-08-31T15:22:59Z</time>
      </trkpt>
      <trkpt lat="49.30483" lon="-0.05733">
        <ele>77.400001525879</ele>
        <time>2022-08-31T15:23:08Z</time>
      </trkpt>
      <trkpt lat="49.30482" lon="-0.05735">
        <ele>77.199996948242</ele>
        <time>2022-08-31T15:23:13Z</time>
      </trkpt>
      <trkpt lat="49.30481" lon="-0.05737">
        <ele>77.199996948242</ele>
        <time>2022-08-31T15:23:14Z</time>
      </trkpt>
      <trkpt lat="49.3048" lon="-0.05738">
        <ele>77.199996948242</ele>
        <time>2022-08-31T15:23:15Z</time>
      </trkpt>
      <trkpt lat="49.3048" lon="-0.05749">
        <ele>77.199996948242</ele>
        <time>2022-08-31T15:23:25Z</time>
      </trkpt>
      <trkpt lat="49.3048" lon="-0.05751">
        <ele>77.199996948242</ele>
        <time>2022-08-31T15:23:26Z</time>
      </trkpt>
      <trkpt lat="49.30481" lon="-0.05756">
        <ele>77.400001525879</ele>
        <time>2022-08-31T15:23:29Z</time>
      </trkpt>
      <trkpt lat="49.3048" lon="-0.05759">
        <ele>77.400001525879</ele>
        <time>2022-08-31T15:23:30Z</time>
      </trkpt>
      <trkpt lat="49.3048" lon="-0.05762">
        <ele>77.400001525879</ele>
        <time>2022-08-31T15:23:31Z</time>
      </trkpt>
      <trkpt lat="49.3048" lon="-0.05765">
        <ele>77.400001525879</ele>
        <time>2022-08-31T15:23:32Z</time>
      </trkpt>
      <trkpt lat="49.30479" lon="-0.05767">
        <ele>77.400001525879</ele>
        <time>2022-08-31T15:23:33Z</time>
      </trkpt>
      <trkpt lat="49.30477" lon="-0.05775">
        <ele>77.599998474121</ele>
        <time>2022-08-31T15:23:42Z</time>
      </trkpt>
      <trkpt lat="49.30478" lon="-0.05782">
        <ele>77.800003051758</ele>
        <time>2022-08-31T15:23:49Z</time>
      </trkpt>
      <trkpt lat="49.30476" lon="-0.05791">
        <ele>77.800003051758</ele>
        <time>2022-08-31T15:23:56Z</time>
      </trkpt>
      <trkpt lat="49.30476" lon="-0.05793">
        <ele>77.800003051758</ele>
        <time>2022-08-31T15:23:57Z</time>
      </trkpt>
      <trkpt lat="49.30474" lon="-0.05815">
        <ele>77.599998474121</ele>
        <time>2022-08-31T15:24:13Z</time>
      </trkpt>
      <trkpt lat="49.30474" lon="-0.05817">
        <ele>77.599998474121</ele>
        <time>2022-08-31T15:24:14Z</time>
      </trkpt>
      <trkpt lat="49.30475" lon="-0.05834">
        <ele>77.800003051758</ele>
        <time>2022-08-31T15:24:24Z</time>
      </trkpt>
      <trkpt lat="49.30474" lon="-0.05856">
        <ele>78.400001525879</ele>
        <time>2022-08-31T15:24:33Z</time>
      </trkpt>
      <trkpt lat="49.30473" lon="-0.05859">
        <ele>78.400001525879</ele>
        <time>2022-08-31T15:24:34Z</time>
      </trkpt>
      <trkpt lat="49.30473" lon="-0.05867">
        <ele>78.400001525879</ele>
        <time>2022-08-31T15:24:41Z</time>
      </trkpt>
      <trkpt lat="49.30474" lon="-0.05883">
        <ele>78.400001525879</ele>
        <time>2022-08-31T15:24:48Z</time>
      </trkpt>
      <trkpt lat="49.30474" lon="-0.05886">
        <ele>78.400001525879</ele>
        <time>2022-08-31T15:24:49Z</time>
      </trkpt>
      <trkpt lat="49.30474" lon="-0.05889">
        <ele>78.400001525879</ele>
        <time>2022-08-31T15:24:50Z</time>
      </trkpt>
      <trkpt lat="49.30475" lon="-0.05892">
        <ele>78.400001525879</ele>
        <time>2022-08-31T15:24:51Z</time>
      </trkpt>
      <trkpt lat="49.30475" lon="-0.05894">
        <ele>78.400001525879</ele>
        <time>2022-08-31T15:24:52Z</time>
      </trkpt>
      <trkpt lat="49.30475" lon="-0.05896">
        <ele>78.400001525879</ele>
        <time>2022-08-31T15:24:53Z</time>
      </trkpt>
      <trkpt lat="49.30476" lon="-0.05906">
        <ele>78.800003051758</ele>
        <time>2022-08-31T15:25:02Z</time>
      </trkpt>
      <trkpt lat="49.30477" lon="-0.05916">
        <ele>78.800003051758</ele>
        <time>2022-08-31T15:25:06Z</time>
      </trkpt>
      <trkpt lat="49.30476" lon="-0.05918">
        <ele>78.800003051758</ele>
        <time>2022-08-31T15:25:07Z</time>
      </trkpt>
      <trkpt lat="49.30476" lon="-0.05921">
        <ele>79</ele>
        <time>2022-08-31T15:25:08Z</time>
      </trkpt>
      <trkpt lat="49.30476" lon="-0.05924">
        <ele>79</ele>
        <time>2022-08-31T15:25:09Z</time>
      </trkpt>
      <trkpt lat="49.30476" lon="-0.05926">
        <ele>79</ele>
        <time>2022-08-31T15:25:10Z</time>
      </trkpt>
      <trkpt lat="49.30476" lon="-0.05927">
        <ele>79</ele>
        <time>2022-08-31T15:25:11Z</time>
      </trkpt>
      <trkpt lat="49.30476" lon="-0.05938">
        <ele>79.800003051758</ele>
        <time>2022-08-31T15:25:20Z</time>
      </trkpt>
      <trkpt lat="49.30477" lon="-0.0595">
        <ele>80</ele>
        <time>2022-08-31T15:25:25Z</time>
      </trkpt>
      <trkpt lat="49.30477" lon="-0.05953">
        <ele>80</ele>
        <time>2022-08-31T15:25:26Z</time>
      </trkpt>
      <trkpt lat="49.30478" lon="-0.05956">
        <ele>80</ele>
        <time>2022-08-31T15:25:27Z</time>
      </trkpt>
      <trkpt lat="49.30478" lon="-0.05958">
        <ele>80</ele>
        <time>2022-08-31T15:25:28Z</time>
      </trkpt>
      <trkpt lat="49.30478" lon="-0.05961">
        <ele>80</ele>
        <time>2022-08-31T15:25:29Z</time>
      </trkpt>
      <trkpt lat="49.30478" lon="-0.05964">
        <ele>80</ele>
        <time>2022-08-31T15:25:30Z</time>
      </trkpt>
      <trkpt lat="49.30478" lon="-0.05966">
        <ele>80</ele>
        <time>2022-08-31T15:25:31Z</time>
      </trkpt>
      <trkpt lat="49.30478" lon="-0.05988">
        <ele>80.199996948242</ele>
        <time>2022-08-31T15:25:45Z</time>
      </trkpt>
      <trkpt lat="49.3048" lon="-0.06007">
        <ele>80.400001525879</ele>
        <time>2022-08-31T15:25:57Z</time>
      </trkpt>
      <trkpt lat="49.30485" lon="-0.06026">
        <ele>80.199996948242</ele>
        <time>2022-08-31T15:26:08Z</time>
      </trkpt>
      <trkpt lat="49.30485" lon="-0.06038">
        <ele>80.199996948242</ele>
        <time>2022-08-31T15:26:15Z</time>
      </trkpt>
      <trkpt lat="49.30488" lon="-0.06059">
        <ele>80.800003051758</ele>
        <time>2022-08-31T15:26:26Z</time>
      </trkpt>
      <trkpt lat="49.30488" lon="-0.06065">
        <ele>81</ele>
        <time>2022-08-31T15:26:29Z</time>
      </trkpt>
      <trkpt lat="49.30488" lon="-0.06071">
        <ele>81.199996948242</ele>
        <time>2022-08-31T15:26:31Z</time>
      </trkpt>
      <trkpt lat="49.30489" lon="-0.06085">
        <ele>81.400001525879</ele>
        <time>2022-08-31T15:26:40Z</time>
      </trkpt>
      <trkpt lat="49.30489" lon="-0.06088">
        <ele>81.400001525879</ele>
        <time>2022-08-31T15:26:41Z</time>
      </trkpt>
      <trkpt lat="49.30489" lon="-0.06091">
        <ele>81.400001525879</ele>
        <time>2022-08-31T15:26:42Z</time>
      </trkpt>
      <trkpt lat="49.30489" lon="-0.06095">
        <ele>81.400001525879</ele>
        <time>2022-08-31T15:26:43Z</time>
      </trkpt>
      <trkpt lat="49.3049" lon="-0.06098">
        <ele>81.400001525879</ele>
        <time>2022-08-31T15:26:44Z</time>
      </trkpt>
      <trkpt lat="49.3049" lon="-0.06106">
        <ele>82</ele>
        <time>2022-08-31T15:26:50Z</time>
      </trkpt>
      <trkpt lat="49.30491" lon="-0.06113">
        <ele>82.199996948242</ele>
        <time>2022-08-31T15:26:52Z</time>
      </trkpt>
      <trkpt lat="49.30492" lon="-0.06116">
        <ele>82.199996948242</ele>
        <time>2022-08-31T15:26:53Z</time>
      </trkpt>
      <trkpt lat="49.30492" lon="-0.06119">
        <ele>82.199996948242</ele>
        <time>2022-08-31T15:26:54Z</time>
      </trkpt>
      <trkpt lat="49.30493" lon="-0.06122">
        <ele>82.199996948242</ele>
        <time>2022-08-31T15:26:55Z</time>
      </trkpt>
      <trkpt lat="49.30493" lon="-0.06124">
        <ele>82.199996948242</ele>
        <time>2022-08-31T15:26:56Z</time>
      </trkpt>
      <trkpt lat="49.30494" lon="-0.06134">
        <ele>82.800003051758</ele>
        <time>2022-08-31T15:27:05Z</time>
      </trkpt>
      <trkpt lat="49.30495" lon="-0.06136">
        <ele>83</ele>
        <time>2022-08-31T15:27:06Z</time>
      </trkpt>
      <trkpt lat="49.30495" lon="-0.0614">
        <ele>83</ele>
        <time>2022-08-31T15:27:07Z</time>
      </trkpt>
      <trkpt lat="49.30495" lon="-0.06142">
        <ele>83</ele>
        <time>2022-08-31T15:27:08Z</time>
      </trkpt>
      <trkpt lat="49.30495" lon="-0.06146">
        <ele>83.199996948242</ele>
        <time>2022-08-31T15:27:09Z</time>
      </trkpt>
      <trkpt lat="49.30497" lon="-0.06155">
        <ele>83.199996948242</ele>
        <time>2022-08-31T15:27:17Z</time>
      </trkpt>
      <trkpt lat="49.30498" lon="-0.06158">
        <ele>83.199996948242</ele>
        <time>2022-08-31T15:27:18Z</time>
      </trkpt>
      <trkpt lat="49.30498" lon="-0.06161">
        <ele>83.199996948242</ele>
        <time>2022-08-31T15:27:19Z</time>
      </trkpt>
      <trkpt lat="49.30498" lon="-0.06166">
        <ele>83.199996948242</ele>
        <time>2022-08-31T15:27:21Z</time>
      </trkpt>
      <trkpt lat="49.30497" lon="-0.06177">
        <ele>83.199996948242</ele>
        <time>2022-08-31T15:27:30Z</time>
      </trkpt>
      <trkpt lat="49.30498" lon="-0.0618">
        <ele>83.199996948242</ele>
        <time>2022-08-31T15:27:31Z</time>
      </trkpt>
      <trkpt lat="49.30499" lon="-0.06183">
        <ele>83.199996948242</ele>
        <time>2022-08-31T15:27:32Z</time>
      </trkpt>
      <trkpt lat="49.30499" lon="-0.06185">
        <ele>83.199996948242</ele>
        <time>2022-08-31T15:27:33Z</time>
      </trkpt>
      <trkpt lat="49.305" lon="-0.06188">
        <ele>83.199996948242</ele>
        <time>2022-08-31T15:27:34Z</time>
      </trkpt>
      <trkpt lat="49.305" lon="-0.06191">
        <ele>83</ele>
        <time>2022-08-31T15:27:35Z</time>
      </trkpt>
      <trkpt lat="49.30501" lon="-0.06193">
        <ele>83</ele>
        <time>2022-08-31T15:27:36Z</time>
      </trkpt>
      <trkpt lat="49.305" lon="-0.06218">
        <ele>82.800003051758</ele>
        <time>2022-08-31T15:27:50Z</time>
      </trkpt>
      <trkpt lat="49.30501" lon="-0.06222">
        <ele>82.800003051758</ele>
        <time>2022-08-31T15:27:52Z</time>
      </trkpt>
      <trkpt lat="49.30501" lon="-0.06224">
        <ele>82.800003051758</ele>
        <time>2022-08-31T15:27:53Z</time>
      </trkpt>
      <trkpt lat="49.30501" lon="-0.06255">
        <ele>83.400001525879</ele>
        <time>2022-08-31T15:28:10Z</time>
      </trkpt>
      <trkpt lat="49.30502" lon="-0.06276">
        <ele>83.199996948242</ele>
        <time>2022-08-31T15:28:21Z</time>
      </trkpt>
      <trkpt lat="49.30502" lon="-0.06277">
        <ele>83.199996948242</ele>
        <time>2022-08-31T15:28:22Z</time>
      </trkpt>
      <trkpt lat="49.30508" lon="-0.06284">
        <ele>83</ele>
        <time>2022-08-31T15:28:31Z</time>
      </trkpt>
      <trkpt lat="49.30515" lon="-0.06289">
        <ele>83</ele>
        <time>2022-08-31T15:28:39Z</time>
      </trkpt>
      <trkpt lat="49.30519" lon="-0.06291">
        <ele>82.199996948242</ele>
        <time>2022-08-31T15:28:53Z</time>
      </trkpt>
      <trkpt lat="49.30516" lon="-0.06289">
        <ele>82</ele>
        <time>2022-08-31T15:28:56Z</time>
      </trkpt>
      <trkpt lat="49.30505" lon="-0.06288">
        <ele>82.199996948242</ele>
        <time>2022-08-31T15:29:07Z</time>
      </trkpt>
      <trkpt lat="49.30497" lon="-0.06308">
        <ele>82.800003051758</ele>
        <time>2022-08-31T15:29:19Z</time>
      </trkpt>
      <trkpt lat="49.30494" lon="-0.06332">
        <ele>82.199996948242</ele>
        <time>2022-08-31T15:29:34Z</time>
      </trkpt>
      <trkpt lat="49.30493" lon="-0.0636">
        <ele>80.400001525879</ele>
        <time>2022-08-31T15:29:50Z</time>
      </trkpt>
      <trkpt lat="49.30487" lon="-0.06394">
        <ele>77.400001525879</ele>
        <time>2022-08-31T15:30:13Z</time>
      </trkpt>
      <trkpt lat="49.30474" lon="-0.06434">
        <ele>74.599998474121</ele>
        <time>2022-08-31T15:30:41Z</time>
      </trkpt>
      <trkpt lat="49.30467" lon="-0.06473">
        <ele>72.400001525879</ele>
        <time>2022-08-31T15:31:03Z</time>
      </trkpt>
      <trkpt lat="49.30468" lon="-0.0652">
        <ele>70.400001525879</ele>
        <time>2022-08-31T15:31:29Z</time>
      </trkpt>
      <trkpt lat="49.30464" lon="-0.06558">
        <ele>68</ele>
        <time>2022-08-31T15:31:51Z</time>
      </trkpt>
      <trkpt lat="49.30469" lon="-0.06587">
        <ele>65.800003051758</ele>
        <time>2022-08-31T15:32:11Z</time>
      </trkpt>
      <trkpt lat="49.30471" lon="-0.06624">
        <ele>63.200000762939</ele>
        <time>2022-08-31T15:32:33Z</time>
      </trkpt>
      <trkpt lat="49.3047" lon="-0.06649">
        <ele>60.799999237061</ele>
        <time>2022-08-31T15:32:47Z</time>
      </trkpt>
      <trkpt lat="49.30471" lon="-0.06651">
        <ele>60.599998474121</ele>
        <time>2022-08-31T15:32:48Z</time>
      </trkpt>
      <trkpt lat="49.30474" lon="-0.06669">
        <ele>58.799999237061</ele>
        <time>2022-08-31T15:33:05Z</time>
      </trkpt>
      <trkpt lat="49.30474" lon="-0.06679">
        <ele>56.599998474121</ele>
        <time>2022-08-31T15:33:21Z</time>
      </trkpt>
      <trkpt lat="49.30481" lon="-0.06687">
        <ele>56.200000762939</ele>
        <time>2022-08-31T15:34:00Z</time>
      </trkpt>
      <trkpt lat="49.30478" lon="-0.06691">
        <ele>56.200000762939</ele>
        <time>2022-08-31T15:34:02Z</time>
      </trkpt>
      <trkpt lat="49.30479" lon="-0.06698">
        <ele>55.200000762939</ele>
        <time>2022-08-31T15:34:19Z</time>
      </trkpt>
      <trkpt lat="49.30478" lon="-0.0671">
        <ele>53.799999237061</ele>
        <time>2022-08-31T15:34:30Z</time>
      </trkpt>
      <trkpt lat="49.30478" lon="-0.06738">
        <ele>55.799999237061</ele>
        <time>2022-08-31T15:34:55Z</time>
      </trkpt>
      <trkpt lat="49.30482" lon="-0.06767">
        <ele>52.799999237061</ele>
        <time>2022-08-31T15:35:18Z</time>
      </trkpt>
      <trkpt lat="49.30486" lon="-0.06766">
        <ele>52</ele>
        <time>2022-08-31T15:35:36Z</time>
      </trkpt>
      <trkpt lat="49.30484" lon="-0.06765">
        <ele>52</ele>
        <time>2022-08-31T15:35:54Z</time>
      </trkpt>
      <trkpt lat="49.30484" lon="-0.06768">
        <ele>52</ele>
        <time>2022-08-31T15:36:08Z</time>
      </trkpt>
      <trkpt lat="49.30482" lon="-0.06769">
        <ele>52</ele>
        <time>2022-08-31T15:36:30Z</time>
      </trkpt>
      <trkpt lat="49.30481" lon="-0.06777">
        <ele>51.200000762939</ele>
        <time>2022-08-31T15:36:49Z</time>
      </trkpt>
      <trkpt lat="49.30481" lon="-0.06786">
        <ele>49.799999237061</ele>
        <time>2022-08-31T15:37:02Z</time>
      </trkpt>
      <trkpt lat="49.30482" lon="-0.06799">
        <ele>47.400001525879</ele>
        <time>2022-08-31T15:37:14Z</time>
      </trkpt>
      <trkpt lat="49.30482" lon="-0.0681">
        <ele>44.599998474121</ele>
        <time>2022-08-31T15:37:27Z</time>
      </trkpt>
      <trkpt lat="49.30483" lon="-0.06824">
        <ele>42.599998474121</ele>
        <time>2022-08-31T15:37:41Z</time>
      </trkpt>
      <trkpt lat="49.30484" lon="-0.0683">
        <ele>42.200000762939</ele>
        <time>2022-08-31T15:37:48Z</time>
      </trkpt>
      <trkpt lat="49.30484" lon="-0.06839">
        <ele>41.400001525879</ele>
        <time>2022-08-31T15:37:53Z</time>
      </trkpt>
      <trkpt lat="49.30483" lon="-0.06847">
        <ele>40.799999237061</ele>
        <time>2022-08-31T15:37:58Z</time>
      </trkpt>
      <trkpt lat="49.30483" lon="-0.0685">
        <ele>40.599998474121</ele>
        <time>2022-08-31T15:38:00Z</time>
      </trkpt>
      <trkpt lat="49.30486" lon="-0.06861">
        <ele>39.599998474121</ele>
        <time>2022-08-31T15:38:10Z</time>
      </trkpt>
      <trkpt lat="49.30488" lon="-0.06865">
        <ele>38.799999237061</ele>
        <time>2022-08-31T15:38:16Z</time>
      </trkpt>
      <trkpt lat="49.30493" lon="-0.0687">
        <ele>37</ele>
        <time>2022-08-31T15:38:31Z</time>
      </trkpt>
      <trkpt lat="49.30494" lon="-0.0688">
        <ele>34.200000762939</ele>
        <time>2022-08-31T15:38:45Z</time>
      </trkpt>
      <trkpt lat="49.30499" lon="-0.06889">
        <ele>31.39999961853</ele>
        <time>2022-08-31T15:39:01Z</time>
      </trkpt>
      <trkpt lat="49.30499" lon="-0.0689">
        <ele>30</ele>
        <time>2022-08-31T15:39:05Z</time>
      </trkpt>
      <trkpt lat="49.30504" lon="-0.06905">
        <ele>27.39999961853</ele>
        <time>2022-08-31T15:39:25Z</time>
      </trkpt>
      <trkpt lat="49.30507" lon="-0.06915">
        <ele>26.799999237061</ele>
        <time>2022-08-31T15:40:05Z</time>
      </trkpt>
      <trkpt lat="49.30509" lon="-0.0694">
        <ele>26.39999961853</ele>
        <time>2022-08-31T15:40:26Z</time>
      </trkpt>
      <trkpt lat="49.30513" lon="-0.06958">
        <ele>24.39999961853</ele>
        <time>2022-08-31T15:40:45Z</time>
      </trkpt>
      <trkpt lat="49.30516" lon="-0.06973">
        <ele>22.60000038147</ele>
        <time>2022-08-31T15:41:00Z</time>
      </trkpt>
      <trkpt lat="49.30519" lon="-0.06986">
        <ele>21.39999961853</ele>
        <time>2022-08-31T15:41:11Z</time>
      </trkpt>
      <trkpt lat="49.30521" lon="-0.06999">
        <ele>19.60000038147</ele>
        <time>2022-08-31T15:41:22Z</time>
      </trkpt>
      <trkpt lat="49.30523" lon="-0.07017">
        <ele>17.799999237061</ele>
        <time>2022-08-31T15:41:36Z</time>
      </trkpt>
      <trkpt lat="49.30524" lon="-0.0705">
        <ele>14.800000190735</ele>
        <time>2022-08-31T15:41:57Z</time>
      </trkpt>
      <trkpt lat="49.30524" lon="-0.07071">
        <ele>11.60000038147</ele>
        <time>2022-08-31T15:42:14Z</time>
      </trkpt>
      <trkpt lat="49.30522" lon="-0.07098">
        <ele>8.3999996185303</ele>
        <time>2022-08-31T15:42:34Z</time>
      </trkpt>
      <trkpt lat="49.30523" lon="-0.07124">
        <ele>6</ele>
        <time>2022-08-31T15:42:50Z</time>
      </trkpt>
      <trkpt lat="49.30523" lon="-0.07141">
        <ele>4</ele>
        <time>2022-08-31T15:42:59Z</time>
      </trkpt>
      <trkpt lat="49.30523" lon="-0.07168">
        <ele>0.80000001192093</ele>
        <time>2022-08-31T15:43:16Z</time>
      </trkpt>
      <trkpt lat="49.30521" lon="-0.07183">
        <ele>-0.40000000596046</ele>
        <time>2022-08-31T15:43:25Z</time>
      </trkpt>
      <trkpt lat="49.30514" lon="-0.07206">
        <ele>-2.2000000476837</ele>
        <time>2022-08-31T15:43:38Z</time>
      </trkpt>
      <trkpt lat="49.30508" lon="-0.0722">
        <ele>-3.4000000953674</ele>
        <time>2022-08-31T15:43:49Z</time>
      </trkpt>
      <trkpt lat="49.30503" lon="-0.07241">
        <ele>-5.1999998092651</ele>
        <time>2022-08-31T15:44:02Z</time>
      </trkpt>
      <trkpt lat="49.30499" lon="-0.07256">
        <ele>-6.8000001907349</ele>
        <time>2022-08-31T15:44:11Z</time>
      </trkpt>
      <trkpt lat="49.30497" lon="-0.07257">
        <ele>-7</ele>
        <time>2022-08-31T15:44:13Z</time>
      </trkpt>
      <trkpt lat="49.30492" lon="-0.07279">
        <ele>-8.6000003814697</ele>
        <time>2022-08-31T15:44:27Z</time>
      </trkpt>
      <trkpt lat="49.30489" lon="-0.07284">
        <ele>-8.8000001907349</ele>
        <time>2022-08-31T15:44:31Z</time>
      </trkpt>
      <trkpt lat="49.30485" lon="-0.07292">
        <ele>-9.3999996185303</ele>
        <time>2022-08-31T15:44:37Z</time>
      </trkpt>
      <trkpt lat="49.30474" lon="-0.07321">
        <ele>-10.199999809265</ele>
        <time>2022-08-31T15:44:54Z</time>
      </trkpt>
      <trkpt lat="49.30468" lon="-0.07339">
        <ele>-11.199999809265</ele>
        <time>2022-08-31T15:45:05Z</time>
      </trkpt>
      <trkpt lat="49.30463" lon="-0.07362">
        <ele>-12.199999809265</ele>
        <time>2022-08-31T15:45:17Z</time>
      </trkpt>
      <trkpt lat="49.30461" lon="-0.07367">
        <ele>-12.60000038147</ele>
        <time>2022-08-31T15:45:21Z</time>
      </trkpt>
      <trkpt lat="49.30453" lon="-0.07388">
        <ele>-14.199999809265</ele>
        <time>2022-08-31T15:45:35Z</time>
      </trkpt>
      <trkpt lat="49.30448" lon="-0.07406">
        <ele>-14.60000038147</ele>
        <time>2022-08-31T15:45:46Z</time>
      </trkpt>
      <trkpt lat="49.3044" lon="-0.07428">
        <ele>-14.800000190735</ele>
        <time>2022-08-31T15:45:59Z</time>
      </trkpt>
      <trkpt lat="49.30435" lon="-0.07449">
        <ele>-14.39999961853</ele>
        <time>2022-08-31T15:46:12Z</time>
      </trkpt>
      <trkpt lat="49.30434" lon="-0.07452">
        <ele>-14.39999961853</ele>
        <time>2022-08-31T15:46:14Z</time>
      </trkpt>
      <trkpt lat="49.30435" lon="-0.07461">
        <ele>-14</ele>
        <time>2022-08-31T15:46:19Z</time>
      </trkpt>
      <trkpt lat="49.30434" lon="-0.07466">
        <ele>-14</ele>
        <time>2022-08-31T15:46:22Z</time>
      </trkpt>
    </trkseg>
  </trk>
</gpx>